<?xml version='1.0' encoding='UTF-8'?><gpx version="1.1" creator="JPX - https://github.com/jenetics/jpx" xmlns="http://www.topografix.com/GPX/1/1"><trk><trkseg><trkpt lat="45.6222017" lon="10.8112117"><ele>477.0</ele><time>2026-03-28T13:54:50.201Z</time></trkpt><trkpt lat="45.6221617" lon="10.811135"><ele>477.0</ele><time>2026-03-28T13:54:59.201Z</time></trkpt><trkpt lat="45.6220967" lon="10.81107"><ele>477.0</ele><time>2026-03-28T13:55:02.201Z</time></trkpt><trkpt lat="45.622025" lon="10.81094"><ele>477.0</ele><time>2026-03-28T13:55:04.201Z</time></trkpt><trkpt lat="45.6219783" lon="10.8108633"><ele>477.0</ele><time>2026-03-28T13:55:05.201Z</time></trkpt><trkpt lat="45.621905" lon="10.8108033"><ele>477.0</ele><time>2026-03-28T13:55:07.201Z</time></trkpt><trkpt lat="45.6218583" lon="10.81088"><ele>477.0</ele><time>2026-03-28T13:55:11.201Z</time></trkpt><trkpt lat="45.6219133" lon="10.8109833"><ele>477.0</ele><time>2026-03-28T13:55:13.202Z</time></trkpt><trkpt lat="45.6220017" lon="10.811125"><ele>477.0</ele><time>2026-03-28T13:55:15.202Z</time></trkpt><trkpt lat="45.6220383" lon="10.8111983"><ele>477.0</ele><time>2026-03-28T13:55:16.201Z</time></trkpt><trkpt lat="45.6220717" lon="10.8112917"><ele>477.0</ele><time>2026-03-28T13:55:17.201Z</time></trkpt><trkpt lat="45.6221033" lon="10.8113817"><ele>477.0</ele><time>2026-03-28T13:55:18.201Z</time></trkpt><trkpt lat="45.622135" lon="10.81147"><ele>477.0</ele><time>2026-03-28T13:55:19.202Z</time></trkpt><trkpt lat="45.6221667" lon="10.8115667"><ele>477.00000000000006</ele><time>2026-03-28T13:55:20.201Z</time></trkpt><trkpt lat="45.622195" lon="10.8117"><ele>477.00000000000006</ele><time>2026-03-28T13:55:21.201Z</time></trkpt><trkpt lat="45.6222233" lon="10.811835"><ele>477.0</ele><time>2026-03-28T13:55:22.202Z</time></trkpt><trkpt lat="45.6222483" lon="10.8119883"><ele>477.0</ele><time>2026-03-28T13:55:23.201Z</time></trkpt><trkpt lat="45.6222783" lon="10.812135"><ele>476.1666666666667</ele><time>2026-03-28T13:55:24.201Z</time></trkpt><trkpt lat="45.6223167" lon="10.812265"><ele>475.33333333333337</ele><time>2026-03-28T13:55:25.201Z</time></trkpt><trkpt lat="45.6223483" lon="10.8123983"><ele>474.5</ele><time>2026-03-28T13:55:26.201Z</time></trkpt><trkpt lat="45.6223933" lon="10.81248"><ele>473.6666666666667</ele><time>2026-03-28T13:55:27.201Z</time></trkpt><trkpt lat="45.622425" lon="10.812575"><ele>472.83333333333337</ele><time>2026-03-28T13:55:28.201Z</time></trkpt><trkpt lat="45.62247" lon="10.81271"><ele>472.0</ele><time>2026-03-28T13:55:30.201Z</time></trkpt><trkpt lat="45.6224467" lon="10.81284"><ele>470.1666666666667</ele><time>2026-03-28T13:55:32.202Z</time></trkpt><trkpt lat="45.6223633" lon="10.812945"><ele>468.33333333333337</ele><time>2026-03-28T13:55:34.202Z</time></trkpt><trkpt lat="45.622305" lon="10.81303"><ele>466.5</ele><time>2026-03-28T13:55:36.202Z</time></trkpt><trkpt lat="45.6223" lon="10.81313"><ele>464.66666666666663</ele><time>2026-03-28T13:55:39.202Z</time></trkpt><trkpt lat="45.622285" lon="10.8132183"><ele>462.8333333333333</ele><time>2026-03-28T13:55:57.201Z</time></trkpt><trkpt lat="45.622275" lon="10.8133317"><ele>461.0</ele><time>2026-03-28T13:55:59.202Z</time></trkpt><trkpt lat="45.6222767" lon="10.813465"><ele>459.99999999999994</ele><time>2026-03-28T13:56:02.202Z</time></trkpt><trkpt lat="45.6223067" lon="10.81358"><ele>459.0</ele><time>2026-03-28T13:56:04.202Z</time></trkpt><trkpt lat="45.6223717" lon="10.8136433"><ele>458.0</ele><time>2026-03-28T13:56:06.202Z</time></trkpt><trkpt lat="45.6224467" lon="10.8136883"><ele>457.0</ele><time>2026-03-28T13:56:08.201Z</time></trkpt><trkpt lat="45.62249" lon="10.8137933"><ele>455.99999999999994</ele><time>2026-03-28T13:56:13.201Z</time></trkpt><trkpt lat="45.6224667" lon="10.8137067"><ele>455.0</ele><time>2026-03-28T13:56:18.201Z</time></trkpt><trkpt lat="45.6224133" lon="10.8136533"><ele>455.0</ele><time>2026-03-28T13:56:19.201Z</time></trkpt><trkpt lat="45.6223667" lon="10.8135833"><ele>455.0</ele><time>2026-03-28T13:56:20.202Z</time></trkpt><trkpt lat="45.622325" lon="10.8134117"><ele>455.0</ele><time>2026-03-28T13:56:22.201Z</time></trkpt><trkpt lat="45.6223167" lon="10.8133167"><ele>455.0</ele><time>2026-03-28T13:56:23.201Z</time></trkpt><trkpt lat="45.62231" lon="10.813205"><ele>455.0</ele><time>2026-03-28T13:56:25.201Z</time></trkpt><trkpt lat="45.6221967" lon="10.8131133"><ele>454.16666666666663</ele><time>2026-03-28T13:56:34.201Z</time></trkpt><trkpt lat="45.622145" lon="10.8129933"><ele>453.3333333333333</ele><time>2026-03-28T13:56:36.201Z</time></trkpt><trkpt lat="45.6220983" lon="10.81283"><ele>452.5</ele><time>2026-03-28T13:56:38.201Z</time></trkpt><trkpt lat="45.62208" lon="10.8127433"><ele>451.66666666666663</ele><time>2026-03-28T13:56:39.202Z</time></trkpt><trkpt lat="45.6220483" lon="10.8126467"><ele>450.8333333333333</ele><time>2026-03-28T13:56:40.201Z</time></trkpt><trkpt lat="45.6220167" lon="10.8125583"><ele>450.0</ele><time>2026-03-28T13:56:41.201Z</time></trkpt><trkpt lat="45.62198" lon="10.8124783"><ele>450.0</ele><time>2026-03-28T13:56:42.201Z</time></trkpt><trkpt lat="45.621915" lon="10.812315"><ele>450.0</ele><time>2026-03-28T13:56:44.202Z</time></trkpt><trkpt lat="45.6218817" lon="10.8122217"><ele>450.0</ele><time>2026-03-28T13:56:45.202Z</time></trkpt><trkpt lat="45.6218483" lon="10.8121317"><ele>450.0</ele><time>2026-03-28T13:56:46.201Z</time></trkpt><trkpt lat="45.6218133" lon="10.812045"><ele>450.0</ele><time>2026-03-28T13:56:47.202Z</time></trkpt><trkpt lat="45.621775" lon="10.81195"><ele>450.0</ele><time>2026-03-28T13:56:48.201Z</time></trkpt><trkpt lat="45.621745" lon="10.8118567"><ele>450.6666666666667</ele><time>2026-03-28T13:56:49.202Z</time></trkpt><trkpt lat="45.6217083" lon="10.81174"><ele>451.33333333333337</ele><time>2026-03-28T13:56:50.202Z</time></trkpt><trkpt lat="45.6216783" lon="10.8116333"><ele>452.0</ele><time>2026-03-28T13:56:51.201Z</time></trkpt><trkpt lat="45.6216483" lon="10.811535"><ele>452.6666666666667</ele><time>2026-03-28T13:56:52.201Z</time></trkpt><trkpt lat="45.621605" lon="10.811415"><ele>453.33333333333337</ele><time>2026-03-28T13:56:53.202Z</time></trkpt><trkpt lat="45.621555" lon="10.8112917"><ele>454.0</ele><time>2026-03-28T13:56:54.201Z</time></trkpt><trkpt lat="45.621515" lon="10.81117"><ele>454.00000000000006</ele><time>2026-03-28T13:56:55.201Z</time></trkpt><trkpt lat="45.621485" lon="10.811055"><ele>454.0</ele><time>2026-03-28T13:56:56.202Z</time></trkpt><trkpt lat="45.6214633" lon="10.8109433"><ele>454.0</ele><time>2026-03-28T13:56:57.202Z</time></trkpt><trkpt lat="45.6214483" lon="10.8108417"><ele>454.0</ele><time>2026-03-28T13:56:58.201Z</time></trkpt><trkpt lat="45.621425" lon="10.810745"><ele>454.00000000000006</ele><time>2026-03-28T13:56:59.202Z</time></trkpt><trkpt lat="45.62139" lon="10.81064"><ele>454.0</ele><time>2026-03-28T13:57:00.202Z</time></trkpt><trkpt lat="45.6213583" lon="10.81054"><ele>453.4</ele><time>2026-03-28T13:57:01.201Z</time></trkpt><trkpt lat="45.6213233" lon="10.8104433"><ele>452.79999999999995</ele><time>2026-03-28T13:57:02.202Z</time></trkpt><trkpt lat="45.6212817" lon="10.8103483"><ele>452.20000000000005</ele><time>2026-03-28T13:57:03.201Z</time></trkpt><trkpt lat="45.6212417" lon="10.8102717"><ele>451.6</ele><time>2026-03-28T13:57:04.201Z</time></trkpt><trkpt lat="45.6211617" lon="10.8101533"><ele>451.0</ele><time>2026-03-28T13:57:06.201Z</time></trkpt><trkpt lat="45.621075" lon="10.8100283"><ele>451.0</ele><time>2026-03-28T13:57:08.201Z</time></trkpt><trkpt lat="45.62098" lon="10.8099167"><ele>451.0</ele><time>2026-03-28T13:57:10.201Z</time></trkpt><trkpt lat="45.6208967" lon="10.80982"><ele>451.0</ele><time>2026-03-28T13:57:12.201Z</time></trkpt><trkpt lat="45.6208367" lon="10.8097633"><ele>451.0</ele><time>2026-03-28T13:57:13.201Z</time></trkpt><trkpt lat="45.6207783" lon="10.80969"><ele>451.0</ele><time>2026-03-28T13:57:14.202Z</time></trkpt><trkpt lat="45.620715" lon="10.80962"><ele>451.0</ele><time>2026-03-28T13:57:15.202Z</time></trkpt><trkpt lat="45.6206417" lon="10.8095567"><ele>451.0</ele><time>2026-03-28T13:57:16.201Z</time></trkpt><trkpt lat="45.6205517" lon="10.809485"><ele>451.0</ele><time>2026-03-28T13:57:17.201Z</time></trkpt><trkpt lat="45.62046" lon="10.8094067"><ele>451.0</ele><time>2026-03-28T13:57:18.201Z</time></trkpt><trkpt lat="45.6203683" lon="10.8093367"><ele>451.0</ele><time>2026-03-28T13:57:19.202Z</time></trkpt><trkpt lat="45.6202733" lon="10.8092783"><ele>450.8</ele><time>2026-03-28T13:57:20.202Z</time></trkpt><trkpt lat="45.6201783" lon="10.8092283"><ele>450.6</ele><time>2026-03-28T13:57:21.202Z</time></trkpt><trkpt lat="45.6200917" lon="10.80918"><ele>450.4</ele><time>2026-03-28T13:57:22.201Z</time></trkpt><trkpt lat="45.6200083" lon="10.8091233"><ele>450.2</ele><time>2026-03-28T13:57:23.202Z</time></trkpt><trkpt lat="45.61992" lon="10.8090533"><ele>450.0</ele><time>2026-03-28T13:57:24.202Z</time></trkpt><trkpt lat="45.619835" lon="10.8089817"><ele>450.0</ele><time>2026-03-28T13:57:25.201Z</time></trkpt><trkpt lat="45.6197583" lon="10.808905"><ele>450.0</ele><time>2026-03-28T13:57:26.202Z</time></trkpt><trkpt lat="45.6196867" lon="10.8088083"><ele>450.0</ele><time>2026-03-28T13:57:27.201Z</time></trkpt><trkpt lat="45.6196317" lon="10.8087117"><ele>450.0</ele><time>2026-03-28T13:57:28.201Z</time></trkpt><trkpt lat="45.6195817" lon="10.8086217"><ele>450.0</ele><time>2026-03-28T13:57:29.201Z</time></trkpt><trkpt lat="45.6195283" lon="10.8085217"><ele>450.0</ele><time>2026-03-28T13:57:30.201Z</time></trkpt><trkpt lat="45.61948" lon="10.808415"><ele>449.6666666666667</ele><time>2026-03-28T13:57:31.202Z</time></trkpt><trkpt lat="45.6194383" lon="10.8083183"><ele>449.33333333333337</ele><time>2026-03-28T13:57:32.201Z</time></trkpt><trkpt lat="45.6193967" lon="10.8082283"><ele>449.0</ele><time>2026-03-28T13:57:33.202Z</time></trkpt><trkpt lat="45.619345" lon="10.8081383"><ele>448.6666666666667</ele><time>2026-03-28T13:57:34.201Z</time></trkpt><trkpt lat="45.6192833" lon="10.8080417"><ele>448.33333333333337</ele><time>2026-03-28T13:57:35.201Z</time></trkpt><trkpt lat="45.6192317" lon="10.80795"><ele>448.0</ele><time>2026-03-28T13:57:36.201Z</time></trkpt><trkpt lat="45.61918" lon="10.8078683"><ele>448.00000000000006</ele><time>2026-03-28T13:57:37.201Z</time></trkpt><trkpt lat="45.6191217" lon="10.8077917"><ele>448.0</ele><time>2026-03-28T13:57:38.201Z</time></trkpt><trkpt lat="45.6190617" lon="10.8077283"><ele>448.0</ele><time>2026-03-28T13:57:39.201Z</time></trkpt><trkpt lat="45.61899" lon="10.807655"><ele>448.0</ele><time>2026-03-28T13:57:40.201Z</time></trkpt><trkpt lat="45.6189267" lon="10.80758"><ele>448.00000000000006</ele><time>2026-03-28T13:57:41.201Z</time></trkpt><trkpt lat="45.6188667" lon="10.807505"><ele>448.0</ele><time>2026-03-28T13:57:42.201Z</time></trkpt><trkpt lat="45.6188117" lon="10.8074233"><ele>446.83333333333337</ele><time>2026-03-28T13:57:43.201Z</time></trkpt><trkpt lat="45.618765" lon="10.8073333"><ele>445.6666666666667</ele><time>2026-03-28T13:57:44.202Z</time></trkpt><trkpt lat="45.6187217" lon="10.8072367"><ele>444.5</ele><time>2026-03-28T13:57:45.202Z</time></trkpt><trkpt lat="45.61867" lon="10.807135"><ele>443.33333333333337</ele><time>2026-03-28T13:57:46.201Z</time></trkpt><trkpt lat="45.6186217" lon="10.8070167"><ele>442.1666666666667</ele><time>2026-03-28T13:57:47.201Z</time></trkpt><trkpt lat="45.6185767" lon="10.806905"><ele>441.0</ele><time>2026-03-28T13:57:48.201Z</time></trkpt><trkpt lat="45.6185317" lon="10.8067867"><ele>441.0</ele><time>2026-03-28T13:57:49.202Z</time></trkpt><trkpt lat="45.61848" lon="10.8066567"><ele>441.0</ele><time>2026-03-28T13:57:50.201Z</time></trkpt><trkpt lat="45.6184333" lon="10.8065217"><ele>441.0</ele><time>2026-03-28T13:57:51.201Z</time></trkpt><trkpt lat="45.618385" lon="10.8063767"><ele>441.0</ele><time>2026-03-28T13:57:52.201Z</time></trkpt><trkpt lat="45.6183283" lon="10.806235"><ele>441.0</ele><time>2026-03-28T13:57:53.201Z</time></trkpt><trkpt lat="45.61827" lon="10.8060833"><ele>443.0</ele><time>2026-03-28T13:57:54.201Z</time></trkpt><trkpt lat="45.6182067" lon="10.8059217"><ele>445.0</ele><time>2026-03-28T13:57:55.202Z</time></trkpt><trkpt lat="45.6181417" lon="10.805775"><ele>447.0</ele><time>2026-03-28T13:57:56.201Z</time></trkpt><trkpt lat="45.6180967" lon="10.8056717"><ele>449.0</ele><time>2026-03-28T13:57:57.201Z</time></trkpt><trkpt lat="45.6180517" lon="10.8055283"><ele>451.0</ele><time>2026-03-28T13:57:59.201Z</time></trkpt><trkpt lat="45.618065" lon="10.8053717"><ele>451.0</ele><time>2026-03-28T13:58:01.201Z</time></trkpt><trkpt lat="45.6180583" lon="10.8052133"><ele>451.0</ele><time>2026-03-28T13:58:03.202Z</time></trkpt><trkpt lat="45.6179517" lon="10.8050617"><ele>451.0</ele><time>2026-03-28T13:58:28.2Z</time></trkpt><trkpt lat="45.6178983" lon="10.804995"><ele>451.0</ele><time>2026-03-28T13:58:31.201Z</time></trkpt><trkpt lat="45.6178133" lon="10.8048767"><ele>448.50000000000006</ele><time>2026-03-28T13:58:33.2Z</time></trkpt><trkpt lat="45.6177633" lon="10.8048"><ele>446.0</ele><time>2026-03-28T13:58:34.2Z</time></trkpt><trkpt lat="45.617715" lon="10.8047183"><ele>443.5</ele><time>2026-03-28T13:58:35.201Z</time></trkpt><trkpt lat="45.6176717" lon="10.8046467"><ele>441.0</ele><time>2026-03-28T13:58:36.2Z</time></trkpt><trkpt lat="45.6175983" lon="10.804565"><ele>438.50000000000006</ele><time>2026-03-28T13:58:37.201Z</time></trkpt><trkpt lat="45.61751" lon="10.8044367"><ele>436.0</ele><time>2026-03-28T13:58:39.2Z</time></trkpt><trkpt lat="45.6174417" lon="10.8043533"><ele>438.83333333333337</ele><time>2026-03-28T13:58:40.2Z</time></trkpt><trkpt lat="45.61738" lon="10.804305"><ele>441.6666666666667</ele><time>2026-03-28T13:58:41.201Z</time></trkpt><trkpt lat="45.6173017" lon="10.8042467"><ele>444.5</ele><time>2026-03-28T13:58:42.2Z</time></trkpt><trkpt lat="45.61722" lon="10.8041683"><ele>447.33333333333337</ele><time>2026-03-28T13:58:43.2Z</time></trkpt><trkpt lat="45.6171483" lon="10.8040933"><ele>450.1666666666667</ele><time>2026-03-28T13:58:44.201Z</time></trkpt><trkpt lat="45.6170733" lon="10.804005"><ele>453.0</ele><time>2026-03-28T13:58:45.2Z</time></trkpt><trkpt lat="45.6169967" lon="10.8039267"><ele>451.6666666666667</ele><time>2026-03-28T13:58:46.201Z</time></trkpt><trkpt lat="45.61692" lon="10.803855"><ele>450.33333333333337</ele><time>2026-03-28T13:58:47.2Z</time></trkpt><trkpt lat="45.6168483" lon="10.8037867"><ele>449.0</ele><time>2026-03-28T13:58:48.2Z</time></trkpt><trkpt lat="45.6167817" lon="10.803725"><ele>447.6666666666667</ele><time>2026-03-28T13:58:49.201Z</time></trkpt><trkpt lat="45.6167083" lon="10.8036717"><ele>446.33333333333337</ele><time>2026-03-28T13:58:50.201Z</time></trkpt><trkpt lat="45.6166333" lon="10.803615"><ele>445.0</ele><time>2026-03-28T13:58:51.201Z</time></trkpt><trkpt lat="45.6165617" lon="10.803535"><ele>446.8</ele><time>2026-03-28T13:58:52.201Z</time></trkpt><trkpt lat="45.6164917" lon="10.8034483"><ele>448.6</ele><time>2026-03-28T13:58:53.2Z</time></trkpt><trkpt lat="45.6164233" lon="10.8033633"><ele>450.4</ele><time>2026-03-28T13:58:54.201Z</time></trkpt><trkpt lat="45.6163533" lon="10.8032767"><ele>452.2</ele><time>2026-03-28T13:58:55.201Z</time></trkpt><trkpt lat="45.61627" lon="10.8032"><ele>454.0</ele><time>2026-03-28T13:58:56.2Z</time></trkpt><trkpt lat="45.6161817" lon="10.80312"><ele>452.83333333333337</ele><time>2026-03-28T13:58:57.2Z</time></trkpt><trkpt lat="45.6161033" lon="10.80304"><ele>451.6666666666667</ele><time>2026-03-28T13:58:58.2Z</time></trkpt><trkpt lat="45.6160333" lon="10.802975"><ele>450.5</ele><time>2026-03-28T13:58:59.201Z</time></trkpt><trkpt lat="45.6159733" lon="10.8029117"><ele>449.33333333333337</ele><time>2026-03-28T13:59:00.2Z</time></trkpt><trkpt lat="45.6159183" lon="10.8028517"><ele>448.1666666666667</ele><time>2026-03-28T13:59:01.2Z</time></trkpt><trkpt lat="45.6158683" lon="10.8027817"><ele>447.0</ele><time>2026-03-28T13:59:02.2Z</time></trkpt><trkpt lat="45.61582" lon="10.8027"><ele>445.6</ele><time>2026-03-28T13:59:03.2Z</time></trkpt><trkpt lat="45.61577" lon="10.802595"><ele>444.20000000000005</ele><time>2026-03-28T13:59:04.2Z</time></trkpt><trkpt lat="45.615725" lon="10.8024717"><ele>442.8</ele><time>2026-03-28T13:59:05.201Z</time></trkpt><trkpt lat="45.6156833" lon="10.802325"><ele>441.4</ele><time>2026-03-28T13:59:06.201Z</time></trkpt><trkpt lat="45.6156433" lon="10.802175"><ele>440.0</ele><time>2026-03-28T13:59:07.201Z</time></trkpt><trkpt lat="45.615605" lon="10.8020367"><ele>439.99999999999994</ele><time>2026-03-28T13:59:08.2Z</time></trkpt><trkpt lat="45.6155667" lon="10.8019183"><ele>440.0</ele><time>2026-03-28T13:59:09.2Z</time></trkpt><trkpt lat="45.6155233" lon="10.801815"><ele>440.0</ele><time>2026-03-28T13:59:10.2Z</time></trkpt><trkpt lat="45.6154733" lon="10.8017167"><ele>440.0</ele><time>2026-03-28T13:59:11.2Z</time></trkpt><trkpt lat="45.61541" lon="10.8016267"><ele>439.99999999999994</ele><time>2026-03-28T13:59:12.201Z</time></trkpt><trkpt lat="45.6153533" lon="10.8015433"><ele>440.0</ele><time>2026-03-28T13:59:13.2Z</time></trkpt><trkpt lat="45.6153083" lon="10.8014667"><ele>438.3333333333333</ele><time>2026-03-28T13:59:14.2Z</time></trkpt><trkpt lat="45.6152767" lon="10.8013833"><ele>436.66666666666663</ele><time>2026-03-28T13:59:15.201Z</time></trkpt><trkpt lat="45.6152583" lon="10.8012783"><ele>435.0</ele><time>2026-03-28T13:59:16.2Z</time></trkpt><trkpt lat="45.615255" lon="10.80114"><ele>433.33333333333337</ele><time>2026-03-28T13:59:17.2Z</time></trkpt><trkpt lat="45.615255" lon="10.801"><ele>431.6666666666667</ele><time>2026-03-28T13:59:18.2Z</time></trkpt><trkpt lat="45.615245" lon="10.80087"><ele>430.0</ele><time>2026-03-28T13:59:19.2Z</time></trkpt><trkpt lat="45.61523" lon="10.8007467"><ele>428.6666666666667</ele><time>2026-03-28T13:59:20.2Z</time></trkpt><trkpt lat="45.6152217" lon="10.8006383"><ele>427.33333333333337</ele><time>2026-03-28T13:59:21.2Z</time></trkpt><trkpt lat="45.6152233" lon="10.8005433"><ele>426.0</ele><time>2026-03-28T13:59:22.201Z</time></trkpt><trkpt lat="45.6152317" lon="10.8004483"><ele>424.66666666666663</ele><time>2026-03-28T13:59:23.2Z</time></trkpt><trkpt lat="45.615245" lon="10.8003183"><ele>423.3333333333333</ele><time>2026-03-28T13:59:25.201Z</time></trkpt><trkpt lat="45.61526" lon="10.8002017"><ele>422.0</ele><time>2026-03-28T13:59:27.201Z</time></trkpt><trkpt lat="45.6153117" lon="10.8000517"><ele>425.8333333333333</ele><time>2026-03-28T13:59:29.2Z</time></trkpt><trkpt lat="45.6153483" lon="10.7999533"><ele>429.66666666666663</ele><time>2026-03-28T13:59:30.2Z</time></trkpt><trkpt lat="45.61538" lon="10.7998617"><ele>433.5</ele><time>2026-03-28T13:59:31.2Z</time></trkpt><trkpt lat="45.6154283" lon="10.7997233"><ele>437.33333333333337</ele><time>2026-03-28T13:59:33.201Z</time></trkpt><trkpt lat="45.61544" lon="10.7995683"><ele>441.1666666666667</ele><time>2026-03-28T13:59:35.2Z</time></trkpt><trkpt lat="45.6154317" lon="10.79947"><ele>445.0</ele><time>2026-03-28T13:59:36.201Z</time></trkpt><trkpt lat="45.6154333" lon="10.79937"><ele>444.0</ele><time>2026-03-28T13:59:37.201Z</time></trkpt><trkpt lat="45.6154033" lon="10.7992383"><ele>443.0</ele><time>2026-03-28T13:59:38.2Z</time></trkpt><trkpt lat="45.6153883" lon="10.79911"><ele>442.0</ele><time>2026-03-28T13:59:39.2Z</time></trkpt><trkpt lat="45.6153683" lon="10.798975"><ele>441.0</ele><time>2026-03-28T13:59:40.201Z</time></trkpt><trkpt lat="45.6153333" lon="10.7988217"><ele>440.0</ele><time>2026-03-28T13:59:41.2Z</time></trkpt><trkpt lat="45.6152833" lon="10.7986767"><ele>433.8</ele><time>2026-03-28T13:59:42.201Z</time></trkpt><trkpt lat="45.6152433" lon="10.7985267"><ele>427.6</ele><time>2026-03-28T13:59:43.201Z</time></trkpt><trkpt lat="45.6152017" lon="10.798395"><ele>421.4</ele><time>2026-03-28T13:59:44.2Z</time></trkpt><trkpt lat="45.6151567" lon="10.79827"><ele>415.2</ele><time>2026-03-28T13:59:45.201Z</time></trkpt><trkpt lat="45.6151183" lon="10.7981533"><ele>409.0</ele><time>2026-03-28T13:59:46.2Z</time></trkpt><trkpt lat="45.6150783" lon="10.7980217"><ele>409.0</ele><time>2026-03-28T13:59:47.2Z</time></trkpt><trkpt lat="45.615045" lon="10.7978783"><ele>409.0</ele><time>2026-03-28T13:59:48.201Z</time></trkpt><trkpt lat="45.6150083" lon="10.797735"><ele>409.0</ele><time>2026-03-28T13:59:49.2Z</time></trkpt><trkpt lat="45.6149733" lon="10.7975983"><ele>409.0</ele><time>2026-03-28T13:59:50.201Z</time></trkpt><trkpt lat="45.6149383" lon="10.79747"><ele>409.0</ele><time>2026-03-28T13:59:51.2Z</time></trkpt><trkpt lat="45.6149083" lon="10.7973517"><ele>408.83333333333337</ele><time>2026-03-28T13:59:52.201Z</time></trkpt><trkpt lat="45.6148833" lon="10.7972383"><ele>408.6666666666667</ele><time>2026-03-28T13:59:53.2Z</time></trkpt><trkpt lat="45.614875" lon="10.7971283"><ele>408.5</ele><time>2026-03-28T13:59:54.2Z</time></trkpt><trkpt lat="45.6148683" lon="10.79701"><ele>408.33333333333337</ele><time>2026-03-28T13:59:55.2Z</time></trkpt><trkpt lat="45.6148783" lon="10.7968867"><ele>408.1666666666667</ele><time>2026-03-28T13:59:56.2Z</time></trkpt><trkpt lat="45.61488" lon="10.79678"><ele>408.0</ele><time>2026-03-28T13:59:57.201Z</time></trkpt><trkpt lat="45.6148683" lon="10.7966817"><ele>407.59999999999997</ele><time>2026-03-28T13:59:58.2Z</time></trkpt><trkpt lat="45.6148467" lon="10.7965833"><ele>407.2</ele><time>2026-03-28T13:59:59.2Z</time></trkpt><trkpt lat="45.6148183" lon="10.7964467"><ele>406.8</ele><time>2026-03-28T14:00:01.2Z</time></trkpt><trkpt lat="45.6147883" lon="10.7963383"><ele>406.4</ele><time>2026-03-28T14:00:03.201Z</time></trkpt><trkpt lat="45.61473" lon="10.7962333"><ele>406.0</ele><time>2026-03-28T14:00:07.2Z</time></trkpt><trkpt lat="45.6146017" lon="10.7961617"><ele>406.0</ele><time>2026-03-28T14:00:09.201Z</time></trkpt><trkpt lat="45.6145083" lon="10.796135"><ele>406.0</ele><time>2026-03-28T14:00:10.2Z</time></trkpt><trkpt lat="45.6144083" lon="10.7961167"><ele>406.0</ele><time>2026-03-28T14:00:11.2Z</time></trkpt><trkpt lat="45.6143067" lon="10.7960967"><ele>406.0</ele><time>2026-03-28T14:00:12.2Z</time></trkpt><trkpt lat="45.61421" lon="10.7960667"><ele>406.0</ele><time>2026-03-28T14:00:13.201Z</time></trkpt><trkpt lat="45.61412" lon="10.7960167"><ele>402.33333333333337</ele><time>2026-03-28T14:00:14.2Z</time></trkpt><trkpt lat="45.6140483" lon="10.79596"><ele>398.6666666666667</ele><time>2026-03-28T14:00:15.201Z</time></trkpt><trkpt lat="45.61396" lon="10.795895"><ele>395.0</ele><time>2026-03-28T14:00:17.2Z</time></trkpt><trkpt lat="45.6138983" lon="10.7958083"><ele>391.33333333333337</ele><time>2026-03-28T14:00:20.201Z</time></trkpt><trkpt lat="45.61386" lon="10.7956683"><ele>387.6666666666667</ele><time>2026-03-28T14:00:22.2Z</time></trkpt><trkpt lat="45.6138417" lon="10.7955783"><ele>384.0</ele><time>2026-03-28T14:00:23.201Z</time></trkpt><trkpt lat="45.613825" lon="10.79547"><ele>384.0</ele><time>2026-03-28T14:00:24.2Z</time></trkpt><trkpt lat="45.6138033" lon="10.7953433"><ele>384.0</ele><time>2026-03-28T14:00:25.2Z</time></trkpt><trkpt lat="45.6137733" lon="10.7952133"><ele>384.0</ele><time>2026-03-28T14:00:26.2Z</time></trkpt><trkpt lat="45.6137317" lon="10.7950983"><ele>384.0</ele><time>2026-03-28T14:00:27.2Z</time></trkpt><trkpt lat="45.613685" lon="10.7949783"><ele>384.0</ele><time>2026-03-28T14:00:28.2Z</time></trkpt><trkpt lat="45.6136417" lon="10.79486"><ele>383.25</ele><time>2026-03-28T14:00:29.201Z</time></trkpt><trkpt lat="45.6135883" lon="10.7946217"><ele>382.5</ele><time>2026-03-28T14:00:31.2Z</time></trkpt><trkpt lat="45.6135633" lon="10.7945"><ele>381.75</ele><time>2026-03-28T14:00:32.2Z</time></trkpt><trkpt lat="45.613535" lon="10.7943833"><ele>381.0</ele><time>2026-03-28T14:00:33.2Z</time></trkpt><trkpt lat="45.6135067" lon="10.7942367"><ele>381.0</ele><time>2026-03-28T14:00:34.2Z</time></trkpt><trkpt lat="45.6134783" lon="10.7941017"><ele>381.0</ele><time>2026-03-28T14:00:35.2Z</time></trkpt><trkpt lat="45.6134433" lon="10.7939867"><ele>381.0</ele><time>2026-03-28T14:00:36.2Z</time></trkpt><trkpt lat="45.6133933" lon="10.7938733"><ele>381.0</ele><time>2026-03-28T14:00:37.2Z</time></trkpt><trkpt lat="45.6133383" lon="10.7937567"><ele>381.0</ele><time>2026-03-28T14:00:38.201Z</time></trkpt><trkpt lat="45.6132717" lon="10.79364"><ele>381.0</ele><time>2026-03-28T14:00:39.201Z</time></trkpt><trkpt lat="45.6132083" lon="10.7935367"><ele>381.0</ele><time>2026-03-28T14:00:40.2Z</time></trkpt><trkpt lat="45.6131467" lon="10.793445"><ele>381.0</ele><time>2026-03-28T14:00:41.2Z</time></trkpt><trkpt lat="45.6130683" lon="10.79337"><ele>381.0</ele><time>2026-03-28T14:00:42.201Z</time></trkpt><trkpt lat="45.61298" lon="10.793295"><ele>381.0</ele><time>2026-03-28T14:00:43.201Z</time></trkpt><trkpt lat="45.6128917" lon="10.79321"><ele>380.1666666666667</ele><time>2026-03-28T14:00:44.2Z</time></trkpt><trkpt lat="45.612815" lon="10.7931167"><ele>379.3333333333333</ele><time>2026-03-28T14:00:45.2Z</time></trkpt><trkpt lat="45.612745" lon="10.7930183"><ele>378.5</ele><time>2026-03-28T14:00:46.201Z</time></trkpt><trkpt lat="45.6126867" lon="10.7929133"><ele>377.66666666666663</ele><time>2026-03-28T14:00:47.2Z</time></trkpt><trkpt lat="45.61264" lon="10.79282"><ele>376.8333333333333</ele><time>2026-03-28T14:00:48.201Z</time></trkpt><trkpt lat="45.6126017" lon="10.79273"><ele>376.0</ele><time>2026-03-28T14:00:49.201Z</time></trkpt><trkpt lat="45.61259" lon="10.7926367"><ele>376.0</ele><time>2026-03-28T14:00:50.201Z</time></trkpt><trkpt lat="45.6125833" lon="10.7925317"><ele>376.0</ele><time>2026-03-28T14:00:51.201Z</time></trkpt><trkpt lat="45.61259" lon="10.79244"><ele>376.0</ele><time>2026-03-28T14:00:52.2Z</time></trkpt><trkpt lat="45.6125883" lon="10.792325"><ele>376.0</ele><time>2026-03-28T14:00:53.2Z</time></trkpt><trkpt lat="45.6125983" lon="10.7922067"><ele>376.0</ele><time>2026-03-28T14:00:54.201Z</time></trkpt><trkpt lat="45.612625" lon="10.7921067"><ele>376.0</ele><time>2026-03-28T14:00:55.201Z</time></trkpt><trkpt lat="45.61266" lon="10.7920083"><ele>376.0</ele><time>2026-03-28T14:00:56.2Z</time></trkpt><trkpt lat="45.6126867" lon="10.7919067"><ele>376.0</ele><time>2026-03-28T14:00:57.2Z</time></trkpt><trkpt lat="45.6127083" lon="10.7918067"><ele>376.0</ele><time>2026-03-28T14:00:58.2Z</time></trkpt><trkpt lat="45.6127183" lon="10.7916933"><ele>376.0</ele><time>2026-03-28T14:00:59.2Z</time></trkpt><trkpt lat="45.6127167" lon="10.7915633"><ele>376.0</ele><time>2026-03-28T14:01:00.2Z</time></trkpt><trkpt lat="45.6126983" lon="10.79141"><ele>376.0</ele><time>2026-03-28T14:01:01.2Z</time></trkpt><trkpt lat="45.6126833" lon="10.7912583"><ele>375.4</ele><time>2026-03-28T14:01:02.2Z</time></trkpt><trkpt lat="45.612665" lon="10.7910917"><ele>374.8</ele><time>2026-03-28T14:01:03.2Z</time></trkpt><trkpt lat="45.612645" lon="10.790925"><ele>374.2</ele><time>2026-03-28T14:01:04.2Z</time></trkpt><trkpt lat="45.6126317" lon="10.7907767"><ele>373.59999999999997</ele><time>2026-03-28T14:01:05.201Z</time></trkpt><trkpt lat="45.6126167" lon="10.7906367"><ele>373.0</ele><time>2026-03-28T14:01:06.2Z</time></trkpt><trkpt lat="45.6125983" lon="10.7905117"><ele>372.66666666666663</ele><time>2026-03-28T14:01:07.2Z</time></trkpt><trkpt lat="45.6125733" lon="10.79039"><ele>372.3333333333333</ele><time>2026-03-28T14:01:08.2Z</time></trkpt><trkpt lat="45.6125367" lon="10.79028"><ele>372.0</ele><time>2026-03-28T14:01:09.2Z</time></trkpt><trkpt lat="45.6124983" lon="10.7901767"><ele>371.6666666666667</ele><time>2026-03-28T14:01:10.2Z</time></trkpt><trkpt lat="45.6124667" lon="10.7900783"><ele>371.33333333333337</ele><time>2026-03-28T14:01:11.2Z</time></trkpt><trkpt lat="45.6124333" lon="10.78999"><ele>371.0</ele><time>2026-03-28T14:01:12.2Z</time></trkpt><trkpt lat="45.6123733" lon="10.7898683"><ele>371.0</ele><time>2026-03-28T14:01:13.2Z</time></trkpt><trkpt lat="45.612295" lon="10.7897483"><ele>371.0</ele><time>2026-03-28T14:01:14.201Z</time></trkpt><trkpt lat="45.6122033" lon="10.789625"><ele>371.0</ele><time>2026-03-28T14:01:15.2Z</time></trkpt><trkpt lat="45.612105" lon="10.7895083"><ele>371.0</ele><time>2026-03-28T14:01:16.2Z</time></trkpt><trkpt lat="45.6120217" lon="10.78939"><ele>368.20000000000005</ele><time>2026-03-28T14:01:17.2Z</time></trkpt><trkpt lat="45.611945" lon="10.7892783"><ele>365.40000000000003</ele><time>2026-03-28T14:01:18.201Z</time></trkpt><trkpt lat="45.6118733" lon="10.789185"><ele>362.6</ele><time>2026-03-28T14:01:19.2Z</time></trkpt><trkpt lat="45.61181" lon="10.7891017"><ele>359.8</ele><time>2026-03-28T14:01:20.201Z</time></trkpt><trkpt lat="45.611755" lon="10.78901"><ele>357.0</ele><time>2026-03-28T14:01:21.2Z</time></trkpt><trkpt lat="45.611705" lon="10.788895"><ele>357.0</ele><time>2026-03-28T14:01:22.201Z</time></trkpt><trkpt lat="45.61168" lon="10.7887633"><ele>357.0</ele><time>2026-03-28T14:01:23.2Z</time></trkpt><trkpt lat="45.61167" lon="10.78863"><ele>357.0</ele><time>2026-03-28T14:01:24.2Z</time></trkpt><trkpt lat="45.6116717" lon="10.7884883"><ele>357.0</ele><time>2026-03-28T14:01:25.2Z</time></trkpt><trkpt lat="45.6116833" lon="10.7883333"><ele>357.0</ele><time>2026-03-28T14:01:26.2Z</time></trkpt><trkpt lat="45.611705" lon="10.788175"><ele>357.0</ele><time>2026-03-28T14:01:27.201Z</time></trkpt><trkpt lat="45.6117317" lon="10.7880217"><ele>357.0</ele><time>2026-03-28T14:01:28.2Z</time></trkpt><trkpt lat="45.6117917" lon="10.7878833"><ele>357.0</ele><time>2026-03-28T14:01:29.2Z</time></trkpt><trkpt lat="45.611865" lon="10.7877583"><ele>357.0</ele><time>2026-03-28T14:01:30.2Z</time></trkpt><trkpt lat="45.6119333" lon="10.7876167"><ele>355.8</ele><time>2026-03-28T14:01:31.201Z</time></trkpt><trkpt lat="45.6119817" lon="10.7874767"><ele>354.6</ele><time>2026-03-28T14:01:32.201Z</time></trkpt><trkpt lat="45.6119983" lon="10.7873333"><ele>353.40000000000003</ele><time>2026-03-28T14:01:33.2Z</time></trkpt><trkpt lat="45.6119867" lon="10.7871967"><ele>352.20000000000005</ele><time>2026-03-28T14:01:34.201Z</time></trkpt><trkpt lat="45.611965" lon="10.787065"><ele>351.0</ele><time>2026-03-28T14:01:35.2Z</time></trkpt><trkpt lat="45.611925" lon="10.78695"><ele>351.0</ele><time>2026-03-28T14:01:36.2Z</time></trkpt><trkpt lat="45.6118667" lon="10.786865"><ele>351.0</ele><time>2026-03-28T14:01:37.2Z</time></trkpt><trkpt lat="45.6117667" lon="10.786775"><ele>351.0</ele><time>2026-03-28T14:01:38.2Z</time></trkpt><trkpt lat="45.6116583" lon="10.786705"><ele>351.0</ele><time>2026-03-28T14:01:39.2Z</time></trkpt><trkpt lat="45.6115517" lon="10.7866033"><ele>351.0</ele><time>2026-03-28T14:01:40.2Z</time></trkpt><trkpt lat="45.61145" lon="10.786485"><ele>351.25</ele><time>2026-03-28T14:01:41.2Z</time></trkpt><trkpt lat="45.6113567" lon="10.7863567"><ele>351.5</ele><time>2026-03-28T14:01:42.201Z</time></trkpt><trkpt lat="45.61127" lon="10.786225"><ele>351.75</ele><time>2026-03-28T14:01:43.2Z</time></trkpt><trkpt lat="45.6112017" lon="10.7861"><ele>352.0</ele><time>2026-03-28T14:01:44.2Z</time></trkpt><trkpt lat="45.6111483" lon="10.785955"><ele>349.8</ele><time>2026-03-28T14:01:45.2Z</time></trkpt><trkpt lat="45.611105" lon="10.7857867"><ele>347.6</ele><time>2026-03-28T14:01:46.2Z</time></trkpt><trkpt lat="45.61106" lon="10.7856217"><ele>345.40000000000003</ele><time>2026-03-28T14:01:47.2Z</time></trkpt><trkpt lat="45.61102" lon="10.78552"><ele>343.20000000000005</ele><time>2026-03-28T14:01:48.201Z</time></trkpt><trkpt lat="45.6109783" lon="10.7854267"><ele>341.0</ele><time>2026-03-28T14:01:50.201Z</time></trkpt><trkpt lat="45.6110383" lon="10.7853883"><ele>345.25</ele><time>2026-03-28T14:01:53.201Z</time></trkpt><trkpt lat="45.6111817" lon="10.7854567"><ele>349.5</ele><time>2026-03-28T14:01:55.201Z</time></trkpt><trkpt lat="45.6112767" lon="10.7854667"><ele>353.75</ele><time>2026-03-28T14:01:56.2Z</time></trkpt><trkpt lat="45.6113833" lon="10.7854517"><ele>358.0</ele><time>2026-03-28T14:01:57.2Z</time></trkpt><trkpt lat="45.6114917" lon="10.7854"><ele>358.0</ele><time>2026-03-28T14:01:58.2Z</time></trkpt><trkpt lat="45.6116017" lon="10.7853133"><ele>358.0</ele><time>2026-03-28T14:01:59.201Z</time></trkpt><trkpt lat="45.611695" lon="10.7852083"><ele>358.0</ele><time>2026-03-28T14:02:00.2Z</time></trkpt><trkpt lat="45.6117533" lon="10.7850717"><ele>358.0</ele><time>2026-03-28T14:02:01.2Z</time></trkpt><trkpt lat="45.6117867" lon="10.7849133"><ele>358.25</ele><time>2026-03-28T14:02:02.2Z</time></trkpt><trkpt lat="45.6117883" lon="10.7847233"><ele>358.5</ele><time>2026-03-28T14:02:03.201Z</time></trkpt><trkpt lat="45.61177" lon="10.7845067"><ele>358.75</ele><time>2026-03-28T14:02:04.2Z</time></trkpt><trkpt lat="45.611745" lon="10.7842867"><ele>359.0</ele><time>2026-03-28T14:02:05.2Z</time></trkpt><trkpt lat="45.6117283" lon="10.784025"><ele>359.6666666666667</ele><time>2026-03-28T14:02:06.2Z</time></trkpt><trkpt lat="45.611705" lon="10.7837667"><ele>360.3333333333333</ele><time>2026-03-28T14:02:07.2Z</time></trkpt><trkpt lat="45.6116867" lon="10.7835167"><ele>361.0</ele><time>2026-03-28T14:02:08.2Z</time></trkpt><trkpt lat="45.6116633" lon="10.783255"><ele>362.0</ele><time>2026-03-28T14:02:09.2Z</time></trkpt><trkpt lat="45.61164" lon="10.7829767"><ele>363.0</ele><time>2026-03-28T14:02:10.2Z</time></trkpt><trkpt lat="45.6116183" lon="10.7826967"><ele>364.0</ele><time>2026-03-28T14:02:11.2Z</time></trkpt><trkpt lat="45.6116083" lon="10.7824283"><ele>366.0</ele><time>2026-03-28T14:02:12.2Z</time></trkpt><trkpt lat="45.611605" lon="10.7821783"><ele>368.0</ele><time>2026-03-28T14:02:13.2Z</time></trkpt><trkpt lat="45.6115967" lon="10.781935"><ele>370.0</ele><time>2026-03-28T14:02:14.2Z</time></trkpt><trkpt lat="45.6116" lon="10.7816917"><ele>370.66666666666663</ele><time>2026-03-28T14:02:15.2Z</time></trkpt><trkpt lat="45.6116" lon="10.78145"><ele>371.3333333333333</ele><time>2026-03-28T14:02:16.201Z</time></trkpt><trkpt lat="45.6115933" lon="10.7812"><ele>372.0</ele><time>2026-03-28T14:02:17.2Z</time></trkpt><trkpt lat="45.6115633" lon="10.7809517"><ele>373.3333333333333</ele><time>2026-03-28T14:02:18.201Z</time></trkpt><trkpt lat="45.6115217" lon="10.7807183"><ele>374.66666666666663</ele><time>2026-03-28T14:02:19.201Z</time></trkpt><trkpt lat="45.6114567" lon="10.7805033"><ele>376.0</ele><time>2026-03-28T14:02:20.201Z</time></trkpt><trkpt lat="45.6113817" lon="10.7803283"><ele>377.4</ele><time>2026-03-28T14:02:21.2Z</time></trkpt><trkpt lat="45.6113183" lon="10.7801717"><ele>378.8</ele><time>2026-03-28T14:02:22.2Z</time></trkpt><trkpt lat="45.6112833" lon="10.780055"><ele>380.2</ele><time>2026-03-28T14:02:23.2Z</time></trkpt><trkpt lat="45.6112733" lon="10.7799133"><ele>381.59999999999997</ele><time>2026-03-28T14:02:25.2Z</time></trkpt><trkpt lat="45.6112767" lon="10.7797883"><ele>383.0</ele><time>2026-03-28T14:02:27.199Z</time></trkpt><trkpt lat="45.6112767" lon="10.7796867"><ele>383.0</ele><time>2026-03-28T14:02:29.199Z</time></trkpt><trkpt lat="45.6112817" lon="10.7795967"><ele>383.0</ele><time>2026-03-28T14:02:32.199Z</time></trkpt><trkpt lat="45.611235" lon="10.779665"><ele>383.0</ele><time>2026-03-28T14:02:36.199Z</time></trkpt><trkpt lat="45.61123" lon="10.7797917"><ele>383.0</ele><time>2026-03-28T14:02:39.199Z</time></trkpt><trkpt lat="45.6112317" lon="10.779945"><ele>383.0</ele><time>2026-03-28T14:02:41.2Z</time></trkpt><trkpt lat="45.6112417" lon="10.7800983"><ele>383.0</ele><time>2026-03-28T14:02:43.2Z</time></trkpt><trkpt lat="45.6111783" lon="10.78019"><ele>380.83333333333337</ele><time>2026-03-28T14:02:46.199Z</time></trkpt><trkpt lat="45.6111083" lon="10.7802"><ele>378.6666666666667</ele><time>2026-03-28T14:02:47.2Z</time></trkpt><trkpt lat="45.61102" lon="10.7801983"><ele>376.5</ele><time>2026-03-28T14:02:48.199Z</time></trkpt><trkpt lat="45.6109417" lon="10.7801983"><ele>374.3333333333333</ele><time>2026-03-28T14:02:49.2Z</time></trkpt><trkpt lat="45.6108517" lon="10.7801817"><ele>372.16666666666663</ele><time>2026-03-28T14:02:51.2Z</time></trkpt><trkpt lat="45.6107433" lon="10.7801033"><ele>370.0</ele><time>2026-03-28T14:02:53.199Z</time></trkpt><trkpt lat="45.6106583" lon="10.780045"><ele>370.0</ele><time>2026-03-28T14:02:54.2Z</time></trkpt><trkpt lat="45.6105767" lon="10.78"><ele>370.0</ele><time>2026-03-28T14:02:55.199Z</time></trkpt><trkpt lat="45.6105117" lon="10.7799733"><ele>370.0</ele><time>2026-03-28T14:02:56.2Z</time></trkpt><trkpt lat="45.6104183" lon="10.7799383"><ele>370.0</ele><time>2026-03-28T14:02:58.2Z</time></trkpt><trkpt lat="45.610355" lon="10.779925"><ele>370.0</ele><time>2026-03-28T14:03:00.199Z</time></trkpt><trkpt lat="45.610265" lon="10.7799133"><ele>370.0</ele><time>2026-03-28T14:03:03.199Z</time></trkpt><trkpt lat="45.6102017" lon="10.7798733"><ele>367.66666666666663</ele><time>2026-03-28T14:03:05.199Z</time></trkpt><trkpt lat="45.6101317" lon="10.7798217"><ele>365.3333333333333</ele><time>2026-03-28T14:03:07.199Z</time></trkpt><trkpt lat="45.6100483" lon="10.77977"><ele>363.0</ele><time>2026-03-28T14:03:09.2Z</time></trkpt><trkpt lat="45.6099417" lon="10.779735"><ele>360.6666666666667</ele><time>2026-03-28T14:03:11.199Z</time></trkpt><trkpt lat="45.6098733" lon="10.779725"><ele>358.33333333333337</ele><time>2026-03-28T14:03:12.2Z</time></trkpt><trkpt lat="45.6097983" lon="10.7797283"><ele>356.0</ele><time>2026-03-28T14:03:13.199Z</time></trkpt><trkpt lat="45.6097083" lon="10.7797583"><ele>356.0</ele><time>2026-03-28T14:03:14.2Z</time></trkpt><trkpt lat="45.60961" lon="10.7797933"><ele>356.0</ele><time>2026-03-28T14:03:15.2Z</time></trkpt><trkpt lat="45.609525" lon="10.77982"><ele>356.0</ele><time>2026-03-28T14:03:16.199Z</time></trkpt><trkpt lat="45.609455" lon="10.77985"><ele>356.0</ele><time>2026-03-28T14:03:17.199Z</time></trkpt><trkpt lat="45.6093883" lon="10.7798467"><ele>356.0</ele><time>2026-03-28T14:03:18.199Z</time></trkpt><trkpt lat="45.609315" lon="10.7798367"><ele>356.0</ele><time>2026-03-28T14:03:19.199Z</time></trkpt><trkpt lat="45.6092283" lon="10.779825"><ele>353.0</ele><time>2026-03-28T14:03:20.2Z</time></trkpt><trkpt lat="45.6091467" lon="10.7798"><ele>350.0</ele><time>2026-03-28T14:03:21.199Z</time></trkpt><trkpt lat="45.6090683" lon="10.779775"><ele>347.0</ele><time>2026-03-28T14:03:22.2Z</time></trkpt><trkpt lat="45.608985" lon="10.7797467"><ele>344.0</ele><time>2026-03-28T14:03:23.2Z</time></trkpt><trkpt lat="45.6089033" lon="10.7797233"><ele>341.0</ele><time>2026-03-28T14:03:24.199Z</time></trkpt><trkpt lat="45.6088217" lon="10.7796767"><ele>338.0</ele><time>2026-03-28T14:03:25.199Z</time></trkpt><trkpt lat="45.6087367" lon="10.7796183"><ele>335.59999999999997</ele><time>2026-03-28T14:03:26.2Z</time></trkpt><trkpt lat="45.6086433" lon="10.7795583"><ele>333.2</ele><time>2026-03-28T14:03:27.2Z</time></trkpt><trkpt lat="45.608545" lon="10.779495"><ele>330.8</ele><time>2026-03-28T14:03:28.2Z</time></trkpt><trkpt lat="45.608445" lon="10.7794367"><ele>328.4</ele><time>2026-03-28T14:03:29.199Z</time></trkpt><trkpt lat="45.6083367" lon="10.779395"><ele>326.0</ele><time>2026-03-28T14:03:30.2Z</time></trkpt><trkpt lat="45.608225" lon="10.7793567"><ele>325.6</ele><time>2026-03-28T14:03:31.199Z</time></trkpt><trkpt lat="45.60811" lon="10.779315"><ele>325.20000000000005</ele><time>2026-03-28T14:03:32.2Z</time></trkpt><trkpt lat="45.6080067" lon="10.77927"><ele>324.79999999999995</ele><time>2026-03-28T14:03:33.2Z</time></trkpt><trkpt lat="45.6079083" lon="10.77921"><ele>324.4</ele><time>2026-03-28T14:03:34.199Z</time></trkpt><trkpt lat="45.6078167" lon="10.7791583"><ele>324.0</ele><time>2026-03-28T14:03:35.2Z</time></trkpt><trkpt lat="45.6077233" lon="10.7791067"><ele>324.0</ele><time>2026-03-28T14:03:36.2Z</time></trkpt><trkpt lat="45.6076317" lon="10.7790517"><ele>324.0</ele><time>2026-03-28T14:03:37.2Z</time></trkpt><trkpt lat="45.6075317" lon="10.7789883"><ele>324.0</ele><time>2026-03-28T14:03:38.199Z</time></trkpt><trkpt lat="45.6074383" lon="10.77893"><ele>324.0</ele><time>2026-03-28T14:03:39.199Z</time></trkpt><trkpt lat="45.6073433" lon="10.7788783"><ele>324.0</ele><time>2026-03-28T14:03:40.199Z</time></trkpt><trkpt lat="45.607245" lon="10.7788417"><ele>324.0</ele><time>2026-03-28T14:03:41.2Z</time></trkpt><trkpt lat="45.6071433" lon="10.7788183"><ele>324.0</ele><time>2026-03-28T14:03:42.2Z</time></trkpt><trkpt lat="45.6070367" lon="10.77882"><ele>324.0</ele><time>2026-03-28T14:03:43.199Z</time></trkpt><trkpt lat="45.6069317" lon="10.778835"><ele>324.0</ele><time>2026-03-28T14:03:44.199Z</time></trkpt><trkpt lat="45.6068283" lon="10.7788283"><ele>324.0</ele><time>2026-03-28T14:03:45.2Z</time></trkpt><trkpt lat="45.6067217" lon="10.7788133"><ele>322.0</ele><time>2026-03-28T14:03:46.199Z</time></trkpt><trkpt lat="45.6066233" lon="10.7787817"><ele>320.0</ele><time>2026-03-28T14:03:47.199Z</time></trkpt><trkpt lat="45.60655" lon="10.7787567"><ele>318.0</ele><time>2026-03-28T14:03:48.199Z</time></trkpt><trkpt lat="45.6064483" lon="10.7787233"><ele>316.0</ele><time>2026-03-28T14:03:50.199Z</time></trkpt><trkpt lat="45.6063733" lon="10.77869"><ele>314.0</ele><time>2026-03-28T14:03:52.199Z</time></trkpt><trkpt lat="45.6063033" lon="10.7786583"><ele>312.0</ele><time>2026-03-28T14:03:54.2Z</time></trkpt><trkpt lat="45.6062133" lon="10.778645"><ele>308.2</ele><time>2026-03-28T14:03:56.2Z</time></trkpt><trkpt lat="45.606115" lon="10.77861"><ele>304.4</ele><time>2026-03-28T14:03:58.199Z</time></trkpt><trkpt lat="45.60603" lon="10.7786067"><ele>300.6</ele><time>2026-03-28T14:04:00.199Z</time></trkpt><trkpt lat="45.6059283" lon="10.7785967"><ele>296.8</ele><time>2026-03-28T14:04:02.2Z</time></trkpt><trkpt lat="45.605815" lon="10.778585"><ele>293.0</ele><time>2026-03-28T14:04:04.2Z</time></trkpt><trkpt lat="45.605705" lon="10.7785817"><ele>293.0</ele><time>2026-03-28T14:04:06.2Z</time></trkpt><trkpt lat="45.6055933" lon="10.7785783"><ele>293.0</ele><time>2026-03-28T14:04:08.199Z</time></trkpt><trkpt lat="45.60549" lon="10.7785933"><ele>293.0</ele><time>2026-03-28T14:04:10.199Z</time></trkpt><trkpt lat="45.6053683" lon="10.77857"><ele>293.0</ele><time>2026-03-28T14:04:12.199Z</time></trkpt><trkpt lat="45.6052383" lon="10.778555"><ele>289.4</ele><time>2026-03-28T14:04:14.2Z</time></trkpt><trkpt lat="45.605175" lon="10.7785367"><ele>285.8</ele><time>2026-03-28T14:04:15.2Z</time></trkpt><trkpt lat="45.6050533" lon="10.7784883"><ele>282.2</ele><time>2026-03-28T14:04:17.199Z</time></trkpt><trkpt lat="45.604935" lon="10.7784517"><ele>278.6</ele><time>2026-03-28T14:04:19.199Z</time></trkpt><trkpt lat="45.6048167" lon="10.77842"><ele>275.0</ele><time>2026-03-28T14:04:21.199Z</time></trkpt><trkpt lat="45.6047317" lon="10.77838"><ele>274.83333333333337</ele><time>2026-03-28T14:04:23.2Z</time></trkpt><trkpt lat="45.6046517" lon="10.77833"><ele>274.6666666666667</ele><time>2026-03-28T14:04:28.199Z</time></trkpt><trkpt lat="45.6046083" lon="10.77825"><ele>274.5</ele><time>2026-03-28T14:04:30.199Z</time></trkpt><trkpt lat="45.60454" lon="10.7781833"><ele>274.3333333333333</ele><time>2026-03-28T14:04:32.199Z</time></trkpt><trkpt lat="45.6044333" lon="10.7781933"><ele>274.16666666666663</ele><time>2026-03-28T14:04:34.199Z</time></trkpt><trkpt lat="45.6043683" lon="10.7782133"><ele>274.0</ele><time>2026-03-28T14:04:35.2Z</time></trkpt><trkpt lat="45.6042683" lon="10.778195"><ele>271.59999999999997</ele><time>2026-03-28T14:04:37.2Z</time></trkpt><trkpt lat="45.6041783" lon="10.7782"><ele>269.2</ele><time>2026-03-28T14:04:39.199Z</time></trkpt><trkpt lat="45.6040817" lon="10.7782067"><ele>266.79999999999995</ele><time>2026-03-28T14:04:41.2Z</time></trkpt><trkpt lat="45.603995" lon="10.778195"><ele>264.4</ele><time>2026-03-28T14:04:43.2Z</time></trkpt><trkpt lat="45.6039167" lon="10.7781733"><ele>262.0</ele><time>2026-03-28T14:04:45.199Z</time></trkpt><trkpt lat="45.60379" lon="10.778145"><ele>262.0</ele><time>2026-03-28T14:04:47.2Z</time></trkpt><trkpt lat="45.60367" lon="10.7781217"><ele>262.0</ele><time>2026-03-28T14:04:49.199Z</time></trkpt><trkpt lat="45.6035983" lon="10.7781217"><ele>262.0</ele><time>2026-03-28T14:04:50.2Z</time></trkpt><trkpt lat="45.6035317" lon="10.778125"><ele>262.0</ele><time>2026-03-28T14:04:51.199Z</time></trkpt><trkpt lat="45.6034633" lon="10.7781167"><ele>262.0</ele><time>2026-03-28T14:04:52.2Z</time></trkpt><trkpt lat="45.603345" lon="10.778115"><ele>262.0</ele><time>2026-03-28T14:04:54.2Z</time></trkpt><trkpt lat="45.6032617" lon="10.778125"><ele>259.8</ele><time>2026-03-28T14:04:56.199Z</time></trkpt><trkpt lat="45.6031733" lon="10.77822"><ele>257.6</ele><time>2026-03-28T14:05:04.199Z</time></trkpt><trkpt lat="45.603185" lon="10.778415"><ele>255.40000000000003</ele><time>2026-03-28T14:05:06.2Z</time></trkpt><trkpt lat="45.6032183" lon="10.7785367"><ele>253.20000000000002</ele><time>2026-03-28T14:05:07.199Z</time></trkpt><trkpt lat="45.6032633" lon="10.7786683"><ele>251.0</ele><time>2026-03-28T14:05:08.199Z</time></trkpt><trkpt lat="45.6033083" lon="10.7788183"><ele>250.25</ele><time>2026-03-28T14:05:09.199Z</time></trkpt><trkpt lat="45.6033567" lon="10.7789733"><ele>249.5</ele><time>2026-03-28T14:05:10.199Z</time></trkpt><trkpt lat="45.6034033" lon="10.7791367"><ele>248.75</ele><time>2026-03-28T14:05:11.2Z</time></trkpt><trkpt lat="45.6034467" lon="10.77932"><ele>248.0</ele><time>2026-03-28T14:05:12.199Z</time></trkpt><trkpt lat="45.6034867" lon="10.7795233"><ele>247.25</ele><time>2026-03-28T14:05:13.2Z</time></trkpt><trkpt lat="45.60352" lon="10.7797267"><ele>246.5</ele><time>2026-03-28T14:05:14.2Z</time></trkpt><trkpt lat="45.60355" lon="10.7799367"><ele>245.75</ele><time>2026-03-28T14:05:15.199Z</time></trkpt><trkpt lat="45.60358" lon="10.780145"><ele>245.0</ele><time>2026-03-28T14:05:16.199Z</time></trkpt><trkpt lat="45.603615" lon="10.780355"><ele>245.0</ele><time>2026-03-28T14:05:17.199Z</time></trkpt><trkpt lat="45.6036517" lon="10.7805567"><ele>245.0</ele><time>2026-03-28T14:05:18.2Z</time></trkpt><trkpt lat="45.6036783" lon="10.7807217"><ele>245.0</ele><time>2026-03-28T14:05:19.2Z</time></trkpt><trkpt lat="45.6037083" lon="10.7808583"><ele>245.0</ele><time>2026-03-28T14:05:20.199Z</time></trkpt><trkpt lat="45.60372" lon="10.7809767"><ele>245.0</ele><time>2026-03-28T14:05:21.199Z</time></trkpt><trkpt lat="45.60374" lon="10.781075"><ele>245.4</ele><time>2026-03-28T14:05:22.199Z</time></trkpt><trkpt lat="45.60373" lon="10.7812217"><ele>245.8</ele><time>2026-03-28T14:05:24.199Z</time></trkpt><trkpt lat="45.60363" lon="10.78134"><ele>246.2</ele><time>2026-03-28T14:05:26.199Z</time></trkpt><trkpt lat="45.6035533" lon="10.7813833"><ele>246.6</ele><time>2026-03-28T14:05:27.199Z</time></trkpt><trkpt lat="45.603465" lon="10.7814033"><ele>247.0</ele><time>2026-03-28T14:05:28.2Z</time></trkpt><trkpt lat="45.60337" lon="10.78141"><ele>247.0</ele><time>2026-03-28T14:05:29.199Z</time></trkpt><trkpt lat="45.6032733" lon="10.78142"><ele>247.0</ele><time>2026-03-28T14:05:30.199Z</time></trkpt><trkpt lat="45.6031717" lon="10.7814433"><ele>247.0</ele><time>2026-03-28T14:05:31.199Z</time></trkpt><trkpt lat="45.60307" lon="10.78147"><ele>247.0</ele><time>2026-03-28T14:05:32.199Z</time></trkpt><trkpt lat="45.6029683" lon="10.78149"><ele>247.0</ele><time>2026-03-28T14:05:33.199Z</time></trkpt><trkpt lat="45.60287" lon="10.7815133"><ele>245.99999999999997</ele><time>2026-03-28T14:05:34.2Z</time></trkpt><trkpt lat="45.6027883" lon="10.781525"><ele>245.0</ele><time>2026-03-28T14:05:35.2Z</time></trkpt><trkpt lat="45.602685" lon="10.7815317"><ele>244.0</ele><time>2026-03-28T14:05:37.199Z</time></trkpt><trkpt lat="45.6026033" lon="10.7815417"><ele>243.0</ele><time>2026-03-28T14:05:51.2Z</time></trkpt><trkpt lat="45.6024983" lon="10.7815867"><ele>241.99999999999997</ele><time>2026-03-28T14:05:53.199Z</time></trkpt><trkpt lat="45.6024367" lon="10.7816217"><ele>241.0</ele><time>2026-03-28T14:05:54.2Z</time></trkpt><trkpt lat="45.6023683" lon="10.781655"><ele>241.0</ele><time>2026-03-28T14:05:55.199Z</time></trkpt><trkpt lat="45.6022983" lon="10.7816833"><ele>241.00000000000003</ele><time>2026-03-28T14:05:56.2Z</time></trkpt><trkpt lat="45.602205" lon="10.7817383"><ele>241.00000000000003</ele><time>2026-03-28T14:05:58.199Z</time></trkpt><trkpt lat="45.60216" lon="10.7818467"><ele>241.0</ele><time>2026-03-28T14:06:00.2Z</time></trkpt><trkpt lat="45.60219" lon="10.7820367"><ele>241.0</ele><time>2026-03-28T14:06:02.2Z</time></trkpt><trkpt lat="45.60223" lon="10.782185"><ele>241.4</ele><time>2026-03-28T14:06:03.2Z</time></trkpt><trkpt lat="45.602265" lon="10.7823333"><ele>241.8</ele><time>2026-03-28T14:06:04.2Z</time></trkpt><trkpt lat="45.6022967" lon="10.7824533"><ele>242.20000000000002</ele><time>2026-03-28T14:06:05.199Z</time></trkpt><trkpt lat="45.6023183" lon="10.78255"><ele>242.60000000000002</ele><time>2026-03-28T14:06:06.199Z</time></trkpt><trkpt lat="45.60231" lon="10.7826617"><ele>243.0</ele><time>2026-03-28T14:06:08.199Z</time></trkpt><trkpt lat="45.60221" lon="10.7827367"><ele>243.0</ele><time>2026-03-28T14:06:10.199Z</time></trkpt><trkpt lat="45.6021167" lon="10.7827767"><ele>243.0</ele><time>2026-03-28T14:06:11.2Z</time></trkpt><trkpt lat="45.6019833" lon="10.782835"><ele>243.0</ele><time>2026-03-28T14:06:12.199Z</time></trkpt><trkpt lat="45.6018317" lon="10.7829017"><ele>243.0</ele><time>2026-03-28T14:06:13.199Z</time></trkpt><trkpt lat="45.6016783" lon="10.782985"><ele>241.75</ele><time>2026-03-28T14:06:14.2Z</time></trkpt><trkpt lat="45.6015217" lon="10.7830683"><ele>240.5</ele><time>2026-03-28T14:06:15.2Z</time></trkpt><trkpt lat="45.6013833" lon="10.78313"><ele>239.25</ele><time>2026-03-28T14:06:16.199Z</time></trkpt><trkpt lat="45.60127" lon="10.783185"><ele>238.0</ele><time>2026-03-28T14:06:17.2Z</time></trkpt><trkpt lat="45.6011667" lon="10.7832367"><ele>237.49999999999997</ele><time>2026-03-28T14:06:18.199Z</time></trkpt><trkpt lat="45.6010733" lon="10.7832783"><ele>237.0</ele><time>2026-03-28T14:06:19.199Z</time></trkpt><trkpt lat="45.6009867" lon="10.783325"><ele>236.5</ele><time>2026-03-28T14:06:20.2Z</time></trkpt><trkpt lat="45.6009033" lon="10.7833667"><ele>236.0</ele><time>2026-03-28T14:06:21.2Z</time></trkpt><trkpt lat="45.6008367" lon="10.7834117"><ele>235.49999999999997</ele><time>2026-03-28T14:06:22.199Z</time></trkpt><trkpt lat="45.600775" lon="10.7834317"><ele>235.0</ele><time>2026-03-28T14:06:23.2Z</time></trkpt><trkpt lat="45.6006983" lon="10.7833667"><ele>235.0</ele><time>2026-03-28T14:06:25.2Z</time></trkpt><trkpt lat="45.6006683" lon="10.7832833"><ele>235.0</ele><time>2026-03-28T14:06:26.2Z</time></trkpt><trkpt lat="45.6006317" lon="10.78317"><ele>235.0</ele><time>2026-03-28T14:06:27.199Z</time></trkpt><trkpt lat="45.600595" lon="10.7830067"><ele>235.0</ele><time>2026-03-28T14:06:28.199Z</time></trkpt><trkpt lat="45.6005317" lon="10.782785"><ele>235.0</ele><time>2026-03-28T14:06:29.199Z</time></trkpt><trkpt lat="45.600465" lon="10.78258"><ele>234.5</ele><time>2026-03-28T14:06:30.2Z</time></trkpt><trkpt lat="45.6003983" lon="10.7823983"><ele>234.0</ele><time>2026-03-28T14:06:31.199Z</time></trkpt><trkpt lat="45.6003283" lon="10.78223"><ele>233.5</ele><time>2026-03-28T14:06:32.199Z</time></trkpt><trkpt lat="45.6002567" lon="10.78206"><ele>233.0</ele><time>2026-03-28T14:06:33.199Z</time></trkpt><trkpt lat="45.60018" lon="10.7818833"><ele>232.5</ele><time>2026-03-28T14:06:34.199Z</time></trkpt><trkpt lat="45.6001033" lon="10.7817033"><ele>232.0</ele><time>2026-03-28T14:06:35.199Z</time></trkpt><trkpt lat="45.60003" lon="10.7815217"><ele>231.5</ele><time>2026-03-28T14:06:36.2Z</time></trkpt><trkpt lat="45.59995" lon="10.781335"><ele>231.0</ele><time>2026-03-28T14:06:37.199Z</time></trkpt><trkpt lat="45.5998717" lon="10.7811517"><ele>231.0</ele><time>2026-03-28T14:06:38.199Z</time></trkpt><trkpt lat="45.5998" lon="10.7809683"><ele>231.0</ele><time>2026-03-28T14:06:39.199Z</time></trkpt><trkpt lat="45.5997217" lon="10.78078"><ele>231.0</ele><time>2026-03-28T14:06:40.199Z</time></trkpt><trkpt lat="45.5996533" lon="10.7806"><ele>231.0</ele><time>2026-03-28T14:06:41.2Z</time></trkpt><trkpt lat="45.599595" lon="10.7804483"><ele>231.0</ele><time>2026-03-28T14:06:42.2Z</time></trkpt><trkpt lat="45.5995433" lon="10.780325"><ele>231.0</ele><time>2026-03-28T14:06:43.199Z</time></trkpt><trkpt lat="45.5994983" lon="10.7802167"><ele>231.0</ele><time>2026-03-28T14:06:44.2Z</time></trkpt><trkpt lat="45.5994667" lon="10.780125"><ele>231.0</ele><time>2026-03-28T14:06:45.2Z</time></trkpt><trkpt lat="45.5994117" lon="10.7799883"><ele>231.0</ele><time>2026-03-28T14:06:47.199Z</time></trkpt><trkpt lat="45.5993783" lon="10.77991"><ele>231.0</ele><time>2026-03-28T14:06:49.2Z</time></trkpt><trkpt lat="45.59934" lon="10.7798367"><ele>231.0</ele><time>2026-03-28T14:06:52.199Z</time></trkpt><trkpt lat="45.59927" lon="10.779745"><ele>231.00000000000003</ele><time>2026-03-28T14:06:55.199Z</time></trkpt><trkpt lat="45.5992267" lon="10.7796517"><ele>231.00000000000003</ele><time>2026-03-28T14:06:56.199Z</time></trkpt><trkpt lat="45.599175" lon="10.7795283"><ele>231.0</ele><time>2026-03-28T14:06:57.199Z</time></trkpt><trkpt lat="45.59911" lon="10.77938"><ele>231.0</ele><time>2026-03-28T14:06:58.199Z</time></trkpt><trkpt lat="45.5990317" lon="10.7792167"><ele>231.33333333333331</ele><time>2026-03-28T14:06:59.199Z</time></trkpt><trkpt lat="45.5989433" lon="10.779045"><ele>231.66666666666666</ele><time>2026-03-28T14:07:00.199Z</time></trkpt><trkpt lat="45.5988567" lon="10.77887"><ele>232.0</ele><time>2026-03-28T14:07:01.2Z</time></trkpt><trkpt lat="45.598765" lon="10.77869"><ele>231.66666666666666</ele><time>2026-03-28T14:07:02.2Z</time></trkpt><trkpt lat="45.598675" lon="10.7784983"><ele>231.33333333333331</ele><time>2026-03-28T14:07:03.199Z</time></trkpt><trkpt lat="45.5985783" lon="10.7783133"><ele>231.0</ele><time>2026-03-28T14:07:04.199Z</time></trkpt><trkpt lat="45.5984867" lon="10.7781183"><ele>231.33333333333331</ele><time>2026-03-28T14:07:05.199Z</time></trkpt><trkpt lat="45.5983867" lon="10.7779133"><ele>231.66666666666666</ele><time>2026-03-28T14:07:06.199Z</time></trkpt><trkpt lat="45.5982933" lon="10.777695"><ele>232.0</ele><time>2026-03-28T14:07:07.2Z</time></trkpt><trkpt lat="45.5981967" lon="10.777475"><ele>232.0</ele><time>2026-03-28T14:07:08.199Z</time></trkpt><trkpt lat="45.5981033" lon="10.7772383"><ele>232.0</ele><time>2026-03-28T14:07:09.199Z</time></trkpt><trkpt lat="45.5980117" lon="10.7770033"><ele>232.0</ele><time>2026-03-28T14:07:10.2Z</time></trkpt><trkpt lat="45.59793" lon="10.7767667"><ele>232.33333333333331</ele><time>2026-03-28T14:07:11.199Z</time></trkpt><trkpt lat="45.5978517" lon="10.7765333"><ele>232.66666666666669</ele><time>2026-03-28T14:07:12.2Z</time></trkpt><trkpt lat="45.59777" lon="10.7763017"><ele>233.0</ele><time>2026-03-28T14:07:13.199Z</time></trkpt><trkpt lat="45.5976983" lon="10.776065"><ele>231.33333333333334</ele><time>2026-03-28T14:07:14.199Z</time></trkpt><trkpt lat="45.59763" lon="10.7758333"><ele>229.66666666666669</ele><time>2026-03-28T14:07:15.2Z</time></trkpt><trkpt lat="45.5975567" lon="10.7755967"><ele>228.0</ele><time>2026-03-28T14:07:16.198Z</time></trkpt><trkpt lat="45.5974833" lon="10.7753683"><ele>227.66666666666669</ele><time>2026-03-28T14:07:17.199Z</time></trkpt><trkpt lat="45.5974083" lon="10.7751483"><ele>227.33333333333334</ele><time>2026-03-28T14:07:18.199Z</time></trkpt><trkpt lat="45.59734" lon="10.7749483"><ele>227.0</ele><time>2026-03-28T14:07:19.198Z</time></trkpt><trkpt lat="45.5972783" lon="10.7747567"><ele>227.0</ele><time>2026-03-28T14:07:20.198Z</time></trkpt><trkpt lat="45.5972233" lon="10.77458"><ele>227.0</ele><time>2026-03-28T14:07:21.199Z</time></trkpt><trkpt lat="45.597185" lon="10.7744117"><ele>227.0</ele><time>2026-03-28T14:07:22.198Z</time></trkpt><trkpt lat="45.597165" lon="10.7742617"><ele>227.0</ele><time>2026-03-28T14:07:23.198Z</time></trkpt><trkpt lat="45.5971583" lon="10.77412"><ele>227.16666666666669</ele><time>2026-03-28T14:07:24.199Z</time></trkpt><trkpt lat="45.5971467" lon="10.7740017"><ele>227.33333333333334</ele><time>2026-03-28T14:07:25.198Z</time></trkpt><trkpt lat="45.5971083" lon="10.7739133"><ele>227.5</ele><time>2026-03-28T14:07:26.199Z</time></trkpt><trkpt lat="45.5970517" lon="10.773865"><ele>227.66666666666669</ele><time>2026-03-28T14:07:27.199Z</time></trkpt><trkpt lat="45.5969833" lon="10.7738617"><ele>227.83333333333334</ele><time>2026-03-28T14:07:28.198Z</time></trkpt><trkpt lat="45.5969167" lon="10.7738967"><ele>228.0</ele><time>2026-03-28T14:07:29.199Z</time></trkpt><trkpt lat="45.5968333" lon="10.7740017"><ele>227.33333333333334</ele><time>2026-03-28T14:07:30.198Z</time></trkpt><trkpt lat="45.5967617" lon="10.7741"><ele>226.66666666666669</ele><time>2026-03-28T14:07:31.198Z</time></trkpt><trkpt lat="45.59668" lon="10.7741733"><ele>226.0</ele><time>2026-03-28T14:07:32.198Z</time></trkpt><trkpt lat="45.5966033" lon="10.774225"><ele>225.33333333333334</ele><time>2026-03-28T14:07:33.198Z</time></trkpt><trkpt lat="45.5965233" lon="10.7742683"><ele>224.66666666666669</ele><time>2026-03-28T14:07:35.198Z</time></trkpt><trkpt lat="45.5964633" lon="10.7742983"><ele>224.0</ele><time>2026-03-28T14:07:38.198Z</time></trkpt><trkpt lat="45.59639" lon="10.774365"><ele>224.0</ele><time>2026-03-28T14:07:40.198Z</time></trkpt><trkpt lat="45.5962967" lon="10.77449"><ele>223.99999999999997</ele><time>2026-03-28T14:07:42.198Z</time></trkpt><trkpt lat="45.5962467" lon="10.7745783"><ele>223.99999999999997</ele><time>2026-03-28T14:07:43.198Z</time></trkpt><trkpt lat="45.59619" lon="10.7746783"><ele>224.0</ele><time>2026-03-28T14:07:44.198Z</time></trkpt><trkpt lat="45.5961267" lon="10.7747917"><ele>224.0</ele><time>2026-03-28T14:07:45.198Z</time></trkpt><trkpt lat="45.5960567" lon="10.7749167"><ele>223.75</ele><time>2026-03-28T14:07:46.198Z</time></trkpt><trkpt lat="45.59598" lon="10.7750383"><ele>223.5</ele><time>2026-03-28T14:07:47.199Z</time></trkpt><trkpt lat="45.5958867" lon="10.775155"><ele>223.25</ele><time>2026-03-28T14:07:48.199Z</time></trkpt><trkpt lat="45.5957733" lon="10.7752517"><ele>223.0</ele><time>2026-03-28T14:07:49.199Z</time></trkpt><trkpt lat="45.5956533" lon="10.775335"><ele>223.75</ele><time>2026-03-28T14:07:50.198Z</time></trkpt><trkpt lat="45.595525" lon="10.7754233"><ele>224.5</ele><time>2026-03-28T14:07:51.198Z</time></trkpt><trkpt lat="45.5954017" lon="10.7755167"><ele>225.25</ele><time>2026-03-28T14:07:52.198Z</time></trkpt><trkpt lat="45.595285" lon="10.7756183"><ele>226.0</ele><time>2026-03-28T14:07:53.199Z</time></trkpt><trkpt lat="45.59518" lon="10.7757183"><ele>226.0</ele><time>2026-03-28T14:07:54.198Z</time></trkpt><trkpt lat="45.5950867" lon="10.7758133"><ele>226.00000000000003</ele><time>2026-03-28T14:07:55.199Z</time></trkpt><trkpt lat="45.5950017" lon="10.7759"><ele>226.00000000000003</ele><time>2026-03-28T14:07:56.199Z</time></trkpt><trkpt lat="45.5949183" lon="10.7759817"><ele>226.0</ele><time>2026-03-28T14:07:57.198Z</time></trkpt><trkpt lat="45.5948483" lon="10.7760517"><ele>226.0</ele><time>2026-03-28T14:07:58.198Z</time></trkpt><trkpt lat="45.5947567" lon="10.776135"><ele>226.20000000000002</ele><time>2026-03-28T14:08:00.198Z</time></trkpt><trkpt lat="45.5946317" lon="10.7761633"><ele>226.40000000000003</ele><time>2026-03-28T14:08:02.199Z</time></trkpt><trkpt lat="45.59451" lon="10.77613"><ele>226.6</ele><time>2026-03-28T14:08:04.199Z</time></trkpt><trkpt lat="45.5944567" lon="10.7760717"><ele>226.8</ele><time>2026-03-28T14:08:05.198Z</time></trkpt><trkpt lat="45.5943967" lon="10.7759817"><ele>227.0</ele><time>2026-03-28T14:08:06.199Z</time></trkpt><trkpt lat="45.594325" lon="10.7758683"><ele>226.5</ele><time>2026-03-28T14:08:07.198Z</time></trkpt><trkpt lat="45.5942367" lon="10.7757367"><ele>226.0</ele><time>2026-03-28T14:08:08.198Z</time></trkpt><trkpt lat="45.5941333" lon="10.7755967"><ele>225.5</ele><time>2026-03-28T14:08:09.199Z</time></trkpt><trkpt lat="45.5940267" lon="10.775455"><ele>225.0</ele><time>2026-03-28T14:08:10.198Z</time></trkpt><trkpt lat="45.5939217" lon="10.77531"><ele>224.75</ele><time>2026-03-28T14:08:11.198Z</time></trkpt><trkpt lat="45.5938183" lon="10.7751683"><ele>224.5</ele><time>2026-03-28T14:08:12.198Z</time></trkpt><trkpt lat="45.5937183" lon="10.775035"><ele>224.25</ele><time>2026-03-28T14:08:13.198Z</time></trkpt><trkpt lat="45.5936233" lon="10.7749167"><ele>224.0</ele><time>2026-03-28T14:08:14.198Z</time></trkpt><trkpt lat="45.5935267" lon="10.7748167"><ele>224.0</ele><time>2026-03-28T14:08:15.198Z</time></trkpt><trkpt lat="45.5934183" lon="10.774735"><ele>224.0</ele><time>2026-03-28T14:08:16.199Z</time></trkpt><trkpt lat="45.5932933" lon="10.77467"><ele>224.0</ele><time>2026-03-28T14:08:17.198Z</time></trkpt><trkpt lat="45.593165" lon="10.7746033"><ele>224.0</ele><time>2026-03-28T14:08:18.199Z</time></trkpt><trkpt lat="45.5930233" lon="10.77453"><ele>224.0</ele><time>2026-03-28T14:08:19.199Z</time></trkpt><trkpt lat="45.5928817" lon="10.7744533"><ele>224.0</ele><time>2026-03-28T14:08:20.199Z</time></trkpt><trkpt lat="45.59273" lon="10.774375"><ele>224.0</ele><time>2026-03-28T14:08:21.199Z</time></trkpt><trkpt lat="45.5925733" lon="10.774285"><ele>224.33333333333334</ele><time>2026-03-28T14:08:22.198Z</time></trkpt><trkpt lat="45.5924233" lon="10.774195"><ele>224.66666666666669</ele><time>2026-03-28T14:08:23.198Z</time></trkpt><trkpt lat="45.59228" lon="10.7741133"><ele>225.0</ele><time>2026-03-28T14:08:24.199Z</time></trkpt><trkpt lat="45.5921417" lon="10.7740383"><ele>224.33333333333331</ele><time>2026-03-28T14:08:25.198Z</time></trkpt><trkpt lat="45.5919983" lon="10.7739667"><ele>223.66666666666666</ele><time>2026-03-28T14:08:26.198Z</time></trkpt><trkpt lat="45.591845" lon="10.7738883"><ele>223.0</ele><time>2026-03-28T14:08:27.198Z</time></trkpt><trkpt lat="45.5916983" lon="10.7738117"><ele>223.0</ele><time>2026-03-28T14:08:28.199Z</time></trkpt><trkpt lat="45.591545" lon="10.773735"><ele>223.0</ele><time>2026-03-28T14:08:29.199Z</time></trkpt><trkpt lat="45.5913817" lon="10.7736517"><ele>223.0</ele><time>2026-03-28T14:08:30.199Z</time></trkpt><trkpt lat="45.5912317" lon="10.77357"><ele>222.60000000000002</ele><time>2026-03-28T14:08:31.198Z</time></trkpt><trkpt lat="45.5910933" lon="10.7734967"><ele>222.20000000000002</ele><time>2026-03-28T14:08:32.198Z</time></trkpt><trkpt lat="45.59098" lon="10.7734267"><ele>221.8</ele><time>2026-03-28T14:08:33.199Z</time></trkpt><trkpt lat="45.5908933" lon="10.7733667"><ele>221.4</ele><time>2026-03-28T14:08:34.198Z</time></trkpt><trkpt lat="45.5908367" lon="10.7733217"><ele>221.0</ele><time>2026-03-28T14:08:35.199Z</time></trkpt><trkpt lat="45.590755" lon="10.7732433"><ele>221.0</ele><time>2026-03-28T14:08:37.198Z</time></trkpt><trkpt lat="45.5906833" lon="10.7731617"><ele>221.00000000000003</ele><time>2026-03-28T14:08:39.199Z</time></trkpt><trkpt lat="45.5906183" lon="10.7730733"><ele>221.00000000000003</ele><time>2026-03-28T14:08:41.199Z</time></trkpt><trkpt lat="45.5905383" lon="10.772975"><ele>221.0</ele><time>2026-03-28T14:08:43.198Z</time></trkpt><trkpt lat="45.5904633" lon="10.772855"><ele>221.0</ele><time>2026-03-28T14:08:45.198Z</time></trkpt><trkpt lat="45.5904183" lon="10.772705"><ele>221.0</ele><time>2026-03-28T14:08:47.198Z</time></trkpt><trkpt lat="45.5904433" lon="10.7725383"><ele>221.00000000000003</ele><time>2026-03-28T14:08:49.199Z</time></trkpt><trkpt lat="45.5904817" lon="10.7724383"><ele>221.00000000000003</ele><time>2026-03-28T14:08:50.198Z</time></trkpt><trkpt lat="45.5905367" lon="10.7723367"><ele>221.0</ele><time>2026-03-28T14:08:51.199Z</time></trkpt><trkpt lat="45.59062" lon="10.7722183"><ele>221.0</ele><time>2026-03-28T14:08:52.198Z</time></trkpt><trkpt lat="45.590705" lon="10.772095"><ele>221.0</ele><time>2026-03-28T14:08:53.198Z</time></trkpt><trkpt lat="45.590775" lon="10.77197"><ele>221.00000000000003</ele><time>2026-03-28T14:08:54.198Z</time></trkpt><trkpt lat="45.590835" lon="10.7718383"><ele>221.00000000000003</ele><time>2026-03-28T14:08:55.198Z</time></trkpt><trkpt lat="45.5908867" lon="10.7717017"><ele>221.0</ele><time>2026-03-28T14:08:56.198Z</time></trkpt><trkpt lat="45.5909433" lon="10.771565"><ele>221.0</ele><time>2026-03-28T14:08:57.198Z</time></trkpt><trkpt lat="45.5909983" lon="10.77144"><ele>220.60000000000002</ele><time>2026-03-28T14:08:58.198Z</time></trkpt><trkpt lat="45.59105" lon="10.77133"><ele>220.20000000000002</ele><time>2026-03-28T14:08:59.198Z</time></trkpt><trkpt lat="45.591085" lon="10.7712217"><ele>219.79999999999998</ele><time>2026-03-28T14:09:00.198Z</time></trkpt><trkpt lat="45.5911083" lon="10.771095"><ele>219.39999999999998</ele><time>2026-03-28T14:09:01.198Z</time></trkpt><trkpt lat="45.5911017" lon="10.770965"><ele>219.0</ele><time>2026-03-28T14:09:02.198Z</time></trkpt><trkpt lat="45.5910817" lon="10.7708217"><ele>219.0</ele><time>2026-03-28T14:09:03.198Z</time></trkpt><trkpt lat="45.5910667" lon="10.7706683"><ele>218.99999999999997</ele><time>2026-03-28T14:09:04.199Z</time></trkpt><trkpt lat="45.5910617" lon="10.7705217"><ele>218.99999999999997</ele><time>2026-03-28T14:09:05.198Z</time></trkpt><trkpt lat="45.5910633" lon="10.770365"><ele>219.0</ele><time>2026-03-28T14:09:06.198Z</time></trkpt><trkpt lat="45.5910767" lon="10.770205"><ele>219.0</ele><time>2026-03-28T14:09:07.199Z</time></trkpt><trkpt lat="45.591105" lon="10.770035"><ele>219.0</ele><time>2026-03-28T14:09:08.199Z</time></trkpt><trkpt lat="45.59115" lon="10.7698517"><ele>219.0</ele><time>2026-03-28T14:09:09.198Z</time></trkpt><trkpt lat="45.59119" lon="10.7696767"><ele>219.0</ele><time>2026-03-28T14:09:10.199Z</time></trkpt><trkpt lat="45.5912417" lon="10.7695167"><ele>219.0</ele><time>2026-03-28T14:09:11.198Z</time></trkpt><trkpt lat="45.5912933" lon="10.76937"><ele>218.5</ele><time>2026-03-28T14:09:12.199Z</time></trkpt><trkpt lat="45.5913483" lon="10.76922"><ele>218.0</ele><time>2026-03-28T14:09:13.198Z</time></trkpt><trkpt lat="45.5914017" lon="10.7690583"><ele>217.5</ele><time>2026-03-28T14:09:14.198Z</time></trkpt><trkpt lat="45.5914517" lon="10.768895"><ele>217.0</ele><time>2026-03-28T14:09:15.199Z</time></trkpt><trkpt lat="45.59149" lon="10.7687433"><ele>217.0</ele><time>2026-03-28T14:09:16.198Z</time></trkpt><trkpt lat="45.59152" lon="10.7685983"><ele>217.0</ele><time>2026-03-28T14:09:17.198Z</time></trkpt><trkpt lat="45.5915483" lon="10.7684533"><ele>217.0</ele><time>2026-03-28T14:09:18.199Z</time></trkpt><trkpt lat="45.59157" lon="10.7683133"><ele>217.0</ele><time>2026-03-28T14:09:19.198Z</time></trkpt><trkpt lat="45.5915717" lon="10.76817"><ele>217.0</ele><time>2026-03-28T14:09:20.199Z</time></trkpt><trkpt lat="45.591565" lon="10.7680267"><ele>217.0</ele><time>2026-03-28T14:09:21.198Z</time></trkpt><trkpt lat="45.5915517" lon="10.7678667"><ele>217.0</ele><time>2026-03-28T14:09:22.198Z</time></trkpt><trkpt lat="45.5915383" lon="10.7677"><ele>217.0</ele><time>2026-03-28T14:09:23.198Z</time></trkpt><trkpt lat="45.5915333" lon="10.7675417"><ele>217.0</ele><time>2026-03-28T14:09:24.198Z</time></trkpt><trkpt lat="45.5915383" lon="10.7673917"><ele>217.0</ele><time>2026-03-28T14:09:25.198Z</time></trkpt><trkpt lat="45.5915567" lon="10.7672367"><ele>217.25</ele><time>2026-03-28T14:09:26.198Z</time></trkpt><trkpt lat="45.5915883" lon="10.7670817"><ele>217.5</ele><time>2026-03-28T14:09:27.199Z</time></trkpt><trkpt lat="45.5916233" lon="10.766925"><ele>217.75</ele><time>2026-03-28T14:09:28.199Z</time></trkpt><trkpt lat="45.5916733" lon="10.76677"><ele>218.0</ele><time>2026-03-28T14:09:29.198Z</time></trkpt><trkpt lat="45.5917333" lon="10.7666167"><ele>217.5</ele><time>2026-03-28T14:09:30.198Z</time></trkpt><trkpt lat="45.5917917" lon="10.7664617"><ele>217.0</ele><time>2026-03-28T14:09:31.199Z</time></trkpt><trkpt lat="45.591845" lon="10.7663167"><ele>216.5</ele><time>2026-03-28T14:09:32.198Z</time></trkpt><trkpt lat="45.5918917" lon="10.766185"><ele>216.0</ele><time>2026-03-28T14:09:33.199Z</time></trkpt><trkpt lat="45.5919467" lon="10.7660483"><ele>216.0</ele><time>2026-03-28T14:09:34.198Z</time></trkpt><trkpt lat="45.5920117" lon="10.7659133"><ele>216.0</ele><time>2026-03-28T14:09:35.198Z</time></trkpt><trkpt lat="45.59208" lon="10.7657917"><ele>216.0</ele><time>2026-03-28T14:09:36.198Z</time></trkpt><trkpt lat="45.5921533" lon="10.7656683"><ele>216.0</ele><time>2026-03-28T14:09:37.198Z</time></trkpt><trkpt lat="45.59223" lon="10.7655483"><ele>216.0</ele><time>2026-03-28T14:09:38.199Z</time></trkpt><trkpt lat="45.5923133" lon="10.76543"><ele>216.0</ele><time>2026-03-28T14:09:39.199Z</time></trkpt><trkpt lat="45.5923967" lon="10.7653"><ele>216.0</ele><time>2026-03-28T14:09:40.198Z</time></trkpt><trkpt lat="45.592475" lon="10.7651667"><ele>216.0</ele><time>2026-03-28T14:09:41.198Z</time></trkpt><trkpt lat="45.59254" lon="10.765045"><ele>216.16666666666666</ele><time>2026-03-28T14:09:42.198Z</time></trkpt><trkpt lat="45.59259" lon="10.7649433"><ele>216.33333333333331</ele><time>2026-03-28T14:09:43.198Z</time></trkpt><trkpt lat="45.5926217" lon="10.764855"><ele>216.5</ele><time>2026-03-28T14:09:44.198Z</time></trkpt><trkpt lat="45.592635" lon="10.7647117"><ele>216.66666666666666</ele><time>2026-03-28T14:09:46.199Z</time></trkpt><trkpt lat="45.592625" lon="10.76462"><ele>216.83333333333331</ele><time>2026-03-28T14:09:48.199Z</time></trkpt><trkpt lat="45.592655" lon="10.7645383"><ele>217.0</ele><time>2026-03-28T14:09:50.198Z</time></trkpt><trkpt lat="45.5927283" lon="10.764425"><ele>216.83333333333331</ele><time>2026-03-28T14:09:52.198Z</time></trkpt><trkpt lat="45.592775" lon="10.76434"><ele>216.66666666666666</ele><time>2026-03-28T14:09:53.198Z</time></trkpt><trkpt lat="45.592825" lon="10.7642583"><ele>216.5</ele><time>2026-03-28T14:09:54.198Z</time></trkpt><trkpt lat="45.5928867" lon="10.764185"><ele>216.33333333333331</ele><time>2026-03-28T14:09:55.199Z</time></trkpt><trkpt lat="45.5929467" lon="10.7641217"><ele>216.16666666666666</ele><time>2026-03-28T14:09:56.199Z</time></trkpt><trkpt lat="45.5930083" lon="10.7640567"><ele>216.0</ele><time>2026-03-28T14:09:57.198Z</time></trkpt><trkpt lat="45.59306" lon="10.7639933"><ele>216.0</ele><time>2026-03-28T14:09:58.199Z</time></trkpt><trkpt lat="45.5931317" lon="10.7639067"><ele>216.00000000000003</ele><time>2026-03-28T14:10:00.199Z</time></trkpt><trkpt lat="45.5931817" lon="10.76382"><ele>216.00000000000003</ele><time>2026-03-28T14:10:03.198Z</time></trkpt><trkpt lat="45.5932367" lon="10.7636517"><ele>216.0</ele><time>2026-03-28T14:10:05.198Z</time></trkpt><trkpt lat="45.5932833" lon="10.763535"><ele>216.0</ele><time>2026-03-28T14:10:06.198Z</time></trkpt><trkpt lat="45.59334" lon="10.7633917"><ele>216.0</ele><time>2026-03-28T14:10:07.199Z</time></trkpt><trkpt lat="45.5934" lon="10.7632417"><ele>216.0</ele><time>2026-03-28T14:10:08.199Z</time></trkpt><trkpt lat="45.593455" lon="10.763085"><ele>216.0</ele><time>2026-03-28T14:10:09.199Z</time></trkpt><trkpt lat="45.5935083" lon="10.762915"><ele>216.0</ele><time>2026-03-28T14:10:10.199Z</time></trkpt><trkpt lat="45.5935517" lon="10.7627417"><ele>216.0</ele><time>2026-03-28T14:10:11.199Z</time></trkpt><trkpt lat="45.5935883" lon="10.7625533"><ele>216.0</ele><time>2026-03-28T14:10:12.198Z</time></trkpt><trkpt lat="45.5936183" lon="10.7623617"><ele>216.0</ele><time>2026-03-28T14:10:13.199Z</time></trkpt><trkpt lat="45.5936483" lon="10.762165"><ele>216.0</ele><time>2026-03-28T14:10:14.198Z</time></trkpt><trkpt lat="45.5936717" lon="10.7619633"><ele>216.0</ele><time>2026-03-28T14:10:15.198Z</time></trkpt><trkpt lat="45.5936917" lon="10.761775"><ele>216.0</ele><time>2026-03-28T14:10:16.199Z</time></trkpt><trkpt lat="45.5937083" lon="10.7615833"><ele>216.0</ele><time>2026-03-28T14:10:17.198Z</time></trkpt><trkpt lat="45.59372" lon="10.7613817"><ele>216.0</ele><time>2026-03-28T14:10:18.198Z</time></trkpt><trkpt lat="45.5937233" lon="10.761175"><ele>216.0</ele><time>2026-03-28T14:10:19.199Z</time></trkpt><trkpt lat="45.593725" lon="10.7609633"><ele>216.0</ele><time>2026-03-28T14:10:20.199Z</time></trkpt><trkpt lat="45.5937317" lon="10.760745"><ele>216.0</ele><time>2026-03-28T14:10:21.198Z</time></trkpt><trkpt lat="45.5937317" lon="10.7605183"><ele>216.0</ele><time>2026-03-28T14:10:22.199Z</time></trkpt><trkpt lat="45.5937317" lon="10.76029"><ele>216.0</ele><time>2026-03-28T14:10:23.198Z</time></trkpt><trkpt lat="45.5937383" lon="10.76005"><ele>216.0</ele><time>2026-03-28T14:10:24.198Z</time></trkpt><trkpt lat="45.5937433" lon="10.75981"><ele>216.66666666666669</ele><time>2026-03-28T14:10:25.199Z</time></trkpt><trkpt lat="45.5937533" lon="10.759585"><ele>217.33333333333334</ele><time>2026-03-28T14:10:26.198Z</time></trkpt><trkpt lat="45.593765" lon="10.759355"><ele>218.0</ele><time>2026-03-28T14:10:27.199Z</time></trkpt><trkpt lat="45.59379" lon="10.7591417"><ele>218.4</ele><time>2026-03-28T14:10:28.198Z</time></trkpt><trkpt lat="45.5938167" lon="10.758945"><ele>218.8</ele><time>2026-03-28T14:10:29.198Z</time></trkpt><trkpt lat="45.5938417" lon="10.7587883"><ele>219.2</ele><time>2026-03-28T14:10:30.198Z</time></trkpt><trkpt lat="45.593855" lon="10.7586433"><ele>219.6</ele><time>2026-03-28T14:10:31.198Z</time></trkpt><trkpt lat="45.5938717" lon="10.758525"><ele>220.0</ele><time>2026-03-28T14:10:32.198Z</time></trkpt><trkpt lat="45.5938933" lon="10.7584283"><ele>220.0</ele><time>2026-03-28T14:10:33.199Z</time></trkpt><trkpt lat="45.593935" lon="10.7583167"><ele>220.0</ele><time>2026-03-28T14:10:34.198Z</time></trkpt><trkpt lat="45.5939767" lon="10.7581917"><ele>220.0</ele><time>2026-03-28T14:10:35.199Z</time></trkpt><trkpt lat="45.594005" lon="10.7580383"><ele>220.0</ele><time>2026-03-28T14:10:36.199Z</time></trkpt><trkpt lat="45.5940483" lon="10.7578767"><ele>220.0</ele><time>2026-03-28T14:10:37.198Z</time></trkpt><trkpt lat="45.594095" lon="10.7577117"><ele>219.5</ele><time>2026-03-28T14:10:38.198Z</time></trkpt><trkpt lat="45.5941517" lon="10.7575267"><ele>219.0</ele><time>2026-03-28T14:10:39.198Z</time></trkpt><trkpt lat="45.5942067" lon="10.7573283"><ele>218.5</ele><time>2026-03-28T14:10:40.199Z</time></trkpt><trkpt lat="45.5942583" lon="10.757145"><ele>218.0</ele><time>2026-03-28T14:10:41.198Z</time></trkpt><trkpt lat="45.594305" lon="10.7569883"><ele>218.33333333333334</ele><time>2026-03-28T14:10:42.198Z</time></trkpt><trkpt lat="45.5943433" lon="10.7568583"><ele>218.66666666666669</ele><time>2026-03-28T14:10:43.199Z</time></trkpt><trkpt lat="45.59437" lon="10.7567533"><ele>219.0</ele><time>2026-03-28T14:10:44.198Z</time></trkpt><trkpt lat="45.5943883" lon="10.7566567"><ele>219.33333333333331</ele><time>2026-03-28T14:10:45.198Z</time></trkpt><trkpt lat="45.5944017" lon="10.7565583"><ele>219.66666666666666</ele><time>2026-03-28T14:10:46.198Z</time></trkpt><trkpt lat="45.5944217" lon="10.7564533"><ele>220.0</ele><time>2026-03-28T14:10:47.199Z</time></trkpt><trkpt lat="45.5944517" lon="10.7563133"><ele>220.0</ele><time>2026-03-28T14:10:48.199Z</time></trkpt><trkpt lat="45.5944983" lon="10.7561633"><ele>220.0</ele><time>2026-03-28T14:10:49.198Z</time></trkpt><trkpt lat="45.594545" lon="10.75602"><ele>220.0</ele><time>2026-03-28T14:10:50.198Z</time></trkpt><trkpt lat="45.5946" lon="10.7558783"><ele>220.0</ele><time>2026-03-28T14:10:51.198Z</time></trkpt><trkpt lat="45.594655" lon="10.7557283"><ele>221.25</ele><time>2026-03-28T14:10:52.199Z</time></trkpt><trkpt lat="45.5947183" lon="10.7555633"><ele>222.5</ele><time>2026-03-28T14:10:53.198Z</time></trkpt><trkpt lat="45.5947867" lon="10.7553967"><ele>223.75</ele><time>2026-03-28T14:10:54.198Z</time></trkpt><trkpt lat="45.5948583" lon="10.755235"><ele>225.0</ele><time>2026-03-28T14:10:55.198Z</time></trkpt><trkpt lat="45.5949183" lon="10.7550917"><ele>225.2</ele><time>2026-03-28T14:10:56.198Z</time></trkpt><trkpt lat="45.594975" lon="10.7549483"><ele>225.4</ele><time>2026-03-28T14:10:57.198Z</time></trkpt><trkpt lat="45.5950283" lon="10.754805"><ele>225.60000000000002</ele><time>2026-03-28T14:10:58.198Z</time></trkpt><trkpt lat="45.5950767" lon="10.7546733"><ele>225.8</ele><time>2026-03-28T14:10:59.198Z</time></trkpt><trkpt lat="45.5951133" lon="10.7545633"><ele>226.0</ele><time>2026-03-28T14:11:00.198Z</time></trkpt><trkpt lat="45.59514" lon="10.7544583"><ele>226.20000000000002</ele><time>2026-03-28T14:11:01.198Z</time></trkpt><trkpt lat="45.59517" lon="10.7543583"><ele>226.40000000000003</ele><time>2026-03-28T14:11:02.198Z</time></trkpt><trkpt lat="45.5952" lon="10.75426"><ele>226.6</ele><time>2026-03-28T14:11:03.199Z</time></trkpt><trkpt lat="45.595225" lon="10.75416"><ele>226.8</ele><time>2026-03-28T14:11:04.198Z</time></trkpt><trkpt lat="45.595275" lon="10.7539633"><ele>227.0</ele><time>2026-03-28T14:11:06.198Z</time></trkpt><trkpt lat="45.5953" lon="10.75383"><ele>227.0</ele><time>2026-03-28T14:11:07.198Z</time></trkpt><trkpt lat="45.5953183" lon="10.7536967"><ele>227.0</ele><time>2026-03-28T14:11:08.199Z</time></trkpt><trkpt lat="45.595335" lon="10.7535733"><ele>227.0</ele><time>2026-03-28T14:11:09.198Z</time></trkpt><trkpt lat="45.5953517" lon="10.7534633"><ele>227.0</ele><time>2026-03-28T14:11:10.199Z</time></trkpt><trkpt lat="45.59537" lon="10.7533383"><ele>227.0</ele><time>2026-03-28T14:11:12.198Z</time></trkpt><trkpt lat="45.5954517" lon="10.7532367"><ele>228.16666666666669</ele><time>2026-03-28T14:11:15.198Z</time></trkpt><trkpt lat="45.59557" lon="10.7532133"><ele>229.33333333333334</ele><time>2026-03-28T14:11:17.198Z</time></trkpt><trkpt lat="45.5956483" lon="10.7531717"><ele>230.5</ele><time>2026-03-28T14:11:18.198Z</time></trkpt><trkpt lat="45.5957233" lon="10.7531467"><ele>231.66666666666669</ele><time>2026-03-28T14:11:19.198Z</time></trkpt><trkpt lat="45.5957867" lon="10.7531217"><ele>232.83333333333334</ele><time>2026-03-28T14:11:20.199Z</time></trkpt><trkpt lat="45.595865" lon="10.75306"><ele>234.0</ele><time>2026-03-28T14:11:22.198Z</time></trkpt><trkpt lat="45.5958567" lon="10.7529667"><ele>234.0</ele><time>2026-03-28T14:11:27.198Z</time></trkpt><trkpt lat="45.5958" lon="10.75289"><ele>233.99999999999997</ele><time>2026-03-28T14:11:29.198Z</time></trkpt><trkpt lat="45.5956883" lon="10.7527767"><ele>233.99999999999997</ele><time>2026-03-28T14:11:31.198Z</time></trkpt><trkpt lat="45.5955983" lon="10.7527"><ele>234.0</ele><time>2026-03-28T14:11:32.198Z</time></trkpt><trkpt lat="45.595495" lon="10.75262"><ele>234.0</ele><time>2026-03-28T14:11:33.198Z</time></trkpt><trkpt lat="45.59538" lon="10.7525217"><ele>232.33333333333331</ele><time>2026-03-28T14:11:34.199Z</time></trkpt><trkpt lat="45.595255" lon="10.7524183"><ele>230.66666666666666</ele><time>2026-03-28T14:11:35.199Z</time></trkpt><trkpt lat="45.5951283" lon="10.7523033"><ele>229.0</ele><time>2026-03-28T14:11:36.199Z</time></trkpt><trkpt lat="45.5949967" lon="10.75217"><ele>229.0</ele><time>2026-03-28T14:11:37.198Z</time></trkpt><trkpt lat="45.5948617" lon="10.7520367"><ele>229.0</ele><time>2026-03-28T14:11:38.199Z</time></trkpt><trkpt lat="45.59473" lon="10.75191"><ele>229.0</ele><time>2026-03-28T14:11:39.198Z</time></trkpt><trkpt lat="45.5945983" lon="10.7517783"><ele>227.33333333333331</ele><time>2026-03-28T14:11:40.198Z</time></trkpt><trkpt lat="45.594465" lon="10.7516433"><ele>225.66666666666669</ele><time>2026-03-28T14:11:41.198Z</time></trkpt><trkpt lat="45.5943267" lon="10.7515033"><ele>224.0</ele><time>2026-03-28T14:11:42.198Z</time></trkpt><trkpt lat="45.5941867" lon="10.7513617"><ele>224.0</ele><time>2026-03-28T14:11:43.199Z</time></trkpt><trkpt lat="45.594045" lon="10.7512233"><ele>224.0</ele><time>2026-03-28T14:11:44.199Z</time></trkpt><trkpt lat="45.5939017" lon="10.7510783"><ele>224.0</ele><time>2026-03-28T14:11:45.199Z</time></trkpt><trkpt lat="45.5937567" lon="10.75094"><ele>224.0</ele><time>2026-03-28T14:11:46.198Z</time></trkpt><trkpt lat="45.5936117" lon="10.750795"><ele>224.0</ele><time>2026-03-28T14:11:47.199Z</time></trkpt><trkpt lat="45.593455" lon="10.7506417"><ele>224.0</ele><time>2026-03-28T14:11:48.199Z</time></trkpt><trkpt lat="45.593295" lon="10.7504967"><ele>224.0</ele><time>2026-03-28T14:11:49.198Z</time></trkpt><trkpt lat="45.5931333" lon="10.750365"><ele>224.0</ele><time>2026-03-28T14:11:50.199Z</time></trkpt><trkpt lat="45.5929667" lon="10.7502517"><ele>224.0</ele><time>2026-03-28T14:11:51.198Z</time></trkpt><trkpt lat="45.5927983" lon="10.7501317"><ele>223.33333333333334</ele><time>2026-03-28T14:11:52.198Z</time></trkpt><trkpt lat="45.592625" lon="10.7500167"><ele>222.66666666666669</ele><time>2026-03-28T14:11:53.199Z</time></trkpt><trkpt lat="45.5924533" lon="10.7498983"><ele>222.0</ele><time>2026-03-28T14:11:54.198Z</time></trkpt><trkpt lat="45.5922867" lon="10.74977"><ele>222.0</ele><time>2026-03-28T14:11:55.199Z</time></trkpt><trkpt lat="45.5921217" lon="10.74964"><ele>222.0</ele><time>2026-03-28T14:11:56.199Z</time></trkpt><trkpt lat="45.5919583" lon="10.7495067"><ele>222.0</ele><time>2026-03-28T14:11:57.198Z</time></trkpt><trkpt lat="45.5917967" lon="10.7493767"><ele>222.0</ele><time>2026-03-28T14:11:58.199Z</time></trkpt><trkpt lat="45.5916283" lon="10.7492467"><ele>222.0</ele><time>2026-03-28T14:11:59.198Z</time></trkpt><trkpt lat="45.59146" lon="10.749115"><ele>222.0</ele><time>2026-03-28T14:12:00.198Z</time></trkpt><trkpt lat="45.5912967" lon="10.7489783"><ele>221.66666666666669</ele><time>2026-03-28T14:12:01.198Z</time></trkpt><trkpt lat="45.5911283" lon="10.7488383"><ele>221.33333333333334</ele><time>2026-03-28T14:12:02.198Z</time></trkpt><trkpt lat="45.5909583" lon="10.7486967"><ele>221.0</ele><time>2026-03-28T14:12:03.198Z</time></trkpt><trkpt lat="45.5907933" lon="10.7485583"><ele>221.33333333333334</ele><time>2026-03-28T14:12:04.199Z</time></trkpt><trkpt lat="45.59063" lon="10.7484183"><ele>221.66666666666669</ele><time>2026-03-28T14:12:05.198Z</time></trkpt><trkpt lat="45.5904683" lon="10.74828"><ele>222.0</ele><time>2026-03-28T14:12:06.199Z</time></trkpt><trkpt lat="45.590305" lon="10.7481517"><ele>222.0</ele><time>2026-03-28T14:12:07.198Z</time></trkpt><trkpt lat="45.59014" lon="10.7480317"><ele>222.0</ele><time>2026-03-28T14:12:08.199Z</time></trkpt><trkpt lat="45.5899683" lon="10.747925"><ele>222.0</ele><time>2026-03-28T14:12:09.198Z</time></trkpt><trkpt lat="45.589795" lon="10.74782"><ele>222.0</ele><time>2026-03-28T14:12:10.198Z</time></trkpt><trkpt lat="45.5896217" lon="10.747715"><ele>222.0</ele><time>2026-03-28T14:12:11.198Z</time></trkpt><trkpt lat="45.5894533" lon="10.74761"><ele>222.0</ele><time>2026-03-28T14:12:12.198Z</time></trkpt><trkpt lat="45.5892883" lon="10.74751"><ele>221.66666666666669</ele><time>2026-03-28T14:12:13.198Z</time></trkpt><trkpt lat="45.5891233" lon="10.747405"><ele>221.33333333333334</ele><time>2026-03-28T14:12:14.198Z</time></trkpt><trkpt lat="45.588965" lon="10.74731"><ele>221.0</ele><time>2026-03-28T14:12:15.198Z</time></trkpt><trkpt lat="45.58881" lon="10.74722"><ele>221.0</ele><time>2026-03-28T14:12:16.199Z</time></trkpt><trkpt lat="45.5886633" lon="10.7471367"><ele>221.0</ele><time>2026-03-28T14:12:17.198Z</time></trkpt><trkpt lat="45.58853" lon="10.7470567"><ele>221.0</ele><time>2026-03-28T14:12:18.198Z</time></trkpt><trkpt lat="45.5884083" lon="10.746985"><ele>221.0</ele><time>2026-03-28T14:12:19.199Z</time></trkpt><trkpt lat="45.5882983" lon="10.7469067"><ele>221.60000000000002</ele><time>2026-03-28T14:12:20.199Z</time></trkpt><trkpt lat="45.5882183" lon="10.74682"><ele>222.20000000000002</ele><time>2026-03-28T14:12:21.198Z</time></trkpt><trkpt lat="45.5881433" lon="10.7467033"><ele>222.79999999999998</ele><time>2026-03-28T14:12:22.199Z</time></trkpt><trkpt lat="45.5880633" lon="10.746605"><ele>223.39999999999998</ele><time>2026-03-28T14:12:23.198Z</time></trkpt><trkpt lat="45.5879817" lon="10.7465483"><ele>224.0</ele><time>2026-03-28T14:12:24.197Z</time></trkpt><trkpt lat="45.5879083" lon="10.7465383"><ele>224.0</ele><time>2026-03-28T14:12:25.197Z</time></trkpt><trkpt lat="45.587815" lon="10.746645"><ele>223.99999999999997</ele><time>2026-03-28T14:12:27.197Z</time></trkpt><trkpt lat="45.587785" lon="10.74676"><ele>223.99999999999997</ele><time>2026-03-28T14:12:28.197Z</time></trkpt><trkpt lat="45.5877467" lon="10.7468917"><ele>224.0</ele><time>2026-03-28T14:12:29.198Z</time></trkpt><trkpt lat="45.5876917" lon="10.747025"><ele>224.0</ele><time>2026-03-28T14:12:30.198Z</time></trkpt><trkpt lat="45.5876167" lon="10.7471533"><ele>224.0</ele><time>2026-03-28T14:12:31.197Z</time></trkpt><trkpt lat="45.5875333" lon="10.747285"><ele>224.0</ele><time>2026-03-28T14:12:32.197Z</time></trkpt><trkpt lat="45.587445" lon="10.74741"><ele>224.0</ele><time>2026-03-28T14:12:33.197Z</time></trkpt><trkpt lat="45.5873517" lon="10.7475217"><ele>224.0</ele><time>2026-03-28T14:12:34.198Z</time></trkpt><trkpt lat="45.58726" lon="10.7476317"><ele>223.79999999999998</ele><time>2026-03-28T14:12:35.198Z</time></trkpt><trkpt lat="45.587175" lon="10.7477233"><ele>223.59999999999997</ele><time>2026-03-28T14:12:36.197Z</time></trkpt><trkpt lat="45.5871083" lon="10.7477983"><ele>223.4</ele><time>2026-03-28T14:12:37.197Z</time></trkpt><trkpt lat="45.5870533" lon="10.7478517"><ele>223.2</ele><time>2026-03-28T14:12:38.197Z</time></trkpt><trkpt lat="45.5869633" lon="10.74792"><ele>223.0</ele><time>2026-03-28T14:12:40.197Z</time></trkpt><trkpt lat="45.5868433" lon="10.7480117"><ele>223.0</ele><time>2026-03-28T14:12:42.198Z</time></trkpt><trkpt lat="45.586775" lon="10.7480767"><ele>223.0</ele><time>2026-03-28T14:12:43.198Z</time></trkpt><trkpt lat="45.5867033" lon="10.7481567"><ele>223.0</ele><time>2026-03-28T14:12:44.197Z</time></trkpt><trkpt lat="45.5866217" lon="10.7482567"><ele>223.0</ele><time>2026-03-28T14:12:45.198Z</time></trkpt><trkpt lat="45.5865183" lon="10.748375"><ele>223.0</ele><time>2026-03-28T14:12:46.198Z</time></trkpt><trkpt lat="45.5863983" lon="10.7485017"><ele>222.33333333333331</ele><time>2026-03-28T14:12:47.198Z</time></trkpt><trkpt lat="45.5862667" lon="10.7486333"><ele>221.66666666666669</ele><time>2026-03-28T14:12:48.197Z</time></trkpt><trkpt lat="45.5861217" lon="10.74877"><ele>221.0</ele><time>2026-03-28T14:12:49.198Z</time></trkpt><trkpt lat="45.5859783" lon="10.7488867"><ele>221.0</ele><time>2026-03-28T14:12:50.197Z</time></trkpt><trkpt lat="45.5858567" lon="10.7489767"><ele>221.00000000000003</ele><time>2026-03-28T14:12:51.197Z</time></trkpt><trkpt lat="45.5857533" lon="10.7490517"><ele>221.00000000000003</ele><time>2026-03-28T14:12:52.197Z</time></trkpt><trkpt lat="45.585685" lon="10.7491"><ele>221.0</ele><time>2026-03-28T14:12:53.197Z</time></trkpt><trkpt lat="45.58562" lon="10.7491483"><ele>221.0</ele><time>2026-03-28T14:12:55.197Z</time></trkpt><trkpt lat="45.58554" lon="10.7490667"><ele>221.0</ele><time>2026-03-28T14:12:58.198Z</time></trkpt><trkpt lat="45.585475" lon="10.7490017"><ele>221.00000000000003</ele><time>2026-03-28T14:12:59.198Z</time></trkpt><trkpt lat="45.5853983" lon="10.74895"><ele>221.00000000000003</ele><time>2026-03-28T14:13:00.198Z</time></trkpt><trkpt lat="45.5853117" lon="10.7489233"><ele>221.0</ele><time>2026-03-28T14:13:01.197Z</time></trkpt><trkpt lat="45.5852" lon="10.7489383"><ele>221.0</ele><time>2026-03-28T14:13:02.198Z</time></trkpt><trkpt lat="45.5850783" lon="10.749"><ele>220.75</ele><time>2026-03-28T14:13:03.198Z</time></trkpt><trkpt lat="45.5849567" lon="10.7491033"><ele>220.5</ele><time>2026-03-28T14:13:04.197Z</time></trkpt><trkpt lat="45.5848483" lon="10.7492333"><ele>220.25</ele><time>2026-03-28T14:13:05.197Z</time></trkpt><trkpt lat="45.58475" lon="10.7493783"><ele>220.0</ele><time>2026-03-28T14:13:06.197Z</time></trkpt><trkpt lat="45.5846667" lon="10.7494917"><ele>220.0</ele><time>2026-03-28T14:13:07.197Z</time></trkpt><trkpt lat="45.584595" lon="10.7495667"><ele>220.0</ele><time>2026-03-28T14:13:08.197Z</time></trkpt><trkpt lat="45.5845217" lon="10.7496183"><ele>220.0</ele><time>2026-03-28T14:13:09.197Z</time></trkpt><trkpt lat="45.58443" lon="10.749645"><ele>220.0</ele><time>2026-03-28T14:13:10.197Z</time></trkpt><trkpt lat="45.584325" lon="10.7496483"><ele>220.0</ele><time>2026-03-28T14:13:11.197Z</time></trkpt><trkpt lat="45.5842017" lon="10.7496333"><ele>221.33333333333331</ele><time>2026-03-28T14:13:12.198Z</time></trkpt><trkpt lat="45.584055" lon="10.7496217"><ele>222.66666666666669</ele><time>2026-03-28T14:13:13.198Z</time></trkpt><trkpt lat="45.5838833" lon="10.7496233"><ele>224.0</ele><time>2026-03-28T14:13:14.198Z</time></trkpt><trkpt lat="45.5837183" lon="10.74964"><ele>224.75</ele><time>2026-03-28T14:13:15.198Z</time></trkpt><trkpt lat="45.5835783" lon="10.7496583"><ele>225.5</ele><time>2026-03-28T14:13:16.197Z</time></trkpt><trkpt lat="45.5834383" lon="10.7496967"><ele>226.25</ele><time>2026-03-28T14:13:17.197Z</time></trkpt><trkpt lat="45.5833017" lon="10.7497317"><ele>227.0</ele><time>2026-03-28T14:13:18.197Z</time></trkpt><trkpt lat="45.5831717" lon="10.7497567"><ele>227.0</ele><time>2026-03-28T14:13:19.198Z</time></trkpt><trkpt lat="45.5830467" lon="10.749755"><ele>227.0</ele><time>2026-03-28T14:13:20.197Z</time></trkpt><trkpt lat="45.582915" lon="10.74974"><ele>227.0</ele><time>2026-03-28T14:13:21.198Z</time></trkpt><trkpt lat="45.58278" lon="10.7497167"><ele>227.0</ele><time>2026-03-28T14:13:22.197Z</time></trkpt><trkpt lat="45.5826367" lon="10.7496817"><ele>226.33333333333334</ele><time>2026-03-28T14:13:23.197Z</time></trkpt><trkpt lat="45.5824867" lon="10.7496417"><ele>225.66666666666669</ele><time>2026-03-28T14:13:24.198Z</time></trkpt><trkpt lat="45.5823283" lon="10.7495933"><ele>225.0</ele><time>2026-03-28T14:13:25.197Z</time></trkpt><trkpt lat="45.5821733" lon="10.74955"><ele>225.0</ele><time>2026-03-28T14:13:26.197Z</time></trkpt><trkpt lat="45.58203" lon="10.74951"><ele>225.0</ele><time>2026-03-28T14:13:27.198Z</time></trkpt><trkpt lat="45.5818883" lon="10.7494717"><ele>225.0</ele><time>2026-03-28T14:13:28.197Z</time></trkpt><trkpt lat="45.5817417" lon="10.74945"><ele>225.0</ele><time>2026-03-28T14:13:29.198Z</time></trkpt><trkpt lat="45.5815833" lon="10.7494367"><ele>224.25</ele><time>2026-03-28T14:13:30.198Z</time></trkpt><trkpt lat="45.5814283" lon="10.7494083"><ele>223.5</ele><time>2026-03-28T14:13:31.197Z</time></trkpt><trkpt lat="45.5812967" lon="10.7493883"><ele>222.75</ele><time>2026-03-28T14:13:32.197Z</time></trkpt><trkpt lat="45.5811783" lon="10.749365"><ele>222.0</ele><time>2026-03-28T14:13:33.197Z</time></trkpt><trkpt lat="45.5810533" lon="10.7493417"><ele>222.25</ele><time>2026-03-28T14:13:34.197Z</time></trkpt><trkpt lat="45.5809183" lon="10.7493667"><ele>222.5</ele><time>2026-03-28T14:13:35.198Z</time></trkpt><trkpt lat="45.58078" lon="10.7494283"><ele>222.75</ele><time>2026-03-28T14:13:36.198Z</time></trkpt><trkpt lat="45.5806483" lon="10.7495017"><ele>223.0</ele><time>2026-03-28T14:13:37.198Z</time></trkpt><trkpt lat="45.5805383" lon="10.7495733"><ele>223.0</ele><time>2026-03-28T14:13:38.197Z</time></trkpt><trkpt lat="45.580445" lon="10.7496333"><ele>223.0</ele><time>2026-03-28T14:13:39.198Z</time></trkpt><trkpt lat="45.5803683" lon="10.7496783"><ele>223.0</ele><time>2026-03-28T14:13:40.197Z</time></trkpt><trkpt lat="45.5802633" lon="10.749755"><ele>223.0</ele><time>2026-03-28T14:13:42.197Z</time></trkpt><trkpt lat="45.580185" lon="10.7498717"><ele>223.0</ele><time>2026-03-28T14:13:44.197Z</time></trkpt><trkpt lat="45.5801383" lon="10.749945"><ele>224.4</ele><time>2026-03-28T14:13:45.198Z</time></trkpt><trkpt lat="45.580065" lon="10.7500017"><ele>225.8</ele><time>2026-03-28T14:13:46.197Z</time></trkpt><trkpt lat="45.57997" lon="10.75005"><ele>227.2</ele><time>2026-03-28T14:13:47.197Z</time></trkpt><trkpt lat="45.5798667" lon="10.7500767"><ele>228.6</ele><time>2026-03-28T14:13:48.198Z</time></trkpt><trkpt lat="45.57975" lon="10.7501233"><ele>230.0</ele><time>2026-03-28T14:13:49.197Z</time></trkpt><trkpt lat="45.5796233" lon="10.750205"><ele>229.75</ele><time>2026-03-28T14:13:50.197Z</time></trkpt><trkpt lat="45.5794917" lon="10.7502933"><ele>229.5</ele><time>2026-03-28T14:13:51.197Z</time></trkpt><trkpt lat="45.5793617" lon="10.7503867"><ele>229.25</ele><time>2026-03-28T14:13:52.198Z</time></trkpt><trkpt lat="45.5792333" lon="10.7504733"><ele>229.0</ele><time>2026-03-28T14:13:53.198Z</time></trkpt><trkpt lat="45.57911" lon="10.7505667"><ele>229.0</ele><time>2026-03-28T14:13:54.198Z</time></trkpt><trkpt lat="45.5789867" lon="10.75066"><ele>229.0</ele><time>2026-03-28T14:13:55.197Z</time></trkpt><trkpt lat="45.5788717" lon="10.7507483"><ele>229.0</ele><time>2026-03-28T14:13:56.197Z</time></trkpt><trkpt lat="45.5787767" lon="10.7508283"><ele>229.0</ele><time>2026-03-28T14:13:57.197Z</time></trkpt><trkpt lat="45.5786983" lon="10.7508967"><ele>229.6</ele><time>2026-03-28T14:13:58.197Z</time></trkpt><trkpt lat="45.578635" lon="10.750955"><ele>230.2</ele><time>2026-03-28T14:13:59.198Z</time></trkpt><trkpt lat="45.5785617" lon="10.7510483"><ele>230.79999999999998</ele><time>2026-03-28T14:14:01.198Z</time></trkpt><trkpt lat="45.5785833" lon="10.7512083"><ele>231.39999999999998</ele><time>2026-03-28T14:14:03.198Z</time></trkpt><trkpt lat="45.5786333" lon="10.7513183"><ele>232.0</ele><time>2026-03-28T14:14:04.197Z</time></trkpt><trkpt lat="45.5786867" lon="10.751455"><ele>230.49999999999997</ele><time>2026-03-28T14:14:05.197Z</time></trkpt><trkpt lat="45.5787267" lon="10.751585"><ele>229.0</ele><time>2026-03-28T14:14:06.197Z</time></trkpt><trkpt lat="45.57875" lon="10.7516983"><ele>227.5</ele><time>2026-03-28T14:14:07.198Z</time></trkpt><trkpt lat="45.5787583" lon="10.7517933"><ele>226.0</ele><time>2026-03-28T14:14:08.198Z</time></trkpt><trkpt lat="45.5787517" lon="10.7518867"><ele>224.49999999999997</ele><time>2026-03-28T14:14:09.197Z</time></trkpt><trkpt lat="45.57873" lon="10.7520017"><ele>223.0</ele><time>2026-03-28T14:14:10.197Z</time></trkpt><trkpt lat="45.5787083" lon="10.7521533"><ele>222.0</ele><time>2026-03-28T14:14:11.197Z</time></trkpt><trkpt lat="45.5786933" lon="10.752295"><ele>221.0</ele><time>2026-03-28T14:14:12.197Z</time></trkpt><trkpt lat="45.57868" lon="10.7524233"><ele>220.0</ele><time>2026-03-28T14:14:13.198Z</time></trkpt><trkpt lat="45.5786333" lon="10.7525767"><ele>219.0</ele><time>2026-03-28T14:14:15.197Z</time></trkpt><trkpt lat="45.578565" lon="10.75267"><ele>218.0</ele><time>2026-03-28T14:14:17.197Z</time></trkpt><trkpt lat="45.5784867" lon="10.7528233"><ele>216.75</ele><time>2026-03-28T14:14:19.197Z</time></trkpt><trkpt lat="45.5784583" lon="10.7529367"><ele>215.5</ele><time>2026-03-28T14:14:20.197Z</time></trkpt><trkpt lat="45.5784417" lon="10.7530833"><ele>214.25</ele><time>2026-03-28T14:14:21.197Z</time></trkpt><trkpt lat="45.57844" lon="10.7532683"><ele>213.0</ele><time>2026-03-28T14:14:22.198Z</time></trkpt><trkpt lat="45.57845" lon="10.7534567"><ele>212.0</ele><time>2026-03-28T14:14:23.198Z</time></trkpt><trkpt lat="45.578485" lon="10.7536517"><ele>211.0</ele><time>2026-03-28T14:14:24.197Z</time></trkpt><trkpt lat="45.5785333" lon="10.7538333"><ele>210.0</ele><time>2026-03-28T14:14:25.198Z</time></trkpt><trkpt lat="45.5785733" lon="10.7539817"><ele>209.0</ele><time>2026-03-28T14:14:26.198Z</time></trkpt><trkpt lat="45.5786033" lon="10.7541433"><ele>209.0</ele><time>2026-03-28T14:14:28.198Z</time></trkpt><trkpt lat="45.5785233" lon="10.7541483"><ele>209.0</ele><time>2026-03-28T14:14:32.198Z</time></trkpt><trkpt lat="45.578415" lon="10.7540517"><ele>209.0</ele><time>2026-03-28T14:14:34.197Z</time></trkpt><trkpt lat="45.5783483" lon="10.7539817"><ele>209.0</ele><time>2026-03-28T14:14:35.197Z</time></trkpt><trkpt lat="45.57826" lon="10.75391"><ele>209.0</ele><time>2026-03-28T14:14:36.197Z</time></trkpt><trkpt lat="45.5781433" lon="10.7538283"><ele>209.0</ele><time>2026-03-28T14:14:37.197Z</time></trkpt><trkpt lat="45.5780217" lon="10.7537367"><ele>209.0</ele><time>2026-03-28T14:14:38.198Z</time></trkpt><trkpt lat="45.57789" lon="10.7536317"><ele>209.0</ele><time>2026-03-28T14:14:39.198Z</time></trkpt><trkpt lat="45.577775" lon="10.7535233"><ele>209.0</ele><time>2026-03-28T14:14:40.198Z</time></trkpt><trkpt lat="45.577665" lon="10.753405"><ele>209.25</ele><time>2026-03-28T14:14:41.197Z</time></trkpt><trkpt lat="45.5775667" lon="10.7532883"><ele>209.5</ele><time>2026-03-28T14:14:42.197Z</time></trkpt><trkpt lat="45.5774767" lon="10.75318"><ele>209.75</ele><time>2026-03-28T14:14:43.197Z</time></trkpt><trkpt lat="45.57739" lon="10.7530583"><ele>210.0</ele><time>2026-03-28T14:14:44.198Z</time></trkpt><trkpt lat="45.577305" lon="10.75292"><ele>210.0</ele><time>2026-03-28T14:14:45.197Z</time></trkpt><trkpt lat="45.577225" lon="10.7527533"><ele>210.0</ele><time>2026-03-28T14:14:46.198Z</time></trkpt><trkpt lat="45.5771433" lon="10.752575"><ele>210.0</ele><time>2026-03-28T14:14:47.197Z</time></trkpt><trkpt lat="45.577065" lon="10.7523983"><ele>210.0</ele><time>2026-03-28T14:14:48.197Z</time></trkpt><trkpt lat="45.576995" lon="10.7522417"><ele>210.0</ele><time>2026-03-28T14:14:49.198Z</time></trkpt><trkpt lat="45.57693" lon="10.7520967"><ele>210.0</ele><time>2026-03-28T14:14:50.197Z</time></trkpt><trkpt lat="45.576865" lon="10.751955"><ele>210.0</ele><time>2026-03-28T14:14:51.197Z</time></trkpt><trkpt lat="45.5767933" lon="10.7518133"><ele>210.0</ele><time>2026-03-28T14:14:52.197Z</time></trkpt><trkpt lat="45.5767233" lon="10.7516933"><ele>210.0</ele><time>2026-03-28T14:14:53.197Z</time></trkpt><trkpt lat="45.5766583" lon="10.7515917"><ele>210.0</ele><time>2026-03-28T14:14:54.197Z</time></trkpt><trkpt lat="45.576605" lon="10.751505"><ele>210.0</ele><time>2026-03-28T14:14:55.197Z</time></trkpt><trkpt lat="45.576565" lon="10.7514317"><ele>210.0</ele><time>2026-03-28T14:14:56.198Z</time></trkpt><trkpt lat="45.5765233" lon="10.7513633"><ele>210.0</ele><time>2026-03-28T14:14:57.197Z</time></trkpt><trkpt lat="45.5764683" lon="10.7512717"><ele>210.0</ele><time>2026-03-28T14:14:58.197Z</time></trkpt><trkpt lat="45.576405" lon="10.75116"><ele>210.0</ele><time>2026-03-28T14:14:59.197Z</time></trkpt><trkpt lat="45.5763417" lon="10.7510383"><ele>210.0</ele><time>2026-03-28T14:15:00.197Z</time></trkpt><trkpt lat="45.5762767" lon="10.750925"><ele>210.0</ele><time>2026-03-28T14:15:01.197Z</time></trkpt><trkpt lat="45.5762117" lon="10.7508067"><ele>210.0</ele><time>2026-03-28T14:15:02.197Z</time></trkpt><trkpt lat="45.5761417" lon="10.7506783"><ele>210.0</ele><time>2026-03-28T14:15:03.197Z</time></trkpt><trkpt lat="45.5760683" lon="10.75054"><ele>210.0</ele><time>2026-03-28T14:15:04.198Z</time></trkpt><trkpt lat="45.575985" lon="10.7504033"><ele>210.0</ele><time>2026-03-28T14:15:05.197Z</time></trkpt><trkpt lat="45.575895" lon="10.75026"><ele>210.0</ele><time>2026-03-28T14:15:06.198Z</time></trkpt><trkpt lat="45.5758033" lon="10.75013"><ele>210.0</ele><time>2026-03-28T14:15:07.197Z</time></trkpt><trkpt lat="45.5757033" lon="10.750015"><ele>210.0</ele><time>2026-03-28T14:15:08.197Z</time></trkpt><trkpt lat="45.5755967" lon="10.7499133"><ele>210.0</ele><time>2026-03-28T14:15:09.198Z</time></trkpt><trkpt lat="45.5754833" lon="10.7498267"><ele>210.0</ele><time>2026-03-28T14:15:10.198Z</time></trkpt><trkpt lat="45.5753533" lon="10.749735"><ele>210.0</ele><time>2026-03-28T14:15:11.197Z</time></trkpt><trkpt lat="45.575225" lon="10.749635"><ele>210.25</ele><time>2026-03-28T14:15:12.197Z</time></trkpt><trkpt lat="45.5751033" lon="10.7495283"><ele>210.5</ele><time>2026-03-28T14:15:13.197Z</time></trkpt><trkpt lat="45.5749767" lon="10.7494267"><ele>210.75</ele><time>2026-03-28T14:15:14.197Z</time></trkpt><trkpt lat="45.574845" lon="10.7493267"><ele>211.0</ele><time>2026-03-28T14:15:15.198Z</time></trkpt><trkpt lat="45.5747233" lon="10.7492317"><ele>211.0</ele><time>2026-03-28T14:15:16.197Z</time></trkpt><trkpt lat="45.5746033" lon="10.7491467"><ele>211.0</ele><time>2026-03-28T14:15:17.198Z</time></trkpt><trkpt lat="45.5744883" lon="10.7490683"><ele>211.0</ele><time>2026-03-28T14:15:18.197Z</time></trkpt><trkpt lat="45.5743683" lon="10.7489967"><ele>211.0</ele><time>2026-03-28T14:15:19.197Z</time></trkpt><trkpt lat="45.5742467" lon="10.7489367"><ele>209.75</ele><time>2026-03-28T14:15:20.198Z</time></trkpt><trkpt lat="45.57413" lon="10.7488683"><ele>208.5</ele><time>2026-03-28T14:15:21.198Z</time></trkpt><trkpt lat="45.5740167" lon="10.74879"><ele>207.25</ele><time>2026-03-28T14:15:22.198Z</time></trkpt><trkpt lat="45.5739183" lon="10.7487067"><ele>206.0</ele><time>2026-03-28T14:15:23.198Z</time></trkpt><trkpt lat="45.57382" lon="10.74862"><ele>206.20000000000002</ele><time>2026-03-28T14:15:24.197Z</time></trkpt><trkpt lat="45.5737367" lon="10.7485233"><ele>206.4</ele><time>2026-03-28T14:15:25.197Z</time></trkpt><trkpt lat="45.5736683" lon="10.748435"><ele>206.6</ele><time>2026-03-28T14:15:26.198Z</time></trkpt><trkpt lat="45.5736133" lon="10.7483583"><ele>206.8</ele><time>2026-03-28T14:15:27.198Z</time></trkpt><trkpt lat="45.573535" lon="10.7482583"><ele>207.0</ele><time>2026-03-28T14:15:29.197Z</time></trkpt><trkpt lat="45.57347" lon="10.7481917"><ele>207.0</ele><time>2026-03-28T14:15:31.197Z</time></trkpt><trkpt lat="45.5734167" lon="10.7481333"><ele>207.0</ele><time>2026-03-28T14:15:33.198Z</time></trkpt><trkpt lat="45.5733433" lon="10.7480483"><ele>207.0</ele><time>2026-03-28T14:15:35.197Z</time></trkpt><trkpt lat="45.5732633" lon="10.748025"><ele>207.0</ele><time>2026-03-28T14:15:37.197Z</time></trkpt><trkpt lat="45.5731583" lon="10.7480983"><ele>207.0</ele><time>2026-03-28T14:15:39.197Z</time></trkpt><trkpt lat="45.573085" lon="10.7481567"><ele>207.0</ele><time>2026-03-28T14:15:40.198Z</time></trkpt><trkpt lat="45.5729983" lon="10.7482267"><ele>207.0</ele><time>2026-03-28T14:15:41.198Z</time></trkpt><trkpt lat="45.5729" lon="10.74832"><ele>207.0</ele><time>2026-03-28T14:15:42.197Z</time></trkpt><trkpt lat="45.5728" lon="10.748415"><ele>207.0</ele><time>2026-03-28T14:15:43.198Z</time></trkpt><trkpt lat="45.5726917" lon="10.7485133"><ele>207.0</ele><time>2026-03-28T14:15:44.198Z</time></trkpt><trkpt lat="45.5725883" lon="10.7486233"><ele>207.2</ele><time>2026-03-28T14:15:45.197Z</time></trkpt><trkpt lat="45.5724917" lon="10.7487117"><ele>207.39999999999998</ele><time>2026-03-28T14:15:46.198Z</time></trkpt><trkpt lat="45.5724017" lon="10.7487933"><ele>207.60000000000002</ele><time>2026-03-28T14:15:47.197Z</time></trkpt><trkpt lat="45.5723167" lon="10.7488567"><ele>207.8</ele><time>2026-03-28T14:15:48.197Z</time></trkpt><trkpt lat="45.5722417" lon="10.74889"><ele>208.0</ele><time>2026-03-28T14:15:49.198Z</time></trkpt><trkpt lat="45.5721733" lon="10.74891"><ele>207.99999999999997</ele><time>2026-03-28T14:15:50.197Z</time></trkpt><trkpt lat="45.5721017" lon="10.7489117"><ele>208.0</ele><time>2026-03-28T14:15:51.197Z</time></trkpt><trkpt lat="45.57203" lon="10.7488817"><ele>208.0</ele><time>2026-03-28T14:15:52.197Z</time></trkpt><trkpt lat="45.57195" lon="10.7488417"><ele>208.0</ele><time>2026-03-28T14:15:53.197Z</time></trkpt><trkpt lat="45.57187" lon="10.7487983"><ele>207.99999999999997</ele><time>2026-03-28T14:15:54.197Z</time></trkpt><trkpt lat="45.5717783" lon="10.748745"><ele>208.0</ele><time>2026-03-28T14:15:55.198Z</time></trkpt><trkpt lat="45.571685" lon="10.7486867"><ele>208.25</ele><time>2026-03-28T14:15:56.198Z</time></trkpt><trkpt lat="45.5715867" lon="10.748625"><ele>208.5</ele><time>2026-03-28T14:15:57.198Z</time></trkpt><trkpt lat="45.57149" lon="10.7485417"><ele>208.75</ele><time>2026-03-28T14:15:58.197Z</time></trkpt><trkpt lat="45.5713883" lon="10.7484617"><ele>209.0</ele><time>2026-03-28T14:15:59.197Z</time></trkpt><trkpt lat="45.5712833" lon="10.74838"><ele>208.5</ele><time>2026-03-28T14:16:00.197Z</time></trkpt><trkpt lat="45.5711733" lon="10.748295"><ele>208.0</ele><time>2026-03-28T14:16:01.197Z</time></trkpt><trkpt lat="45.5710717" lon="10.7482117"><ele>207.5</ele><time>2026-03-28T14:16:02.198Z</time></trkpt><trkpt lat="45.57097" lon="10.7481217"><ele>207.0</ele><time>2026-03-28T14:16:03.198Z</time></trkpt><trkpt lat="45.57088" lon="10.74805"><ele>207.0</ele><time>2026-03-28T14:16:04.197Z</time></trkpt><trkpt lat="45.570795" lon="10.748"><ele>207.0</ele><time>2026-03-28T14:16:05.198Z</time></trkpt><trkpt lat="45.57072" lon="10.748"><ele>207.0</ele><time>2026-03-28T14:16:06.198Z</time></trkpt><trkpt lat="45.5706433" lon="10.7480267"><ele>207.0</ele><time>2026-03-28T14:16:07.197Z</time></trkpt><trkpt lat="45.5705517" lon="10.748085"><ele>207.0</ele><time>2026-03-28T14:16:08.198Z</time></trkpt><trkpt lat="45.57047" lon="10.7481833"><ele>207.0</ele><time>2026-03-28T14:16:09.197Z</time></trkpt><trkpt lat="45.5703867" lon="10.748335"><ele>207.0</ele><time>2026-03-28T14:16:10.197Z</time></trkpt><trkpt lat="45.5702933" lon="10.7485017"><ele>207.0</ele><time>2026-03-28T14:16:11.197Z</time></trkpt><trkpt lat="45.5702117" lon="10.7486833"><ele>207.0</ele><time>2026-03-28T14:16:12.197Z</time></trkpt><trkpt lat="45.5701583" lon="10.7488767"><ele>211.25</ele><time>2026-03-28T14:16:13.198Z</time></trkpt><trkpt lat="45.5701217" lon="10.7490817"><ele>215.5</ele><time>2026-03-28T14:16:14.197Z</time></trkpt><trkpt lat="45.5700767" lon="10.7492783"><ele>219.75</ele><time>2026-03-28T14:16:15.197Z</time></trkpt><trkpt lat="45.5700567" lon="10.7494733"><ele>224.0</ele><time>2026-03-28T14:16:16.197Z</time></trkpt><trkpt lat="45.5700267" lon="10.7496483"><ele>224.6</ele><time>2026-03-28T14:16:17.197Z</time></trkpt><trkpt lat="45.56998" lon="10.749795"><ele>225.2</ele><time>2026-03-28T14:16:18.197Z</time></trkpt><trkpt lat="45.569935" lon="10.749925"><ele>225.79999999999998</ele><time>2026-03-28T14:16:19.198Z</time></trkpt><trkpt lat="45.5698883" lon="10.7500217"><ele>226.39999999999998</ele><time>2026-03-28T14:16:20.198Z</time></trkpt><trkpt lat="45.5698317" lon="10.7501783"><ele>227.0</ele><time>2026-03-28T14:16:22.197Z</time></trkpt><trkpt lat="45.5697867" lon="10.7503033"><ele>227.0</ele><time>2026-03-28T14:16:24.198Z</time></trkpt><trkpt lat="45.5697067" lon="10.7502767"><ele>227.0</ele><time>2026-03-28T14:16:28.198Z</time></trkpt><trkpt lat="45.5696517" lon="10.7500767"><ele>227.0</ele><time>2026-03-28T14:16:30.197Z</time></trkpt><trkpt lat="45.56962" lon="10.7499383"><ele>227.0</ele><time>2026-03-28T14:16:31.198Z</time></trkpt><trkpt lat="45.5695867" lon="10.74979"><ele>227.0</ele><time>2026-03-28T14:16:32.198Z</time></trkpt><trkpt lat="45.5695467" lon="10.749635"><ele>226.75</ele><time>2026-03-28T14:16:33.197Z</time></trkpt><trkpt lat="45.5695067" lon="10.7494617"><ele>226.5</ele><time>2026-03-28T14:16:34.198Z</time></trkpt><trkpt lat="45.569475" lon="10.7492683"><ele>226.25</ele><time>2026-03-28T14:16:35.197Z</time></trkpt><trkpt lat="45.56945" lon="10.7490717"><ele>226.0</ele><time>2026-03-28T14:16:36.198Z</time></trkpt><trkpt lat="45.5694317" lon="10.74889"><ele>226.0</ele><time>2026-03-28T14:16:37.197Z</time></trkpt><trkpt lat="45.5694133" lon="10.7487267"><ele>226.00000000000003</ele><time>2026-03-28T14:16:38.197Z</time></trkpt><trkpt lat="45.569395" lon="10.7485767"><ele>226.00000000000003</ele><time>2026-03-28T14:16:39.197Z</time></trkpt><trkpt lat="45.569385" lon="10.7484517"><ele>226.0</ele><time>2026-03-28T14:16:40.198Z</time></trkpt><trkpt lat="45.56939" lon="10.7482967"><ele>226.0</ele><time>2026-03-28T14:16:42.198Z</time></trkpt><trkpt lat="45.56937" lon="10.7481933"><ele>225.8</ele><time>2026-03-28T14:16:44.198Z</time></trkpt><trkpt lat="45.5692633" lon="10.74814"><ele>225.60000000000002</ele><time>2026-03-28T14:16:46.197Z</time></trkpt><trkpt lat="45.569185" lon="10.748085"><ele>225.4</ele><time>2026-03-28T14:16:47.198Z</time></trkpt><trkpt lat="45.5691017" lon="10.7480033"><ele>225.2</ele><time>2026-03-28T14:16:48.197Z</time></trkpt><trkpt lat="45.569015" lon="10.7478967"><ele>225.0</ele><time>2026-03-28T14:16:49.198Z</time></trkpt><trkpt lat="45.5689267" lon="10.74778"><ele>225.2</ele><time>2026-03-28T14:16:50.198Z</time></trkpt><trkpt lat="45.5688417" lon="10.7476733"><ele>225.4</ele><time>2026-03-28T14:16:51.197Z</time></trkpt><trkpt lat="45.5687633" lon="10.7475733"><ele>225.60000000000002</ele><time>2026-03-28T14:16:52.197Z</time></trkpt><trkpt lat="45.568675" lon="10.7475017"><ele>225.8</ele><time>2026-03-28T14:16:53.197Z</time></trkpt><trkpt lat="45.5685733" lon="10.7474383"><ele>226.0</ele><time>2026-03-28T14:16:54.198Z</time></trkpt><trkpt lat="45.5684633" lon="10.7473833"><ele>227.0</ele><time>2026-03-28T14:16:55.198Z</time></trkpt><trkpt lat="45.5683533" lon="10.7473417"><ele>228.00000000000003</ele><time>2026-03-28T14:16:56.197Z</time></trkpt><trkpt lat="45.56824" lon="10.7473133"><ele>229.00000000000003</ele><time>2026-03-28T14:16:57.197Z</time></trkpt><trkpt lat="45.5681283" lon="10.747305"><ele>230.0</ele><time>2026-03-28T14:16:58.197Z</time></trkpt><trkpt lat="45.5680317" lon="10.7473017"><ele>231.0</ele><time>2026-03-28T14:16:59.197Z</time></trkpt><trkpt lat="45.567935" lon="10.7473133"><ele>232.0</ele><time>2026-03-28T14:17:00.197Z</time></trkpt><trkpt lat="45.5678417" lon="10.7473367"><ele>233.00000000000003</ele><time>2026-03-28T14:17:01.197Z</time></trkpt><trkpt lat="45.56774" lon="10.7473583"><ele>234.00000000000003</ele><time>2026-03-28T14:17:02.197Z</time></trkpt><trkpt lat="45.5676367" lon="10.7473667"><ele>235.0</ele><time>2026-03-28T14:17:03.197Z</time></trkpt><trkpt lat="45.56753" lon="10.7473633"><ele>236.0</ele><time>2026-03-28T14:17:04.197Z</time></trkpt><trkpt lat="45.5674267" lon="10.747375"><ele>236.0</ele><time>2026-03-28T14:17:05.197Z</time></trkpt><trkpt lat="45.56733" lon="10.7473967"><ele>236.00000000000003</ele><time>2026-03-28T14:17:06.198Z</time></trkpt><trkpt lat="45.5672267" lon="10.7474233"><ele>236.00000000000003</ele><time>2026-03-28T14:17:07.197Z</time></trkpt><trkpt lat="45.5671267" lon="10.7474267"><ele>236.0</ele><time>2026-03-28T14:17:08.197Z</time></trkpt><trkpt lat="45.5670367" lon="10.747405"><ele>236.0</ele><time>2026-03-28T14:17:09.198Z</time></trkpt><trkpt lat="45.566955" lon="10.74739"><ele>237.71428571428572</ele><time>2026-03-28T14:17:10.198Z</time></trkpt><trkpt lat="45.5668783" lon="10.74738"><ele>239.42857142857144</ele><time>2026-03-28T14:17:11.197Z</time></trkpt><trkpt lat="45.5668083" lon="10.7473917"><ele>241.14285714285717</ele><time>2026-03-28T14:17:12.197Z</time></trkpt><trkpt lat="45.5667383" lon="10.7474183"><ele>242.85714285714286</ele><time>2026-03-28T14:17:13.198Z</time></trkpt><trkpt lat="45.5666733" lon="10.7474583"><ele>244.5714285714286</ele><time>2026-03-28T14:17:14.198Z</time></trkpt><trkpt lat="45.5666017" lon="10.747505"><ele>246.2857142857143</ele><time>2026-03-28T14:17:15.197Z</time></trkpt><trkpt lat="45.5665367" lon="10.7475483"><ele>248.0</ele><time>2026-03-28T14:17:16.198Z</time></trkpt><trkpt lat="45.5664767" lon="10.7476017"><ele>248.0</ele><time>2026-03-28T14:17:17.197Z</time></trkpt><trkpt lat="45.5663783" lon="10.74771"><ele>248.0</ele><time>2026-03-28T14:17:19.197Z</time></trkpt><trkpt lat="45.56633" lon="10.7478733"><ele>248.0</ele><time>2026-03-28T14:17:21.197Z</time></trkpt><trkpt lat="45.5663367" lon="10.7479867"><ele>248.0</ele><time>2026-03-28T14:17:22.197Z</time></trkpt><trkpt lat="45.5663583" lon="10.7481217"><ele>248.0</ele><time>2026-03-28T14:17:23.197Z</time></trkpt><trkpt lat="45.5663983" lon="10.748275"><ele>249.5</ele><time>2026-03-28T14:17:24.197Z</time></trkpt><trkpt lat="45.5664517" lon="10.7484467"><ele>251.0</ele><time>2026-03-28T14:17:25.198Z</time></trkpt><trkpt lat="45.566505" lon="10.7486183"><ele>252.5</ele><time>2026-03-28T14:17:26.197Z</time></trkpt><trkpt lat="45.5665633" lon="10.7487633"><ele>254.0</ele><time>2026-03-28T14:17:27.197Z</time></trkpt><trkpt lat="45.5666083" lon="10.7488933"><ele>256.59999999999997</ele><time>2026-03-28T14:17:28.197Z</time></trkpt><trkpt lat="45.5666483" lon="10.74901"><ele>259.2</ele><time>2026-03-28T14:17:29.197Z</time></trkpt><trkpt lat="45.5666817" lon="10.749115"><ele>261.79999999999995</ele><time>2026-03-28T14:17:30.197Z</time></trkpt><trkpt lat="45.566705" lon="10.7492"><ele>264.4</ele><time>2026-03-28T14:17:31.198Z</time></trkpt><trkpt lat="45.566705" lon="10.7493633"><ele>267.0</ele><time>2026-03-28T14:17:33.197Z</time></trkpt><trkpt lat="45.566645" lon="10.749515"><ele>268.0</ele><time>2026-03-28T14:17:35.198Z</time></trkpt><trkpt lat="45.56659" lon="10.749605"><ele>269.0</ele><time>2026-03-28T14:17:36.198Z</time></trkpt><trkpt lat="45.566515" lon="10.7496767"><ele>270.0</ele><time>2026-03-28T14:17:37.197Z</time></trkpt><trkpt lat="45.5664367" lon="10.7497533"><ele>271.0</ele><time>2026-03-28T14:17:38.197Z</time></trkpt><trkpt lat="45.566355" lon="10.74983"><ele>272.0</ele><time>2026-03-28T14:17:39.197Z</time></trkpt><trkpt lat="45.5662683" lon="10.7499133"><ele>272.2</ele><time>2026-03-28T14:17:40.198Z</time></trkpt><trkpt lat="45.5661783" lon="10.7499983"><ele>272.4</ele><time>2026-03-28T14:17:41.198Z</time></trkpt><trkpt lat="45.5660867" lon="10.7500833"><ele>272.6</ele><time>2026-03-28T14:17:42.197Z</time></trkpt><trkpt lat="45.5659933" lon="10.7501733"><ele>272.8</ele><time>2026-03-28T14:17:43.197Z</time></trkpt><trkpt lat="45.5658917" lon="10.75026"><ele>273.0</ele><time>2026-03-28T14:17:44.197Z</time></trkpt><trkpt lat="45.5658" lon="10.7503433"><ele>273.0</ele><time>2026-03-28T14:17:45.197Z</time></trkpt><trkpt lat="45.5657067" lon="10.7504317"><ele>273.0</ele><time>2026-03-28T14:17:46.197Z</time></trkpt><trkpt lat="45.565615" lon="10.7505167"><ele>273.0</ele><time>2026-03-28T14:17:47.197Z</time></trkpt><trkpt lat="45.5655317" lon="10.750595"><ele>273.0</ele><time>2026-03-28T14:17:48.198Z</time></trkpt><trkpt lat="45.56544" lon="10.7506917"><ele>273.0</ele><time>2026-03-28T14:17:49.198Z</time></trkpt><trkpt lat="45.56533" lon="10.750765"><ele>273.4</ele><time>2026-03-28T14:17:50.197Z</time></trkpt><trkpt lat="45.5652233" lon="10.75082"><ele>273.8</ele><time>2026-03-28T14:17:51.198Z</time></trkpt><trkpt lat="45.5651467" lon="10.7508717"><ele>274.2</ele><time>2026-03-28T14:17:52.197Z</time></trkpt><trkpt lat="45.56504" lon="10.750915"><ele>274.6</ele><time>2026-03-28T14:17:53.197Z</time></trkpt><trkpt lat="45.5649533" lon="10.7509817"><ele>275.0</ele><time>2026-03-28T14:17:54.197Z</time></trkpt><trkpt lat="45.5648733" lon="10.7510783"><ele>275.2</ele><time>2026-03-28T14:17:55.198Z</time></trkpt><trkpt lat="45.56481" lon="10.7512033"><ele>275.4</ele><time>2026-03-28T14:17:56.197Z</time></trkpt><trkpt lat="45.5647483" lon="10.7513133"><ele>275.6</ele><time>2026-03-28T14:17:57.197Z</time></trkpt><trkpt lat="45.5646783" lon="10.7514333"><ele>275.8</ele><time>2026-03-28T14:17:58.197Z</time></trkpt><trkpt lat="45.5645983" lon="10.751525"><ele>276.0</ele><time>2026-03-28T14:17:59.197Z</time></trkpt><trkpt lat="45.5645017" lon="10.751605"><ele>274.25</ele><time>2026-03-28T14:18:00.198Z</time></trkpt><trkpt lat="45.5643967" lon="10.7516767"><ele>272.5</ele><time>2026-03-28T14:18:01.196Z</time></trkpt><trkpt lat="45.5642817" lon="10.7517467"><ele>270.75</ele><time>2026-03-28T14:18:02.196Z</time></trkpt><trkpt lat="45.5641767" lon="10.75181"><ele>269.0</ele><time>2026-03-28T14:18:03.196Z</time></trkpt><trkpt lat="45.56408" lon="10.751865"><ele>267.6666666666667</ele><time>2026-03-28T14:18:04.197Z</time></trkpt><trkpt lat="45.563995" lon="10.7519283"><ele>266.33333333333337</ele><time>2026-03-28T14:18:05.196Z</time></trkpt><trkpt lat="45.5639267" lon="10.75199"><ele>265.0</ele><time>2026-03-28T14:18:06.197Z</time></trkpt><trkpt lat="45.5638733" lon="10.7520767"><ele>263.6666666666667</ele><time>2026-03-28T14:18:07.196Z</time></trkpt><trkpt lat="45.5638367" lon="10.7521633"><ele>262.3333333333333</ele><time>2026-03-28T14:18:08.196Z</time></trkpt><trkpt lat="45.56382" lon="10.7522783"><ele>261.0</ele><time>2026-03-28T14:18:09.197Z</time></trkpt><trkpt lat="45.5638283" lon="10.7524167"><ele>261.0</ele><time>2026-03-28T14:18:10.197Z</time></trkpt><trkpt lat="45.563855" lon="10.75259"><ele>261.0</ele><time>2026-03-28T14:18:11.196Z</time></trkpt><trkpt lat="45.5639033" lon="10.75278"><ele>261.0</ele><time>2026-03-28T14:18:12.197Z</time></trkpt><trkpt lat="45.5639383" lon="10.752945"><ele>261.0</ele><time>2026-03-28T14:18:13.196Z</time></trkpt><trkpt lat="45.5639617" lon="10.7530517"><ele>260.1666666666667</ele><time>2026-03-28T14:18:14.196Z</time></trkpt><trkpt lat="45.563975" lon="10.75314"><ele>259.3333333333333</ele><time>2026-03-28T14:18:15.196Z</time></trkpt><trkpt lat="45.563935" lon="10.75325"><ele>258.5</ele><time>2026-03-28T14:18:17.197Z</time></trkpt><trkpt lat="45.56389" lon="10.7531567"><ele>257.66666666666663</ele><time>2026-03-28T14:18:19.197Z</time></trkpt><trkpt lat="45.56387" lon="10.75306"><ele>256.8333333333333</ele><time>2026-03-28T14:18:20.196Z</time></trkpt><trkpt lat="45.5638583" lon="10.7529167"><ele>256.0</ele><time>2026-03-28T14:18:21.197Z</time></trkpt><trkpt lat="45.5638467" lon="10.752775"><ele>256.8333333333333</ele><time>2026-03-28T14:18:22.196Z</time></trkpt><trkpt lat="45.56382" lon="10.7526733"><ele>257.66666666666663</ele><time>2026-03-28T14:18:23.197Z</time></trkpt><trkpt lat="45.56376" lon="10.7526117"><ele>258.5</ele><time>2026-03-28T14:18:26.196Z</time></trkpt><trkpt lat="45.5636917" lon="10.7527617"><ele>259.3333333333333</ele><time>2026-03-28T14:18:28.196Z</time></trkpt><trkpt lat="45.5636633" lon="10.75288"><ele>260.1666666666667</ele><time>2026-03-28T14:18:29.197Z</time></trkpt><trkpt lat="45.5636233" lon="10.7529883"><ele>261.0</ele><time>2026-03-28T14:18:30.196Z</time></trkpt><trkpt lat="45.5635917" lon="10.7530717"><ele>259.42857142857144</ele><time>2026-03-28T14:18:31.196Z</time></trkpt><trkpt lat="45.5635617" lon="10.7531617"><ele>257.85714285714283</ele><time>2026-03-28T14:18:32.197Z</time></trkpt><trkpt lat="45.5635383" lon="10.7532467"><ele>256.2857142857143</ele><time>2026-03-28T14:18:33.196Z</time></trkpt><trkpt lat="45.5635283" lon="10.75335"><ele>254.71428571428572</ele><time>2026-03-28T14:18:34.197Z</time></trkpt><trkpt lat="45.563525" lon="10.7534583"><ele>253.14285714285717</ele><time>2026-03-28T14:18:35.197Z</time></trkpt><trkpt lat="45.563525" lon="10.7535483"><ele>251.57142857142856</ele><time>2026-03-28T14:18:36.196Z</time></trkpt><trkpt lat="45.563525" lon="10.753675"><ele>250.0</ele><time>2026-03-28T14:18:38.197Z</time></trkpt><trkpt lat="45.5635167" lon="10.7538083"><ele>250.0</ele><time>2026-03-28T14:18:41.197Z</time></trkpt><trkpt lat="45.563525" lon="10.7539017"><ele>250.0</ele><time>2026-03-28T14:18:44.197Z</time></trkpt><trkpt lat="45.5635767" lon="10.7537967"><ele>250.0</ele><time>2026-03-28T14:18:48.196Z</time></trkpt><trkpt lat="45.5635867" lon="10.7536217"><ele>250.0</ele><time>2026-03-28T14:18:50.196Z</time></trkpt><trkpt lat="45.563585" lon="10.75353"><ele>250.0</ele><time>2026-03-28T14:18:51.197Z</time></trkpt><trkpt lat="45.5635817" lon="10.7533767"><ele>250.0</ele><time>2026-03-28T14:18:53.197Z</time></trkpt><trkpt lat="45.5635517" lon="10.7532667"><ele>250.0</ele><time>2026-03-28T14:18:55.196Z</time></trkpt><trkpt lat="45.5634383" lon="10.753305"><ele>250.0</ele><time>2026-03-28T14:18:58.196Z</time></trkpt><trkpt lat="45.5633617" lon="10.753395"><ele>250.0</ele><time>2026-03-28T14:18:59.197Z</time></trkpt><trkpt lat="45.56327" lon="10.75349"><ele>250.0</ele><time>2026-03-28T14:19:00.196Z</time></trkpt><trkpt lat="45.5631567" lon="10.7535767"><ele>247.4</ele><time>2026-03-28T14:19:01.197Z</time></trkpt><trkpt lat="45.5630333" lon="10.7536483"><ele>244.8</ele><time>2026-03-28T14:19:02.196Z</time></trkpt><trkpt lat="45.5629233" lon="10.753695"><ele>242.2</ele><time>2026-03-28T14:19:03.196Z</time></trkpt><trkpt lat="45.56283" lon="10.7537017"><ele>239.6</ele><time>2026-03-28T14:19:04.197Z</time></trkpt><trkpt lat="45.562735" lon="10.7536783"><ele>237.0</ele><time>2026-03-28T14:19:05.196Z</time></trkpt><trkpt lat="45.5626317" lon="10.7536483"><ele>236.2</ele><time>2026-03-28T14:19:06.197Z</time></trkpt><trkpt lat="45.5625333" lon="10.7536167"><ele>235.39999999999998</ele><time>2026-03-28T14:19:07.196Z</time></trkpt><trkpt lat="45.5624383" lon="10.7535833"><ele>234.60000000000002</ele><time>2026-03-28T14:19:08.196Z</time></trkpt><trkpt lat="45.562345" lon="10.7535567"><ele>233.8</ele><time>2026-03-28T14:19:09.197Z</time></trkpt><trkpt lat="45.5622483" lon="10.753545"><ele>233.0</ele><time>2026-03-28T14:19:10.196Z</time></trkpt><trkpt lat="45.56215" lon="10.7535417"><ele>233.0</ele><time>2026-03-28T14:19:11.197Z</time></trkpt><trkpt lat="45.5620517" lon="10.7535483"><ele>233.0</ele><time>2026-03-28T14:19:12.197Z</time></trkpt><trkpt lat="45.5619567" lon="10.7535583"><ele>233.0</ele><time>2026-03-28T14:19:13.197Z</time></trkpt><trkpt lat="45.5618683" lon="10.7535567"><ele>233.0</ele><time>2026-03-28T14:19:14.196Z</time></trkpt><trkpt lat="45.5617833" lon="10.75356"><ele>233.0</ele><time>2026-03-28T14:19:15.197Z</time></trkpt><trkpt lat="45.561695" lon="10.753545"><ele>235.8</ele><time>2026-03-28T14:19:16.196Z</time></trkpt><trkpt lat="45.5616" lon="10.7535133"><ele>238.60000000000002</ele><time>2026-03-28T14:19:17.197Z</time></trkpt><trkpt lat="45.5615067" lon="10.7534667"><ele>241.39999999999998</ele><time>2026-03-28T14:19:18.196Z</time></trkpt><trkpt lat="45.56142" lon="10.7534067"><ele>244.2</ele><time>2026-03-28T14:19:19.196Z</time></trkpt><trkpt lat="45.5613417" lon="10.753335"><ele>247.0</ele><time>2026-03-28T14:19:20.196Z</time></trkpt><trkpt lat="45.5612717" lon="10.7532633"><ele>244.8</ele><time>2026-03-28T14:19:21.197Z</time></trkpt><trkpt lat="45.5611933" lon="10.7532"><ele>242.6</ele><time>2026-03-28T14:19:22.197Z</time></trkpt><trkpt lat="45.5611017" lon="10.7531617"><ele>240.40000000000003</ele><time>2026-03-28T14:19:23.197Z</time></trkpt><trkpt lat="45.5610033" lon="10.7531167"><ele>238.20000000000002</ele><time>2026-03-28T14:19:24.197Z</time></trkpt><trkpt lat="45.560905" lon="10.75308"><ele>236.0</ele><time>2026-03-28T14:19:25.196Z</time></trkpt><trkpt lat="45.5608133" lon="10.7530433"><ele>236.0</ele><time>2026-03-28T14:19:26.196Z</time></trkpt><trkpt lat="45.5607183" lon="10.7530167"><ele>236.00000000000003</ele><time>2026-03-28T14:19:27.196Z</time></trkpt><trkpt lat="45.5606233" lon="10.7530017"><ele>236.00000000000003</ele><time>2026-03-28T14:19:28.197Z</time></trkpt><trkpt lat="45.5605183" lon="10.7530067"><ele>236.0</ele><time>2026-03-28T14:19:29.196Z</time></trkpt><trkpt lat="45.560415" lon="10.7529933"><ele>236.0</ele><time>2026-03-28T14:19:30.196Z</time></trkpt><trkpt lat="45.5602933" lon="10.7529883"><ele>234.75</ele><time>2026-03-28T14:19:31.196Z</time></trkpt><trkpt lat="45.5601733" lon="10.7529633"><ele>233.5</ele><time>2026-03-28T14:19:32.196Z</time></trkpt><trkpt lat="45.5600567" lon="10.7529233"><ele>232.25</ele><time>2026-03-28T14:19:33.196Z</time></trkpt><trkpt lat="45.55995" lon="10.7528533"><ele>231.0</ele><time>2026-03-28T14:19:34.196Z</time></trkpt><trkpt lat="45.559835" lon="10.75279"><ele>231.0</ele><time>2026-03-28T14:19:35.197Z</time></trkpt><trkpt lat="45.5597283" lon="10.75271"><ele>231.0</ele><time>2026-03-28T14:19:36.197Z</time></trkpt><trkpt lat="45.55962" lon="10.7526283"><ele>231.0</ele><time>2026-03-28T14:19:37.196Z</time></trkpt><trkpt lat="45.5595217" lon="10.7525417"><ele>231.0</ele><time>2026-03-28T14:19:38.196Z</time></trkpt><trkpt lat="45.55942" lon="10.7524517"><ele>232.0</ele><time>2026-03-28T14:19:39.197Z</time></trkpt><trkpt lat="45.5593333" lon="10.752345"><ele>233.0</ele><time>2026-03-28T14:19:40.196Z</time></trkpt><trkpt lat="45.5592367" lon="10.75225"><ele>234.0</ele><time>2026-03-28T14:19:41.196Z</time></trkpt><trkpt lat="45.55915" lon="10.7521467"><ele>235.0</ele><time>2026-03-28T14:19:42.196Z</time></trkpt><trkpt lat="45.5590533" lon="10.752055"><ele>235.0</ele><time>2026-03-28T14:19:43.196Z</time></trkpt><trkpt lat="45.5589467" lon="10.751975"><ele>235.0</ele><time>2026-03-28T14:19:44.196Z</time></trkpt><trkpt lat="45.5588383" lon="10.7519"><ele>235.0</ele><time>2026-03-28T14:19:45.196Z</time></trkpt><trkpt lat="45.55874" lon="10.75182"><ele>235.0</ele><time>2026-03-28T14:19:46.196Z</time></trkpt><trkpt lat="45.5586567" lon="10.75173"><ele>235.6</ele><time>2026-03-28T14:19:47.196Z</time></trkpt><trkpt lat="45.558575" lon="10.7516533"><ele>236.2</ele><time>2026-03-28T14:19:48.197Z</time></trkpt><trkpt lat="45.5584883" lon="10.7515717"><ele>236.8</ele><time>2026-03-28T14:19:49.196Z</time></trkpt><trkpt lat="45.5583967" lon="10.7514933"><ele>237.4</ele><time>2026-03-28T14:19:50.197Z</time></trkpt><trkpt lat="45.5582883" lon="10.7514183"><ele>238.0</ele><time>2026-03-28T14:19:51.196Z</time></trkpt><trkpt lat="45.558185" lon="10.751355"><ele>238.0</ele><time>2026-03-28T14:19:52.196Z</time></trkpt><trkpt lat="45.5580783" lon="10.7512983"><ele>238.0</ele><time>2026-03-28T14:19:53.196Z</time></trkpt><trkpt lat="45.5579717" lon="10.7512433"><ele>238.0</ele><time>2026-03-28T14:19:54.196Z</time></trkpt><trkpt lat="45.5578617" lon="10.7512033"><ele>238.0</ele><time>2026-03-28T14:19:55.196Z</time></trkpt><trkpt lat="45.55775" lon="10.7511733"><ele>236.5</ele><time>2026-03-28T14:19:56.196Z</time></trkpt><trkpt lat="45.5576417" lon="10.75114"><ele>235.0</ele><time>2026-03-28T14:19:57.196Z</time></trkpt><trkpt lat="45.5575317" lon="10.7511283"><ele>233.5</ele><time>2026-03-28T14:19:58.197Z</time></trkpt><trkpt lat="45.557415" lon="10.751135"><ele>232.0</ele><time>2026-03-28T14:19:59.196Z</time></trkpt><trkpt lat="45.5573017" lon="10.7511533"><ele>232.0</ele><time>2026-03-28T14:20:00.196Z</time></trkpt><trkpt lat="45.5571833" lon="10.7511833"><ele>232.0</ele><time>2026-03-28T14:20:01.197Z</time></trkpt><trkpt lat="45.55706" lon="10.751205"><ele>232.0</ele><time>2026-03-28T14:20:02.197Z</time></trkpt><trkpt lat="45.5569367" lon="10.7512367"><ele>232.0</ele><time>2026-03-28T14:20:03.196Z</time></trkpt><trkpt lat="45.5568183" lon="10.7512567"><ele>232.6</ele><time>2026-03-28T14:20:04.196Z</time></trkpt><trkpt lat="45.5567067" lon="10.7512567"><ele>233.2</ele><time>2026-03-28T14:20:05.197Z</time></trkpt><trkpt lat="45.5565983" lon="10.7512733"><ele>233.8</ele><time>2026-03-28T14:20:06.197Z</time></trkpt><trkpt lat="45.5564917" lon="10.751295"><ele>234.4</ele><time>2026-03-28T14:20:07.197Z</time></trkpt><trkpt lat="45.556395" lon="10.7513183"><ele>235.0</ele><time>2026-03-28T14:20:08.196Z</time></trkpt><trkpt lat="45.5563167" lon="10.75135"><ele>235.0</ele><time>2026-03-28T14:20:09.197Z</time></trkpt><trkpt lat="45.5562567" lon="10.75138"><ele>235.0</ele><time>2026-03-28T14:20:10.196Z</time></trkpt><trkpt lat="45.5561783" lon="10.75146"><ele>235.0</ele><time>2026-03-28T14:20:12.197Z</time></trkpt><trkpt lat="45.5560883" lon="10.751545"><ele>235.0</ele><time>2026-03-28T14:20:14.197Z</time></trkpt><trkpt lat="45.5560283" lon="10.751575"><ele>235.0</ele><time>2026-03-28T14:20:15.196Z</time></trkpt><trkpt lat="45.5559117" lon="10.751615"><ele>235.4</ele><time>2026-03-28T14:20:17.196Z</time></trkpt><trkpt lat="45.5558033" lon="10.7516283"><ele>235.8</ele><time>2026-03-28T14:20:19.197Z</time></trkpt><trkpt lat="45.5557033" lon="10.7516183"><ele>236.2</ele><time>2026-03-28T14:20:21.196Z</time></trkpt><trkpt lat="45.55562" lon="10.7515667"><ele>236.6</ele><time>2026-03-28T14:20:23.197Z</time></trkpt><trkpt lat="45.555555" lon="10.75147"><ele>237.0</ele><time>2026-03-28T14:20:25.196Z</time></trkpt><trkpt lat="45.5554917" lon="10.75133"><ele>237.0</ele><time>2026-03-28T14:20:27.196Z</time></trkpt><trkpt lat="45.5554617" lon="10.7512333"><ele>237.0</ele><time>2026-03-28T14:20:28.196Z</time></trkpt><trkpt lat="45.555425" lon="10.7511133"><ele>237.0</ele><time>2026-03-28T14:20:29.197Z</time></trkpt><trkpt lat="45.5553933" lon="10.751"><ele>237.0</ele><time>2026-03-28T14:20:30.197Z</time></trkpt><trkpt lat="45.5553683" lon="10.7508867"><ele>237.0</ele><time>2026-03-28T14:20:31.196Z</time></trkpt><trkpt lat="45.55534" lon="10.7507617"><ele>237.0</ele><time>2026-03-28T14:20:32.196Z</time></trkpt><trkpt lat="45.55531" lon="10.7506267"><ele>236.83333333333334</ele><time>2026-03-28T14:20:33.196Z</time></trkpt><trkpt lat="45.5552717" lon="10.7504833"><ele>236.66666666666669</ele><time>2026-03-28T14:20:34.196Z</time></trkpt><trkpt lat="45.5552383" lon="10.75036"><ele>236.5</ele><time>2026-03-28T14:20:35.196Z</time></trkpt><trkpt lat="45.5552133" lon="10.75027"><ele>236.33333333333334</ele><time>2026-03-28T14:20:36.197Z</time></trkpt><trkpt lat="45.55519" lon="10.7501633"><ele>236.16666666666669</ele><time>2026-03-28T14:20:38.197Z</time></trkpt><trkpt lat="45.5551683" lon="10.7500667"><ele>236.0</ele><time>2026-03-28T14:20:42.196Z</time></trkpt><trkpt lat="45.5551633" lon="10.7501667"><ele>236.0</ele><time>2026-03-28T14:20:47.196Z</time></trkpt><trkpt lat="45.5552233" lon="10.7503217"><ele>236.0</ele><time>2026-03-28T14:20:49.196Z</time></trkpt><trkpt lat="45.555255" lon="10.7504567"><ele>236.0</ele><time>2026-03-28T14:20:50.196Z</time></trkpt><trkpt lat="45.5552967" lon="10.7506333"><ele>236.0</ele><time>2026-03-28T14:20:51.196Z</time></trkpt><trkpt lat="45.5553483" lon="10.750835"><ele>236.20000000000002</ele><time>2026-03-28T14:20:52.196Z</time></trkpt><trkpt lat="45.5553883" lon="10.751015"><ele>236.40000000000003</ele><time>2026-03-28T14:20:53.196Z</time></trkpt><trkpt lat="45.5554183" lon="10.751145"><ele>236.6</ele><time>2026-03-28T14:20:54.196Z</time></trkpt><trkpt lat="45.55545" lon="10.7512333"><ele>236.8</ele><time>2026-03-28T14:20:55.196Z</time></trkpt><trkpt lat="45.5555133" lon="10.7512817"><ele>237.0</ele><time>2026-03-28T14:20:57.197Z</time></trkpt><trkpt lat="45.5555933" lon="10.75123"><ele>237.0</ele><time>2026-03-28T14:20:59.196Z</time></trkpt><trkpt lat="45.55566" lon="10.75113"><ele>237.0</ele><time>2026-03-28T14:21:01.197Z</time></trkpt><trkpt lat="45.5556967" lon="10.7510283"><ele>237.0</ele><time>2026-03-28T14:21:03.196Z</time></trkpt><trkpt lat="45.5557083" lon="10.7509"><ele>237.0</ele><time>2026-03-28T14:21:05.197Z</time></trkpt><trkpt lat="45.5557233" lon="10.7507467"><ele>237.0</ele><time>2026-03-28T14:21:07.196Z</time></trkpt><trkpt lat="45.555755" lon="10.7505733"><ele>237.66666666666666</ele><time>2026-03-28T14:21:09.197Z</time></trkpt><trkpt lat="45.5557683" lon="10.7504783"><ele>238.33333333333331</ele><time>2026-03-28T14:21:10.197Z</time></trkpt><trkpt lat="45.5557817" lon="10.75038"><ele>239.0</ele><time>2026-03-28T14:21:11.196Z</time></trkpt><trkpt lat="45.555795" lon="10.75029"><ele>239.66666666666666</ele><time>2026-03-28T14:21:12.197Z</time></trkpt><trkpt lat="45.5558083" lon="10.7501983"><ele>240.33333333333331</ele><time>2026-03-28T14:21:13.196Z</time></trkpt><trkpt lat="45.5558233" lon="10.750105"><ele>241.0</ele><time>2026-03-28T14:21:14.196Z</time></trkpt><trkpt lat="45.5558583" lon="10.7499283"><ele>241.0</ele><time>2026-03-28T14:21:16.196Z</time></trkpt><trkpt lat="45.5558917" lon="10.74981"><ele>241.00000000000003</ele><time>2026-03-28T14:21:17.197Z</time></trkpt><trkpt lat="45.5559383" lon="10.7496767"><ele>241.00000000000003</ele><time>2026-03-28T14:21:18.196Z</time></trkpt><trkpt lat="45.5559917" lon="10.7495383"><ele>241.0</ele><time>2026-03-28T14:21:19.196Z</time></trkpt><trkpt lat="45.556055" lon="10.7493933"><ele>241.0</ele><time>2026-03-28T14:21:20.197Z</time></trkpt><trkpt lat="45.55612" lon="10.7492417"><ele>240.25</ele><time>2026-03-28T14:21:21.196Z</time></trkpt><trkpt lat="45.5561817" lon="10.749085"><ele>239.5</ele><time>2026-03-28T14:21:22.196Z</time></trkpt><trkpt lat="45.556235" lon="10.7489267"><ele>238.75</ele><time>2026-03-28T14:21:23.196Z</time></trkpt><trkpt lat="45.5562833" lon="10.748755"><ele>238.0</ele><time>2026-03-28T14:21:24.196Z</time></trkpt><trkpt lat="45.5563333" lon="10.7485967"><ele>241.0</ele><time>2026-03-28T14:21:25.196Z</time></trkpt><trkpt lat="45.55638" lon="10.74844"><ele>244.0</ele><time>2026-03-28T14:21:26.197Z</time></trkpt><trkpt lat="45.5564183" lon="10.74829"><ele>247.0</ele><time>2026-03-28T14:21:27.196Z</time></trkpt><trkpt lat="45.5564567" lon="10.7481333"><ele>250.0</ele><time>2026-03-28T14:21:28.196Z</time></trkpt><trkpt lat="45.5564967" lon="10.7479817"><ele>250.0</ele><time>2026-03-28T14:21:29.196Z</time></trkpt><trkpt lat="45.5565417" lon="10.74783"><ele>250.0</ele><time>2026-03-28T14:21:30.197Z</time></trkpt><trkpt lat="45.5566033" lon="10.747685"><ele>250.0</ele><time>2026-03-28T14:21:31.196Z</time></trkpt><trkpt lat="45.556675" lon="10.7475383"><ele>250.0</ele><time>2026-03-28T14:21:32.197Z</time></trkpt><trkpt lat="45.5567517" lon="10.74741"><ele>248.6</ele><time>2026-03-28T14:21:33.197Z</time></trkpt><trkpt lat="45.5568183" lon="10.7472917"><ele>247.2</ele><time>2026-03-28T14:21:34.196Z</time></trkpt><trkpt lat="45.5568667" lon="10.7471933"><ele>245.8</ele><time>2026-03-28T14:21:35.196Z</time></trkpt><trkpt lat="45.5569167" lon="10.7471233"><ele>244.4</ele><time>2026-03-28T14:21:36.197Z</time></trkpt><trkpt lat="45.557025" lon="10.7470467"><ele>243.0</ele><time>2026-03-28T14:21:38.197Z</time></trkpt><trkpt lat="45.5570933" lon="10.7470117"><ele>244.60000000000002</ele><time>2026-03-28T14:21:39.196Z</time></trkpt><trkpt lat="45.557165" lon="10.7469667"><ele>246.20000000000002</ele><time>2026-03-28T14:21:40.197Z</time></trkpt><trkpt lat="45.5572383" lon="10.7468967"><ele>247.8</ele><time>2026-03-28T14:21:41.197Z</time></trkpt><trkpt lat="45.5573033" lon="10.7468017"><ele>249.4</ele><time>2026-03-28T14:21:42.196Z</time></trkpt><trkpt lat="45.55737" lon="10.7466983"><ele>251.0</ele><time>2026-03-28T14:21:43.196Z</time></trkpt><trkpt lat="45.5574333" lon="10.7465967"><ele>251.00000000000003</ele><time>2026-03-28T14:21:44.197Z</time></trkpt><trkpt lat="45.5574867" lon="10.74649"><ele>251.0</ele><time>2026-03-28T14:21:45.196Z</time></trkpt><trkpt lat="45.5575283" lon="10.74639"><ele>251.0</ele><time>2026-03-28T14:21:46.196Z</time></trkpt><trkpt lat="45.5575633" lon="10.7462917"><ele>251.0</ele><time>2026-03-28T14:21:47.196Z</time></trkpt><trkpt lat="45.557625" lon="10.74614"><ele>251.00000000000003</ele><time>2026-03-28T14:21:49.196Z</time></trkpt><trkpt lat="45.557665" lon="10.7460683"><ele>251.0</ele><time>2026-03-28T14:21:50.197Z</time></trkpt><trkpt lat="45.5577133" lon="10.7459967"><ele>250.66666666666669</ele><time>2026-03-28T14:21:51.197Z</time></trkpt><trkpt lat="45.5577667" lon="10.7459383"><ele>250.33333333333334</ele><time>2026-03-28T14:21:52.196Z</time></trkpt><trkpt lat="45.5578217" lon="10.74589"><ele>250.0</ele><time>2026-03-28T14:21:53.197Z</time></trkpt><trkpt lat="45.55793" lon="10.7458017"><ele>249.66666666666669</ele><time>2026-03-28T14:21:55.196Z</time></trkpt><trkpt lat="45.5580017" lon="10.7457367"><ele>249.33333333333334</ele><time>2026-03-28T14:21:56.196Z</time></trkpt><trkpt lat="45.5580767" lon="10.7456617"><ele>249.0</ele><time>2026-03-28T14:21:57.196Z</time></trkpt><trkpt lat="45.558155" lon="10.74561"><ele>250.39999999999998</ele><time>2026-03-28T14:21:58.197Z</time></trkpt><trkpt lat="45.5582383" lon="10.7455633"><ele>251.79999999999998</ele><time>2026-03-28T14:21:59.197Z</time></trkpt><trkpt lat="45.5583333" lon="10.74552"><ele>253.20000000000002</ele><time>2026-03-28T14:22:00.196Z</time></trkpt><trkpt lat="45.5584383" lon="10.745475"><ele>254.60000000000002</ele><time>2026-03-28T14:22:01.197Z</time></trkpt><trkpt lat="45.5585583" lon="10.7454333"><ele>256.0</ele><time>2026-03-28T14:22:02.196Z</time></trkpt><trkpt lat="45.558685" lon="10.7454017"><ele>255.25</ele><time>2026-03-28T14:22:03.196Z</time></trkpt><trkpt lat="45.5588133" lon="10.7453667"><ele>254.5</ele><time>2026-03-28T14:22:04.197Z</time></trkpt><trkpt lat="45.5589333" lon="10.7453183"><ele>253.75</ele><time>2026-03-28T14:22:05.196Z</time></trkpt><trkpt lat="45.55905" lon="10.7452583"><ele>253.0</ele><time>2026-03-28T14:22:06.197Z</time></trkpt><trkpt lat="45.5591717" lon="10.7451883"><ele>253.0</ele><time>2026-03-28T14:22:07.196Z</time></trkpt><trkpt lat="45.5592883" lon="10.745105"><ele>253.0</ele><time>2026-03-28T14:22:08.197Z</time></trkpt><trkpt lat="45.5594067" lon="10.74502"><ele>253.0</ele><time>2026-03-28T14:22:09.196Z</time></trkpt><trkpt lat="45.5595233" lon="10.74494"><ele>253.0</ele><time>2026-03-28T14:22:10.197Z</time></trkpt><trkpt lat="45.559635" lon="10.74486"><ele>253.2</ele><time>2026-03-28T14:22:11.196Z</time></trkpt><trkpt lat="45.5597317" lon="10.7447867"><ele>253.4</ele><time>2026-03-28T14:22:12.196Z</time></trkpt><trkpt lat="45.55982" lon="10.7447017"><ele>253.59999999999997</ele><time>2026-03-28T14:22:13.197Z</time></trkpt><trkpt lat="45.5599033" lon="10.744615"><ele>253.79999999999998</ele><time>2026-03-28T14:22:14.197Z</time></trkpt><trkpt lat="45.559995" lon="10.74453"><ele>254.0</ele><time>2026-03-28T14:22:15.196Z</time></trkpt><trkpt lat="45.56009" lon="10.7444417"><ele>253.25</ele><time>2026-03-28T14:22:16.196Z</time></trkpt><trkpt lat="45.5601883" lon="10.744345"><ele>252.5</ele><time>2026-03-28T14:22:17.196Z</time></trkpt><trkpt lat="45.5602717" lon="10.7442417"><ele>251.75</ele><time>2026-03-28T14:22:18.196Z</time></trkpt><trkpt lat="45.5603533" lon="10.74413"><ele>251.0</ele><time>2026-03-28T14:22:19.196Z</time></trkpt><trkpt lat="45.5604383" lon="10.744005"><ele>250.25</ele><time>2026-03-28T14:22:20.197Z</time></trkpt><trkpt lat="45.5605217" lon="10.7438917"><ele>249.5</ele><time>2026-03-28T14:22:21.196Z</time></trkpt><trkpt lat="45.5606117" lon="10.7437733"><ele>248.75</ele><time>2026-03-28T14:22:22.196Z</time></trkpt><trkpt lat="45.5607083" lon="10.74367"><ele>248.0</ele><time>2026-03-28T14:22:23.196Z</time></trkpt><trkpt lat="45.5608067" lon="10.7435783"><ele>248.25</ele><time>2026-03-28T14:22:24.196Z</time></trkpt><trkpt lat="45.5609067" lon="10.7435067"><ele>248.5</ele><time>2026-03-28T14:22:25.196Z</time></trkpt><trkpt lat="45.5610117" lon="10.7434483"><ele>248.75</ele><time>2026-03-28T14:22:26.196Z</time></trkpt><trkpt lat="45.5611267" lon="10.7434"><ele>249.0</ele><time>2026-03-28T14:22:27.196Z</time></trkpt><trkpt lat="45.561255" lon="10.7433583"><ele>248.0</ele><time>2026-03-28T14:22:28.196Z</time></trkpt><trkpt lat="45.56138" lon="10.7433417"><ele>247.0</ele><time>2026-03-28T14:22:29.196Z</time></trkpt><trkpt lat="45.5615083" lon="10.7433217"><ele>246.0</ele><time>2026-03-28T14:22:30.196Z</time></trkpt><trkpt lat="45.5616383" lon="10.7432833"><ele>245.0</ele><time>2026-03-28T14:22:31.196Z</time></trkpt><trkpt lat="45.56174" lon="10.7432817"><ele>245.0</ele><time>2026-03-28T14:22:32.197Z</time></trkpt><trkpt lat="45.5618667" lon="10.7432417"><ele>245.0</ele><time>2026-03-28T14:22:33.196Z</time></trkpt><trkpt lat="45.5619883" lon="10.7432117"><ele>245.0</ele><time>2026-03-28T14:22:34.196Z</time></trkpt><trkpt lat="45.562105" lon="10.74318"><ele>245.0</ele><time>2026-03-28T14:22:35.197Z</time></trkpt><trkpt lat="45.5622267" lon="10.7431433"><ele>244.4</ele><time>2026-03-28T14:22:36.197Z</time></trkpt><trkpt lat="45.5623433" lon="10.7431333"><ele>243.8</ele><time>2026-03-28T14:22:37.197Z</time></trkpt><trkpt lat="45.5624617" lon="10.74308"><ele>243.2</ele><time>2026-03-28T14:22:38.197Z</time></trkpt><trkpt lat="45.5625583" lon="10.7430417"><ele>242.6</ele><time>2026-03-28T14:22:39.196Z</time></trkpt><trkpt lat="45.5626533" lon="10.7429917"><ele>242.0</ele><time>2026-03-28T14:22:40.196Z</time></trkpt><trkpt lat="45.5627567" lon="10.7429217"><ele>241.0</ele><time>2026-03-28T14:22:41.196Z</time></trkpt><trkpt lat="45.5628767" lon="10.7428333"><ele>240.0</ele><time>2026-03-28T14:22:42.197Z</time></trkpt><trkpt lat="45.5629967" lon="10.7427517"><ele>239.0</ele><time>2026-03-28T14:22:43.196Z</time></trkpt><trkpt lat="45.5631067" lon="10.74268"><ele>238.0</ele><time>2026-03-28T14:22:44.196Z</time></trkpt><trkpt lat="45.5632033" lon="10.742625"><ele>238.0</ele><time>2026-03-28T14:22:45.196Z</time></trkpt><trkpt lat="45.5632933" lon="10.7425817"><ele>238.0</ele><time>2026-03-28T14:22:46.196Z</time></trkpt><trkpt lat="45.5633567" lon="10.7425683"><ele>238.0</ele><time>2026-03-28T14:22:47.196Z</time></trkpt><trkpt lat="45.5634233" lon="10.742655"><ele>238.0</ele><time>2026-03-28T14:22:49.197Z</time></trkpt><trkpt lat="45.5634633" lon="10.7428183"><ele>238.0</ele><time>2026-03-28T14:22:51.196Z</time></trkpt><trkpt lat="45.5634367" lon="10.74294"><ele>238.2</ele><time>2026-03-28T14:22:52.197Z</time></trkpt><trkpt lat="45.56339" lon="10.7430783"><ele>238.4</ele><time>2026-03-28T14:22:53.196Z</time></trkpt><trkpt lat="45.5633567" lon="10.743215"><ele>238.59999999999997</ele><time>2026-03-28T14:22:54.196Z</time></trkpt><trkpt lat="45.56334" lon="10.7433483"><ele>238.79999999999998</ele><time>2026-03-28T14:22:55.197Z</time></trkpt><trkpt lat="45.563345" lon="10.7434817"><ele>239.0</ele><time>2026-03-28T14:22:56.196Z</time></trkpt><trkpt lat="45.5633533" lon="10.7436167"><ele>239.0</ele><time>2026-03-28T14:22:57.196Z</time></trkpt><trkpt lat="45.5633517" lon="10.7437567"><ele>238.99999999999997</ele><time>2026-03-28T14:22:58.197Z</time></trkpt><trkpt lat="45.5633567" lon="10.7438767"><ele>238.99999999999997</ele><time>2026-03-28T14:22:59.197Z</time></trkpt><trkpt lat="45.563415" lon="10.7440367"><ele>239.0</ele><time>2026-03-28T14:23:01.196Z</time></trkpt><trkpt lat="45.5634533" lon="10.7441183"><ele>239.0</ele><time>2026-03-28T14:23:02.196Z</time></trkpt><trkpt lat="45.5635133" lon="10.7441783"><ele>239.0</ele><time>2026-03-28T14:23:03.196Z</time></trkpt><trkpt lat="45.5636067" lon="10.744215"><ele>239.0</ele><time>2026-03-28T14:23:04.196Z</time></trkpt><trkpt lat="45.563715" lon="10.74426"><ele>239.0</ele><time>2026-03-28T14:23:05.197Z</time></trkpt><trkpt lat="45.5638433" lon="10.744295"><ele>239.0</ele><time>2026-03-28T14:23:06.196Z</time></trkpt><trkpt lat="45.5639767" lon="10.74432"><ele>239.0</ele><time>2026-03-28T14:23:07.196Z</time></trkpt><trkpt lat="45.56411" lon="10.7443283"><ele>239.0</ele><time>2026-03-28T14:23:08.197Z</time></trkpt><trkpt lat="45.56424" lon="10.744325"><ele>239.0</ele><time>2026-03-28T14:23:09.197Z</time></trkpt><trkpt lat="45.564365" lon="10.7443267"><ele>239.0</ele><time>2026-03-28T14:23:10.196Z</time></trkpt><trkpt lat="45.564495" lon="10.7443283"><ele>239.75</ele><time>2026-03-28T14:23:11.196Z</time></trkpt><trkpt lat="45.56462" lon="10.7443333"><ele>240.5</ele><time>2026-03-28T14:23:12.196Z</time></trkpt><trkpt lat="45.5647417" lon="10.744345"><ele>241.25</ele><time>2026-03-28T14:23:13.196Z</time></trkpt><trkpt lat="45.5648667" lon="10.7443483"><ele>242.0</ele><time>2026-03-28T14:23:14.196Z</time></trkpt><trkpt lat="45.5649933" lon="10.7443667"><ele>242.0</ele><time>2026-03-28T14:23:15.196Z</time></trkpt><trkpt lat="45.5651183" lon="10.744375"><ele>242.0</ele><time>2026-03-28T14:23:16.196Z</time></trkpt><trkpt lat="45.5652517" lon="10.7443767"><ele>242.0</ele><time>2026-03-28T14:23:17.196Z</time></trkpt><trkpt lat="45.5653783" lon="10.7443667"><ele>242.0</ele><time>2026-03-28T14:23:18.196Z</time></trkpt><trkpt lat="45.5655" lon="10.744365"><ele>242.25</ele><time>2026-03-28T14:23:19.197Z</time></trkpt><trkpt lat="45.5656133" lon="10.74435"><ele>242.5</ele><time>2026-03-28T14:23:20.197Z</time></trkpt><trkpt lat="45.5657283" lon="10.7443217"><ele>242.75</ele><time>2026-03-28T14:23:21.196Z</time></trkpt><trkpt lat="45.5658517" lon="10.744285"><ele>243.0</ele><time>2026-03-28T14:23:22.197Z</time></trkpt><trkpt lat="45.565975" lon="10.7442433"><ele>243.0</ele><time>2026-03-28T14:23:23.196Z</time></trkpt><trkpt lat="45.5660917" lon="10.744195"><ele>243.0</ele><time>2026-03-28T14:23:24.197Z</time></trkpt><trkpt lat="45.5662067" lon="10.744155"><ele>243.0</ele><time>2026-03-28T14:23:25.196Z</time></trkpt><trkpt lat="45.5663217" lon="10.7441167"><ele>243.0</ele><time>2026-03-28T14:23:26.196Z</time></trkpt><trkpt lat="45.5664383" lon="10.7440817"><ele>244.0</ele><time>2026-03-28T14:23:27.196Z</time></trkpt><trkpt lat="45.56656" lon="10.7440533"><ele>245.0</ele><time>2026-03-28T14:23:28.197Z</time></trkpt><trkpt lat="45.5666817" lon="10.7440283"><ele>246.0</ele><time>2026-03-28T14:23:29.196Z</time></trkpt><trkpt lat="45.5668117" lon="10.744025"><ele>247.0</ele><time>2026-03-28T14:23:30.197Z</time></trkpt><trkpt lat="45.566935" lon="10.7440317"><ele>247.5</ele><time>2026-03-28T14:23:31.197Z</time></trkpt><trkpt lat="45.5670483" lon="10.744035"><ele>248.0</ele><time>2026-03-28T14:23:32.196Z</time></trkpt><trkpt lat="45.567165" lon="10.7440433"><ele>248.5</ele><time>2026-03-28T14:23:33.196Z</time></trkpt><trkpt lat="45.56728" lon="10.74407"><ele>249.0</ele><time>2026-03-28T14:23:34.196Z</time></trkpt><trkpt lat="45.5673917" lon="10.7441133"><ele>249.0</ele><time>2026-03-28T14:23:35.196Z</time></trkpt><trkpt lat="45.5674917" lon="10.7441617"><ele>248.99999999999997</ele><time>2026-03-28T14:23:36.196Z</time></trkpt><trkpt lat="45.5675917" lon="10.7442133"><ele>248.99999999999997</ele><time>2026-03-28T14:23:37.196Z</time></trkpt><trkpt lat="45.5676717" lon="10.7442417"><ele>249.0</ele><time>2026-03-28T14:23:38.196Z</time></trkpt><trkpt lat="45.5677667" lon="10.744265"><ele>249.0</ele><time>2026-03-28T14:23:40.196Z</time></trkpt><trkpt lat="45.5678183" lon="10.74418"><ele>249.0</ele><time>2026-03-28T14:23:43.196Z</time></trkpt><trkpt lat="45.5678017" lon="10.7440583"><ele>248.99999999999997</ele><time>2026-03-28T14:23:45.197Z</time></trkpt><trkpt lat="45.5677917" lon="10.743965"><ele>248.99999999999997</ele><time>2026-03-28T14:23:46.196Z</time></trkpt><trkpt lat="45.5677783" lon="10.743835"><ele>249.0</ele><time>2026-03-28T14:23:47.196Z</time></trkpt><trkpt lat="45.5677567" lon="10.74369"><ele>249.0</ele><time>2026-03-28T14:23:48.196Z</time></trkpt><trkpt lat="45.5677333" lon="10.7435317"><ele>248.79999999999998</ele><time>2026-03-28T14:23:49.196Z</time></trkpt><trkpt lat="45.5677167" lon="10.74338"><ele>248.59999999999997</ele><time>2026-03-28T14:23:50.196Z</time></trkpt><trkpt lat="45.5677067" lon="10.7432567"><ele>248.4</ele><time>2026-03-28T14:23:51.196Z</time></trkpt><trkpt lat="45.5676883" lon="10.74316"><ele>248.2</ele><time>2026-03-28T14:23:52.196Z</time></trkpt><trkpt lat="45.5676367" lon="10.7430083"><ele>248.0</ele><time>2026-03-28T14:23:54.195Z</time></trkpt><trkpt lat="45.5676183" lon="10.7428467"><ele>247.2</ele><time>2026-03-28T14:23:56.196Z</time></trkpt><trkpt lat="45.5676517" lon="10.7426867"><ele>246.4</ele><time>2026-03-28T14:23:58.196Z</time></trkpt><trkpt lat="45.5676683" lon="10.74259"><ele>245.59999999999997</ele><time>2026-03-28T14:23:59.196Z</time></trkpt><trkpt lat="45.5676833" lon="10.7424817"><ele>244.79999999999998</ele><time>2026-03-28T14:24:00.196Z</time></trkpt><trkpt lat="45.5677317" lon="10.7423017"><ele>244.0</ele><time>2026-03-28T14:24:02.195Z</time></trkpt><trkpt lat="45.5677617" lon="10.7422167"><ele>243.99999999999997</ele><time>2026-03-28T14:24:03.196Z</time></trkpt><trkpt lat="45.5678" lon="10.742115"><ele>244.0</ele><time>2026-03-28T14:24:04.195Z</time></trkpt><trkpt lat="45.5678517" lon="10.7419983"><ele>244.0</ele><time>2026-03-28T14:24:05.195Z</time></trkpt><trkpt lat="45.56791" lon="10.74189"><ele>244.0</ele><time>2026-03-28T14:24:06.195Z</time></trkpt><trkpt lat="45.5679667" lon="10.7417833"><ele>243.99999999999997</ele><time>2026-03-28T14:24:07.195Z</time></trkpt><trkpt lat="45.5680167" lon="10.74169"><ele>244.0</ele><time>2026-03-28T14:24:08.195Z</time></trkpt><trkpt lat="45.568055" lon="10.7416033"><ele>243.57142857142856</ele><time>2026-03-28T14:24:09.195Z</time></trkpt><trkpt lat="45.568075" lon="10.7415167"><ele>243.14285714285714</ele><time>2026-03-28T14:24:10.196Z</time></trkpt><trkpt lat="45.5680817" lon="10.741425"><ele>242.71428571428572</ele><time>2026-03-28T14:24:11.195Z</time></trkpt><trkpt lat="45.568075" lon="10.7413217"><ele>242.28571428571428</ele><time>2026-03-28T14:24:12.195Z</time></trkpt><trkpt lat="45.56806" lon="10.74121"><ele>241.8571428571429</ele><time>2026-03-28T14:24:13.196Z</time></trkpt><trkpt lat="45.5680233" lon="10.7411083"><ele>241.42857142857144</ele><time>2026-03-28T14:24:14.196Z</time></trkpt><trkpt lat="45.5679683" lon="10.7410233"><ele>241.0</ele><time>2026-03-28T14:24:15.195Z</time></trkpt><trkpt lat="45.5679117" lon="10.74095"><ele>238.20000000000002</ele><time>2026-03-28T14:24:16.196Z</time></trkpt><trkpt lat="45.5678433" lon="10.7408817"><ele>235.40000000000003</ele><time>2026-03-28T14:24:17.196Z</time></trkpt><trkpt lat="45.567755" lon="10.74082"><ele>232.6</ele><time>2026-03-28T14:24:18.196Z</time></trkpt><trkpt lat="45.567655" lon="10.7407533"><ele>229.8</ele><time>2026-03-28T14:24:19.195Z</time></trkpt><trkpt lat="45.5675417" lon="10.7407033"><ele>227.0</ele><time>2026-03-28T14:24:20.195Z</time></trkpt><trkpt lat="45.5674167" lon="10.7406567"><ele>227.0</ele><time>2026-03-28T14:24:21.195Z</time></trkpt><trkpt lat="45.5672817" lon="10.7406233"><ele>227.0</ele><time>2026-03-28T14:24:22.196Z</time></trkpt><trkpt lat="45.567145" lon="10.74058"><ele>227.0</ele><time>2026-03-28T14:24:23.195Z</time></trkpt><trkpt lat="45.567035" lon="10.7405417"><ele>227.0</ele><time>2026-03-28T14:24:24.196Z</time></trkpt><trkpt lat="45.56695" lon="10.7404967"><ele>227.2</ele><time>2026-03-28T14:24:25.196Z</time></trkpt><trkpt lat="45.56687" lon="10.7404383"><ele>227.39999999999998</ele><time>2026-03-28T14:24:26.196Z</time></trkpt><trkpt lat="45.5667933" lon="10.7403667"><ele>227.60000000000002</ele><time>2026-03-28T14:24:27.195Z</time></trkpt><trkpt lat="45.56672" lon="10.74027"><ele>227.8</ele><time>2026-03-28T14:24:28.195Z</time></trkpt><trkpt lat="45.5666433" lon="10.7401517"><ele>228.0</ele><time>2026-03-28T14:24:29.196Z</time></trkpt><trkpt lat="45.5665767" lon="10.74001"><ele>229.25</ele><time>2026-03-28T14:24:30.195Z</time></trkpt><trkpt lat="45.5665183" lon="10.7398617"><ele>230.5</ele><time>2026-03-28T14:24:31.195Z</time></trkpt><trkpt lat="45.5664617" lon="10.7397083"><ele>231.75</ele><time>2026-03-28T14:24:32.196Z</time></trkpt><trkpt lat="45.566415" lon="10.7395633"><ele>233.0</ele><time>2026-03-28T14:24:33.196Z</time></trkpt><trkpt lat="45.5663883" lon="10.7393983"><ele>233.8</ele><time>2026-03-28T14:24:34.195Z</time></trkpt><trkpt lat="45.5663683" lon="10.7392433"><ele>234.60000000000002</ele><time>2026-03-28T14:24:35.195Z</time></trkpt><trkpt lat="45.5663567" lon="10.73911"><ele>235.39999999999998</ele><time>2026-03-28T14:24:36.196Z</time></trkpt><trkpt lat="45.56635" lon="10.7390117"><ele>236.2</ele><time>2026-03-28T14:24:37.196Z</time></trkpt><trkpt lat="45.5663767" lon="10.7388617"><ele>237.0</ele><time>2026-03-28T14:24:39.195Z</time></trkpt><trkpt lat="45.5664717" lon="10.7387383"><ele>237.0</ele><time>2026-03-28T14:24:41.196Z</time></trkpt><trkpt lat="45.5665383" lon="10.7386617"><ele>237.0</ele><time>2026-03-28T14:24:42.195Z</time></trkpt><trkpt lat="45.5666133" lon="10.7385683"><ele>237.0</ele><time>2026-03-28T14:24:43.196Z</time></trkpt><trkpt lat="45.5666867" lon="10.7384717"><ele>237.0</ele><time>2026-03-28T14:24:44.195Z</time></trkpt><trkpt lat="45.5667633" lon="10.738385"><ele>237.0</ele><time>2026-03-28T14:24:45.195Z</time></trkpt><trkpt lat="45.5668383" lon="10.738295"><ele>237.0</ele><time>2026-03-28T14:24:46.196Z</time></trkpt><trkpt lat="45.5669083" lon="10.73821"><ele>237.0</ele><time>2026-03-28T14:24:47.195Z</time></trkpt><trkpt lat="45.5669717" lon="10.738105"><ele>237.0</ele><time>2026-03-28T14:24:48.195Z</time></trkpt><trkpt lat="45.5670317" lon="10.7380017"><ele>237.0</ele><time>2026-03-28T14:24:49.195Z</time></trkpt><trkpt lat="45.5670883" lon="10.7379033"><ele>237.0</ele><time>2026-03-28T14:24:50.196Z</time></trkpt><trkpt lat="45.5671533" lon="10.7378"><ele>235.6</ele><time>2026-03-28T14:24:51.195Z</time></trkpt><trkpt lat="45.56721" lon="10.7377"><ele>234.2</ele><time>2026-03-28T14:24:52.196Z</time></trkpt><trkpt lat="45.567275" lon="10.73758"><ele>232.8</ele><time>2026-03-28T14:24:53.195Z</time></trkpt><trkpt lat="45.567345" lon="10.7374567"><ele>231.4</ele><time>2026-03-28T14:24:54.195Z</time></trkpt><trkpt lat="45.567405" lon="10.7373517"><ele>230.0</ele><time>2026-03-28T14:24:55.195Z</time></trkpt><trkpt lat="45.5674683" lon="10.7372333"><ele>230.0</ele><time>2026-03-28T14:24:56.195Z</time></trkpt><trkpt lat="45.5675283" lon="10.7371067"><ele>230.0</ele><time>2026-03-28T14:24:57.196Z</time></trkpt><trkpt lat="45.567565" lon="10.73696"><ele>230.0</ele><time>2026-03-28T14:24:58.195Z</time></trkpt><trkpt lat="45.5675967" lon="10.7368017"><ele>230.0</ele><time>2026-03-28T14:24:59.196Z</time></trkpt><trkpt lat="45.56761" lon="10.7366233"><ele>229.8</ele><time>2026-03-28T14:25:00.196Z</time></trkpt><trkpt lat="45.5676183" lon="10.7364583"><ele>229.6</ele><time>2026-03-28T14:25:01.195Z</time></trkpt><trkpt lat="45.5676267" lon="10.7363383"><ele>229.39999999999998</ele><time>2026-03-28T14:25:02.195Z</time></trkpt><trkpt lat="45.5676467" lon="10.736205"><ele>229.2</ele><time>2026-03-28T14:25:04.195Z</time></trkpt><trkpt lat="45.567735" lon="10.73626"><ele>229.0</ele><time>2026-03-28T14:25:06.195Z</time></trkpt><trkpt lat="45.5677833" lon="10.7363533"><ele>228.99999999999997</ele><time>2026-03-28T14:25:07.195Z</time></trkpt><trkpt lat="45.5678233" lon="10.7364267"><ele>229.0</ele><time>2026-03-28T14:25:08.196Z</time></trkpt><trkpt lat="45.56788" lon="10.7364817"><ele>229.0</ele><time>2026-03-28T14:25:10.196Z</time></trkpt><trkpt lat="45.5679033" lon="10.7363667"><ele>229.0</ele><time>2026-03-28T14:25:15.195Z</time></trkpt><trkpt lat="45.56785" lon="10.7362167"><ele>228.99999999999997</ele><time>2026-03-28T14:25:17.196Z</time></trkpt><trkpt lat="45.5677883" lon="10.7361283"><ele>229.0</ele><time>2026-03-28T14:25:18.195Z</time></trkpt><trkpt lat="45.5677467" lon="10.7360183"><ele>228.33333333333331</ele><time>2026-03-28T14:25:19.196Z</time></trkpt><trkpt lat="45.567705" lon="10.7359133"><ele>227.66666666666666</ele><time>2026-03-28T14:25:20.195Z</time></trkpt><trkpt lat="45.5676717" lon="10.7358233"><ele>227.0</ele><time>2026-03-28T14:25:21.195Z</time></trkpt><trkpt lat="45.5676517" lon="10.7356667"><ele>226.33333333333331</ele><time>2026-03-28T14:25:23.195Z</time></trkpt><trkpt lat="45.56768" lon="10.7355517"><ele>225.66666666666666</ele><time>2026-03-28T14:25:25.195Z</time></trkpt><trkpt lat="45.5677233" lon="10.7354733"><ele>225.0</ele><time>2026-03-28T14:25:28.196Z</time></trkpt><trkpt lat="45.5676967" lon="10.7355983"><ele>225.0</ele><time>2026-03-28T14:25:53.195Z</time></trkpt><trkpt lat="45.5676817" lon="10.7356867"><ele>225.0</ele><time>2026-03-28T14:25:54.195Z</time></trkpt><trkpt lat="45.5677117" lon="10.735815"><ele>225.0</ele><time>2026-03-28T14:25:56.195Z</time></trkpt><trkpt lat="45.56784" lon="10.7358483"><ele>225.0</ele><time>2026-03-28T14:25:58.195Z</time></trkpt><trkpt lat="45.5679383" lon="10.7358633"><ele>225.0</ele><time>2026-03-28T14:25:59.196Z</time></trkpt><trkpt lat="45.5680433" lon="10.7358917"><ele>224.16666666666666</ele><time>2026-03-28T14:26:00.195Z</time></trkpt><trkpt lat="45.5681367" lon="10.73592"><ele>223.33333333333331</ele><time>2026-03-28T14:26:01.195Z</time></trkpt><trkpt lat="45.5682167" lon="10.73595"><ele>222.5</ele><time>2026-03-28T14:26:02.195Z</time></trkpt><trkpt lat="45.5682867" lon="10.7359733"><ele>221.66666666666666</ele><time>2026-03-28T14:26:03.196Z</time></trkpt><trkpt lat="45.568365" lon="10.7360017"><ele>220.83333333333331</ele><time>2026-03-28T14:26:04.195Z</time></trkpt><trkpt lat="45.5684467" lon="10.7360317"><ele>220.0</ele><time>2026-03-28T14:26:05.195Z</time></trkpt><trkpt lat="45.568535" lon="10.7360467"><ele>220.0</ele><time>2026-03-28T14:26:06.195Z</time></trkpt><trkpt lat="45.5686317" lon="10.736045"><ele>220.0</ele><time>2026-03-28T14:26:07.195Z</time></trkpt><trkpt lat="45.5687333" lon="10.7360383"><ele>220.0</ele><time>2026-03-28T14:26:08.195Z</time></trkpt><trkpt lat="45.56884" lon="10.73603"><ele>220.0</ele><time>2026-03-28T14:26:09.196Z</time></trkpt><trkpt lat="45.5689533" lon="10.7360333"><ele>220.0</ele><time>2026-03-28T14:26:10.196Z</time></trkpt><trkpt lat="45.5690667" lon="10.736045"><ele>219.5</ele><time>2026-03-28T14:26:11.195Z</time></trkpt><trkpt lat="45.56918" lon="10.7360867"><ele>219.0</ele><time>2026-03-28T14:26:12.196Z</time></trkpt><trkpt lat="45.5692917" lon="10.7361317"><ele>218.5</ele><time>2026-03-28T14:26:13.195Z</time></trkpt><trkpt lat="45.5694" lon="10.73618"><ele>218.0</ele><time>2026-03-28T14:26:14.195Z</time></trkpt><trkpt lat="45.5695117" lon="10.7362183"><ele>218.25</ele><time>2026-03-28T14:26:15.195Z</time></trkpt><trkpt lat="45.56963" lon="10.7362533"><ele>218.5</ele><time>2026-03-28T14:26:16.195Z</time></trkpt><trkpt lat="45.5697517" lon="10.73627"><ele>218.75</ele><time>2026-03-28T14:26:17.195Z</time></trkpt><trkpt lat="45.5698733" lon="10.7362917"><ele>219.0</ele><time>2026-03-28T14:26:18.195Z</time></trkpt><trkpt lat="45.569995" lon="10.73631"><ele>219.0</ele><time>2026-03-28T14:26:19.195Z</time></trkpt><trkpt lat="45.5701217" lon="10.7363167"><ele>219.0</ele><time>2026-03-28T14:26:20.196Z</time></trkpt><trkpt lat="45.570245" lon="10.7363283"><ele>219.0</ele><time>2026-03-28T14:26:21.195Z</time></trkpt><trkpt lat="45.5703717" lon="10.73634"><ele>219.0</ele><time>2026-03-28T14:26:22.195Z</time></trkpt><trkpt lat="45.5704767" lon="10.7363433"><ele>219.6</ele><time>2026-03-28T14:26:23.195Z</time></trkpt><trkpt lat="45.5705517" lon="10.73634"><ele>220.2</ele><time>2026-03-28T14:26:24.195Z</time></trkpt><trkpt lat="45.57065" lon="10.736355"><ele>220.79999999999998</ele><time>2026-03-28T14:26:26.196Z</time></trkpt><trkpt lat="45.5707067" lon="10.7364917"><ele>221.39999999999998</ele><time>2026-03-28T14:26:28.195Z</time></trkpt><trkpt lat="45.5707317" lon="10.736605"><ele>222.0</ele><time>2026-03-28T14:26:29.195Z</time></trkpt><trkpt lat="45.5707583" lon="10.7367333"><ele>222.0</ele><time>2026-03-28T14:26:30.196Z</time></trkpt><trkpt lat="45.57079" lon="10.73686"><ele>222.0</ele><time>2026-03-28T14:26:31.195Z</time></trkpt><trkpt lat="45.570815" lon="10.736985"><ele>222.0</ele><time>2026-03-28T14:26:32.196Z</time></trkpt><trkpt lat="45.5708383" lon="10.7371217"><ele>222.0</ele><time>2026-03-28T14:26:33.195Z</time></trkpt><trkpt lat="45.57085" lon="10.737265"><ele>222.0</ele><time>2026-03-28T14:26:34.195Z</time></trkpt><trkpt lat="45.5708483" lon="10.737405"><ele>222.0</ele><time>2026-03-28T14:26:35.196Z</time></trkpt><trkpt lat="45.5708517" lon="10.7375433"><ele>222.0</ele><time>2026-03-28T14:26:36.196Z</time></trkpt><trkpt lat="45.57086" lon="10.7376767"><ele>222.0</ele><time>2026-03-28T14:26:37.195Z</time></trkpt><trkpt lat="45.5708633" lon="10.737785"><ele>222.0</ele><time>2026-03-28T14:26:38.196Z</time></trkpt><trkpt lat="45.5708783" lon="10.7378783"><ele>222.0</ele><time>2026-03-28T14:26:39.195Z</time></trkpt><trkpt lat="45.5708867" lon="10.7379817"><ele>222.0</ele><time>2026-03-28T14:26:40.195Z</time></trkpt><trkpt lat="45.5708917" lon="10.7380867"><ele>221.8</ele><time>2026-03-28T14:26:41.195Z</time></trkpt><trkpt lat="45.5709033" lon="10.738195"><ele>221.6</ele><time>2026-03-28T14:26:42.196Z</time></trkpt><trkpt lat="45.5709067" lon="10.7382917"><ele>221.40000000000003</ele><time>2026-03-28T14:26:43.195Z</time></trkpt><trkpt lat="45.5709183" lon="10.7384567"><ele>221.20000000000002</ele><time>2026-03-28T14:26:45.196Z</time></trkpt><trkpt lat="45.5709233" lon="10.7386267"><ele>221.0</ele><time>2026-03-28T14:26:47.195Z</time></trkpt><trkpt lat="45.5709267" lon="10.73879"><ele>221.00000000000003</ele><time>2026-03-28T14:26:49.195Z</time></trkpt><trkpt lat="45.57093" lon="10.7388933"><ele>221.0</ele><time>2026-03-28T14:26:50.195Z</time></trkpt><trkpt lat="45.5709283" lon="10.7390133"><ele>221.0</ele><time>2026-03-28T14:26:51.195Z</time></trkpt><trkpt lat="45.5709233" lon="10.7391433"><ele>221.0</ele><time>2026-03-28T14:26:52.195Z</time></trkpt><trkpt lat="45.5709183" lon="10.7392717"><ele>221.00000000000003</ele><time>2026-03-28T14:26:53.196Z</time></trkpt><trkpt lat="45.57092" lon="10.73938"><ele>221.0</ele><time>2026-03-28T14:26:54.196Z</time></trkpt><trkpt lat="45.57092" lon="10.7394817"><ele>221.00000000000003</ele><time>2026-03-28T14:26:55.195Z</time></trkpt><trkpt lat="45.57091" lon="10.739635"><ele>221.0</ele><time>2026-03-28T14:26:57.195Z</time></trkpt><trkpt lat="45.5709317" lon="10.7397333"><ele>221.0</ele><time>2026-03-28T14:27:00.195Z</time></trkpt><trkpt lat="45.57101" lon="10.7397433"><ele>221.0</ele><time>2026-03-28T14:27:03.195Z</time></trkpt><trkpt lat="45.571095" lon="10.7396933"><ele>221.00000000000003</ele><time>2026-03-28T14:27:05.196Z</time></trkpt><trkpt lat="45.571175" lon="10.7397017"><ele>221.0</ele><time>2026-03-28T14:27:07.195Z</time></trkpt><trkpt lat="45.5712267" lon="10.7398067"><ele>218.0</ele><time>2026-03-28T14:27:09.195Z</time></trkpt><trkpt lat="45.5712433" lon="10.73996"><ele>215.00000000000003</ele><time>2026-03-28T14:27:11.196Z</time></trkpt><trkpt lat="45.5712483" lon="10.7401233"><ele>212.0</ele><time>2026-03-28T14:27:13.195Z</time></trkpt><trkpt lat="45.571245" lon="10.7403"><ele>209.0</ele><time>2026-03-28T14:27:15.195Z</time></trkpt><trkpt lat="45.5712417" lon="10.7404017"><ele>206.0</ele><time>2026-03-28T14:27:16.195Z</time></trkpt><trkpt lat="45.57124" lon="10.7405233"><ele>205.50000000000003</ele><time>2026-03-28T14:27:17.196Z</time></trkpt><trkpt lat="45.5712367" lon="10.74064"><ele>205.0</ele><time>2026-03-28T14:27:18.195Z</time></trkpt><trkpt lat="45.5712417" lon="10.740735"><ele>204.5</ele><time>2026-03-28T14:27:19.195Z</time></trkpt><trkpt lat="45.571245" lon="10.7408267"><ele>204.0</ele><time>2026-03-28T14:27:20.196Z</time></trkpt><trkpt lat="45.57123" lon="10.7409867"><ele>203.50000000000003</ele><time>2026-03-28T14:27:22.195Z</time></trkpt><trkpt lat="45.5711717" lon="10.74112"><ele>203.0</ele><time>2026-03-28T14:27:24.195Z</time></trkpt><trkpt lat="45.5711217" lon="10.7411867"><ele>207.33333333333334</ele><time>2026-03-28T14:27:25.195Z</time></trkpt><trkpt lat="45.57107" lon="10.74126"><ele>211.66666666666669</ele><time>2026-03-28T14:27:26.196Z</time></trkpt><trkpt lat="45.57103" lon="10.7413617"><ele>216.0</ele><time>2026-03-28T14:27:27.195Z</time></trkpt><trkpt lat="45.57101" lon="10.7414833"><ele>220.33333333333331</ele><time>2026-03-28T14:27:28.196Z</time></trkpt><trkpt lat="45.5710167" lon="10.7416217"><ele>224.66666666666666</ele><time>2026-03-28T14:27:29.195Z</time></trkpt><trkpt lat="45.57104" lon="10.7417483"><ele>229.0</ele><time>2026-03-28T14:27:30.195Z</time></trkpt><trkpt lat="45.5710483" lon="10.7418583"><ele>229.2</ele><time>2026-03-28T14:27:31.196Z</time></trkpt><trkpt lat="45.5711067" lon="10.7419917"><ele>229.39999999999998</ele><time>2026-03-28T14:27:33.195Z</time></trkpt><trkpt lat="45.57121" lon="10.7420583"><ele>229.6</ele><time>2026-03-28T14:27:35.195Z</time></trkpt><trkpt lat="45.571315" lon="10.7421583"><ele>229.8</ele><time>2026-03-28T14:27:37.195Z</time></trkpt><trkpt lat="45.5713667" lon="10.7422133"><ele>230.0</ele><time>2026-03-28T14:27:38.195Z</time></trkpt><trkpt lat="45.5714617" lon="10.7423117"><ele>226.66666666666669</ele><time>2026-03-28T14:27:40.196Z</time></trkpt><trkpt lat="45.5715467" lon="10.74241"><ele>223.33333333333334</ele><time>2026-03-28T14:27:42.195Z</time></trkpt><trkpt lat="45.5716183" lon="10.7425233"><ele>220.0</ele><time>2026-03-28T14:27:44.196Z</time></trkpt><trkpt lat="45.5717067" lon="10.7425767"><ele>216.66666666666669</ele><time>2026-03-28T14:27:46.195Z</time></trkpt><trkpt lat="45.57177" lon="10.7425783"><ele>213.33333333333334</ele><time>2026-03-28T14:27:47.196Z</time></trkpt><trkpt lat="45.57184" lon="10.7425717"><ele>210.0</ele><time>2026-03-28T14:27:48.196Z</time></trkpt><trkpt lat="45.57193" lon="10.7425283"><ele>210.0</ele><time>2026-03-28T14:27:49.195Z</time></trkpt><trkpt lat="45.5720133" lon="10.7424867"><ele>210.0</ele><time>2026-03-28T14:27:50.195Z</time></trkpt><trkpt lat="45.5721133" lon="10.7425033"><ele>210.0</ele><time>2026-03-28T14:27:52.196Z</time></trkpt><trkpt lat="45.572225" lon="10.74257"><ele>210.0</ele><time>2026-03-28T14:27:54.195Z</time></trkpt><trkpt lat="45.572295" lon="10.7426333"><ele>210.0</ele><time>2026-03-28T14:27:55.196Z</time></trkpt><trkpt lat="45.57237" lon="10.7427117"><ele>211.6</ele><time>2026-03-28T14:27:56.195Z</time></trkpt><trkpt lat="45.5724467" lon="10.742795"><ele>213.2</ele><time>2026-03-28T14:27:57.196Z</time></trkpt><trkpt lat="45.5725333" lon="10.74288"><ele>214.8</ele><time>2026-03-28T14:27:58.195Z</time></trkpt><trkpt lat="45.572615" lon="10.7429717"><ele>216.4</ele><time>2026-03-28T14:27:59.195Z</time></trkpt><trkpt lat="45.5727133" lon="10.74305"><ele>218.0</ele><time>2026-03-28T14:28:00.195Z</time></trkpt><trkpt lat="45.5728117" lon="10.7431333"><ele>215.4</ele><time>2026-03-28T14:28:01.195Z</time></trkpt><trkpt lat="45.5729017" lon="10.74323"><ele>212.8</ele><time>2026-03-28T14:28:02.195Z</time></trkpt><trkpt lat="45.5729983" lon="10.74331"><ele>210.2</ele><time>2026-03-28T14:28:03.195Z</time></trkpt><trkpt lat="45.57309" lon="10.7433983"><ele>207.6</ele><time>2026-03-28T14:28:04.196Z</time></trkpt><trkpt lat="45.57317" lon="10.743465"><ele>205.0</ele><time>2026-03-28T14:28:05.196Z</time></trkpt><trkpt lat="45.573245" lon="10.7435333"><ele>208.4</ele><time>2026-03-28T14:28:06.196Z</time></trkpt><trkpt lat="45.5733217" lon="10.743605"><ele>211.8</ele><time>2026-03-28T14:28:07.195Z</time></trkpt><trkpt lat="45.5733967" lon="10.7436867"><ele>215.2</ele><time>2026-03-28T14:28:08.195Z</time></trkpt><trkpt lat="45.5734683" lon="10.7437833"><ele>218.6</ele><time>2026-03-28T14:28:09.196Z</time></trkpt><trkpt lat="45.5735433" lon="10.7438867"><ele>222.0</ele><time>2026-03-28T14:28:10.195Z</time></trkpt><trkpt lat="45.573615" lon="10.7439767"><ele>222.0</ele><time>2026-03-28T14:28:11.196Z</time></trkpt><trkpt lat="45.5736767" lon="10.74406"><ele>222.0</ele><time>2026-03-28T14:28:12.196Z</time></trkpt><trkpt lat="45.573745" lon="10.744125"><ele>222.0</ele><time>2026-03-28T14:28:13.196Z</time></trkpt><trkpt lat="45.5738117" lon="10.7441667"><ele>222.0</ele><time>2026-03-28T14:28:14.195Z</time></trkpt><trkpt lat="45.5739083" lon="10.7441917"><ele>222.0</ele><time>2026-03-28T14:28:16.195Z</time></trkpt><trkpt lat="45.574025" lon="10.7442417"><ele>222.16666666666666</ele><time>2026-03-28T14:28:18.196Z</time></trkpt><trkpt lat="45.5741383" lon="10.7443383"><ele>222.33333333333331</ele><time>2026-03-28T14:28:20.195Z</time></trkpt><trkpt lat="45.5742" lon="10.7443917"><ele>222.5</ele><time>2026-03-28T14:28:21.196Z</time></trkpt><trkpt lat="45.5742617" lon="10.7444483"><ele>222.66666666666666</ele><time>2026-03-28T14:28:22.195Z</time></trkpt><trkpt lat="45.5743283" lon="10.7444933"><ele>222.83333333333331</ele><time>2026-03-28T14:28:23.195Z</time></trkpt><trkpt lat="45.5743883" lon="10.74455"><ele>223.0</ele><time>2026-03-28T14:28:24.196Z</time></trkpt><trkpt lat="45.5744933" lon="10.744615"><ele>219.99999999999997</ele><time>2026-03-28T14:28:26.196Z</time></trkpt><trkpt lat="45.5746183" lon="10.7446233"><ele>217.0</ele><time>2026-03-28T14:28:28.196Z</time></trkpt><trkpt lat="45.574685" lon="10.7446183"><ele>214.0</ele><time>2026-03-28T14:28:29.196Z</time></trkpt><trkpt lat="45.5747633" lon="10.744625"><ele>211.0</ele><time>2026-03-28T14:28:30.195Z</time></trkpt><trkpt lat="45.5748417" lon="10.7446467"><ele>207.99999999999997</ele><time>2026-03-28T14:28:31.195Z</time></trkpt><trkpt lat="45.574935" lon="10.7446883"><ele>205.0</ele><time>2026-03-28T14:28:32.195Z</time></trkpt><trkpt lat="45.57506" lon="10.7447267"><ele>205.0</ele><time>2026-03-28T14:28:33.196Z</time></trkpt><trkpt lat="45.575175" lon="10.7447617"><ele>205.0</ele><time>2026-03-28T14:28:34.195Z</time></trkpt><trkpt lat="45.5752883" lon="10.744795"><ele>205.0</ele><time>2026-03-28T14:28:35.195Z</time></trkpt><trkpt lat="45.5753933" lon="10.74482"><ele>205.0</ele><time>2026-03-28T14:28:36.195Z</time></trkpt><trkpt lat="45.5754817" lon="10.7448517"><ele>205.0</ele><time>2026-03-28T14:28:37.195Z</time></trkpt><trkpt lat="45.5755783" lon="10.7448733"><ele>203.83333333333331</ele><time>2026-03-28T14:28:38.196Z</time></trkpt><trkpt lat="45.575665" lon="10.7448917"><ele>202.66666666666666</ele><time>2026-03-28T14:28:39.195Z</time></trkpt><trkpt lat="45.5757433" lon="10.7449"><ele>201.5</ele><time>2026-03-28T14:28:40.196Z</time></trkpt><trkpt lat="45.5758117" lon="10.7449183"><ele>200.33333333333331</ele><time>2026-03-28T14:28:41.195Z</time></trkpt><trkpt lat="45.57588" lon="10.7449917"><ele>199.16666666666666</ele><time>2026-03-28T14:28:43.196Z</time></trkpt><trkpt lat="45.5759283" lon="10.7450567"><ele>198.0</ele><time>2026-03-28T14:28:55.195Z</time></trkpt><trkpt lat="45.575995" lon="10.745065"><ele>198.0</ele><time>2026-03-28T14:28:57.196Z</time></trkpt><trkpt lat="45.5760667" lon="10.745055"><ele>198.0</ele><time>2026-03-28T14:28:58.195Z</time></trkpt><trkpt lat="45.57619" lon="10.7450383"><ele>198.0</ele><time>2026-03-28T14:29:00.196Z</time></trkpt><trkpt lat="45.57629" lon="10.7450167"><ele>198.0</ele><time>2026-03-28T14:29:02.196Z</time></trkpt><trkpt lat="45.57638" lon="10.7450117"><ele>198.0</ele><time>2026-03-28T14:29:04.195Z</time></trkpt><trkpt lat="45.5764683" lon="10.7449717"><ele>199.16666666666666</ele><time>2026-03-28T14:29:06.195Z</time></trkpt><trkpt lat="45.5765433" lon="10.744925"><ele>200.33333333333331</ele><time>2026-03-28T14:29:08.195Z</time></trkpt><trkpt lat="45.57663" lon="10.7449183"><ele>201.5</ele><time>2026-03-28T14:29:10.195Z</time></trkpt><trkpt lat="45.5767067" lon="10.7449133"><ele>202.66666666666666</ele><time>2026-03-28T14:29:12.195Z</time></trkpt><trkpt lat="45.5767933" lon="10.7448767"><ele>203.83333333333331</ele><time>2026-03-28T14:29:14.195Z</time></trkpt><trkpt lat="45.5768583" lon="10.7448567"><ele>205.0</ele><time>2026-03-28T14:29:16.195Z</time></trkpt><trkpt lat="45.5769333" lon="10.74485"><ele>204.99999999999997</ele><time>2026-03-28T14:29:18.195Z</time></trkpt><trkpt lat="45.5769983" lon="10.7448267"><ele>205.0</ele><time>2026-03-28T14:29:20.195Z</time></trkpt><trkpt lat="45.577065" lon="10.7448"><ele>205.0</ele><time>2026-03-28T14:29:23.195Z</time></trkpt><trkpt lat="45.5771533" lon="10.744775"><ele>205.0</ele><time>2026-03-28T14:29:26.195Z</time></trkpt><trkpt lat="45.5772517" lon="10.744755"><ele>204.99999999999997</ele><time>2026-03-28T14:29:28.195Z</time></trkpt><trkpt lat="45.5773183" lon="10.74472"><ele>205.0</ele><time>2026-03-28T14:29:29.194Z</time></trkpt><trkpt lat="45.5773933" lon="10.7446783"><ele>205.66666666666666</ele><time>2026-03-28T14:29:30.194Z</time></trkpt><trkpt lat="45.577475" lon="10.7446417"><ele>206.33333333333331</ele><time>2026-03-28T14:29:31.195Z</time></trkpt><trkpt lat="45.57755" lon="10.7446117"><ele>207.0</ele><time>2026-03-28T14:29:32.194Z</time></trkpt><trkpt lat="45.5776233" lon="10.7445833"><ele>207.66666666666669</ele><time>2026-03-28T14:29:33.194Z</time></trkpt><trkpt lat="45.5776883" lon="10.74455"><ele>208.33333333333334</ele><time>2026-03-28T14:29:34.195Z</time></trkpt><trkpt lat="45.577755" lon="10.744515"><ele>209.0</ele><time>2026-03-28T14:29:35.195Z</time></trkpt><trkpt lat="45.577855" lon="10.7444767"><ele>215.0</ele><time>2026-03-28T14:29:37.195Z</time></trkpt><trkpt lat="45.5779283" lon="10.7444317"><ele>215.0</ele><time>2026-03-28T14:29:40.194Z</time></trkpt><trkpt lat="45.5779917" lon="10.7444117"><ele>215.0</ele><time>2026-03-28T14:30:18.195Z</time></trkpt></trkseg><trkseg><trkpt lat="45.582975" lon="10.7459067"><ele>228.0</ele><time>2026-03-28T14:34:46.194Z</time></trkpt><trkpt lat="45.5831133" lon="10.7459017"><ele>228.0</ele><time>2026-03-28T14:34:47.193Z</time></trkpt><trkpt lat="45.5833917" lon="10.74589"><ele>228.0</ele><time>2026-03-28T14:34:49.194Z</time></trkpt><trkpt lat="45.5835183" lon="10.7458783"><ele>228.0</ele><time>2026-03-28T14:34:50.194Z</time></trkpt><trkpt lat="45.583645" lon="10.74588"><ele>228.0</ele><time>2026-03-28T14:34:51.193Z</time></trkpt><trkpt lat="45.5837717" lon="10.7458883"><ele>228.0</ele><time>2026-03-28T14:34:52.193Z</time></trkpt><trkpt lat="45.583895" lon="10.7458883"><ele>228.0</ele><time>2026-03-28T14:34:53.194Z</time></trkpt><trkpt lat="45.5840033" lon="10.7458867"><ele>229.0</ele><time>2026-03-28T14:34:54.193Z</time></trkpt><trkpt lat="45.5841067" lon="10.7458867"><ele>230.0</ele><time>2026-03-28T14:34:55.193Z</time></trkpt><trkpt lat="45.584195" lon="10.7458783"><ele>231.0</ele><time>2026-03-28T14:34:56.193Z</time></trkpt><trkpt lat="45.584275" lon="10.7458583"><ele>232.0</ele><time>2026-03-28T14:34:57.194Z</time></trkpt><trkpt lat="45.5843983" lon="10.7458"><ele>233.0</ele><time>2026-03-28T14:34:59.193Z</time></trkpt><trkpt lat="45.584475" lon="10.7457633"><ele>233.50000000000003</ele><time>2026-03-28T14:35:00.194Z</time></trkpt><trkpt lat="45.5845533" lon="10.7457233"><ele>234.0</ele><time>2026-03-28T14:35:01.193Z</time></trkpt><trkpt lat="45.5846267" lon="10.7456817"><ele>234.5</ele><time>2026-03-28T14:35:02.193Z</time></trkpt><trkpt lat="45.5847033" lon="10.7456333"><ele>235.0</ele><time>2026-03-28T14:35:03.193Z</time></trkpt><trkpt lat="45.5847767" lon="10.7455683"><ele>235.50000000000003</ele><time>2026-03-28T14:35:04.193Z</time></trkpt><trkpt lat="45.58485" lon="10.7454917"><ele>236.0</ele><time>2026-03-28T14:35:05.194Z</time></trkpt><trkpt lat="45.584925" lon="10.7454133"><ele>236.00000000000003</ele><time>2026-03-28T14:35:06.193Z</time></trkpt><trkpt lat="45.5849967" lon="10.7453567"><ele>236.0</ele><time>2026-03-28T14:35:07.193Z</time></trkpt><trkpt lat="45.5850767" lon="10.74531"><ele>236.0</ele><time>2026-03-28T14:35:08.194Z</time></trkpt><trkpt lat="45.5851533" lon="10.745305"><ele>236.0</ele><time>2026-03-28T14:35:09.194Z</time></trkpt><trkpt lat="45.585245" lon="10.7452867"><ele>236.00000000000003</ele><time>2026-03-28T14:35:10.193Z</time></trkpt><trkpt lat="45.5853483" lon="10.74529"><ele>236.0</ele><time>2026-03-28T14:35:11.194Z</time></trkpt><trkpt lat="45.585465" lon="10.7453117"><ele>237.0</ele><time>2026-03-28T14:35:12.193Z</time></trkpt><trkpt lat="45.58557" lon="10.7453383"><ele>237.0</ele><time>2026-03-28T14:35:13.193Z</time></trkpt></trkseg></trk></gpx>